Wetterdaten: Sonntag, 24.03.2024
Datum Zeit Temp. I. Temp. A. Feuchte I. Feuchte A. Luftdruck Regen Wind Richtung Richtung Sonnenschein Solar Taupunkt Windchill Windböen
24.03.2024 00:00 21,3 °C 2,6 °C 52 % 90 % 1006,7 hPa 0,0 l/m² 11,6 km/h (2 Bft) SW 227 ° 0 min 0 W/m² 1,1 °C -1,7 °C 17,7 km/h (3 Bft)
24.03.2024 00:01 21,3 °C 2,6 °C 52 % 90 % 1006,7 hPa 0,0 l/m² 13,1 km/h (3 Bft) SW 231 ° 0 min 0 W/m² 1,1 °C -2,7 °C 17,7 km/h (3 Bft)
24.03.2024 00:02 21,3 °C 2,6 °C 52 % 90 % 1006,7 hPa 0,0 l/m² 10,3 km/h (2 Bft) SW 215 ° 0 min 0 W/m² 1,1 °C -0,8 °C 16,1 km/h (3 Bft)
24.03.2024 00:04 21,3 °C 2,6 °C 52 % 90 % 1006,7 hPa 0,0 l/m² 16,5 km/h (3 Bft) SW 229 ° 0 min 0 W/m² 1,1 °C -4,6 °C 22,5 km/h (4 Bft)
24.03.2024 00:06 21,3 °C 2,7 °C 52 % 90 % 1006,6 hPa 0,0 l/m² 15,5 km/h (3 Bft) S-SW 200 ° 0 min 0 W/m² 1,2 °C -4,0 °C 19,3 km/h (3 Bft)
24.03.2024 00:08 21,3 °C 2,7 °C 52 % 90 % 1006,5 hPa 0,0 l/m² 15,3 km/h (3 Bft) S-SW 211 ° 0 min 0 W/m² 1,2 °C -3,9 °C 20,9 km/h (4 Bft)
24.03.2024 00:10 21,3 °C 2,7 °C 52 % 90 % 1006,6 hPa 0,0 l/m² 13,3 km/h (3 Bft) S-SW 212 ° 0 min 0 W/m² 1,2 °C -2,7 °C 19,3 km/h (3 Bft)
24.03.2024 00:11 21,3 °C 2,7 °C 52 % 90 % 1006,6 hPa 0,0 l/m² 13,4 km/h (3 Bft) S-SW 209 ° 0 min 0 W/m² 1,2 °C -2,8 °C 20,9 km/h (4 Bft)
24.03.2024 00:13 21,3 °C 2,7 °C 52 % 90 % 1006,5 hPa 0,0 l/m² 16,5 km/h (3 Bft) S-SW 213 ° 0 min 0 W/m² 1,2 °C -4,5 °C 24,1 km/h (4 Bft)
24.03.2024 00:15 21,2 °C 2,7 °C 52 % 90 % 1006,5 hPa 0,0 l/m² 13,7 km/h (3 Bft) SW 215 ° 0 min 0 W/m² 1,2 °C -3,0 °C 19,3 km/h (3 Bft)
24.03.2024 00:16 21,2 °C 2,7 °C 52 % 90 % 1006,4 hPa 0,0 l/m² 15,6 km/h (3 Bft) S 186 ° 0 min 0 W/m² 1,2 °C -4,0 °C 24,1 km/h (4 Bft)
24.03.2024 00:17 21,3 °C 2,7 °C 52 % 90 % 1006,5 hPa 0,0 l/m² 15,8 km/h (3 Bft) S-SW 211 ° 0 min 0 W/m² 1,2 °C -4,1 °C 20,9 km/h (4 Bft)
24.03.2024 00:18 21,3 °C 2,7 °C 52 % 90 % 1006,5 hPa 0,0 l/m² 14,7 km/h (3 Bft) SW 232 ° 0 min 0 W/m² 1,2 °C -3,5 °C 19,3 km/h (3 Bft)
24.03.2024 00:19 21,3 °C 2,7 °C 52 % 90 % 1006,5 hPa 0,0 l/m² 17,4 km/h (3 Bft) SW 220 ° 0 min 0 W/m² 1,2 °C -5,0 °C 22,5 km/h (4 Bft)
24.03.2024 00:22 21,3 °C 2,7 °C 52 % 90 % 1006,5 hPa 0,0 l/m² 15,3 km/h (3 Bft) S-SW 213 ° 0 min 0 W/m² 1,2 °C -3,9 °C 24,1 km/h (4 Bft)
24.03.2024 00:23 21,3 °C 2,7 °C 52 % 90 % 1006,5 hPa 0,0 l/m² 16,4 km/h (3 Bft) S-SW 202 ° 0 min 0 W/m² 1,2 °C -4,5 °C 20,9 km/h (4 Bft)
24.03.2024 00:24 21,3 °C 2,7 °C 52 % 90 % 1006,5 hPa 0,0 l/m² 15,7 km/h (3 Bft) S-SW 209 ° 0 min 0 W/m² 1,2 °C -4,1 °C 20,9 km/h (4 Bft)
24.03.2024 00:25 21,3 °C 2,7 °C 52 % 90 % 1006,5 hPa 0,0 l/m² 13,9 km/h (3 Bft) S-SW 213 ° 0 min 0 W/m² 1,2 °C -3,1 °C 22,5 km/h (4 Bft)
24.03.2024 00:26 21,3 °C 2,7 °C 52 % 90 % 1006,5 hPa 0,0 l/m² 15,0 km/h (3 Bft) SW 229 ° 0 min 0 W/m² 1,2 °C -3,7 °C 20,9 km/h (4 Bft)
24.03.2024 00:27 21,3 °C 2,7 °C 52 % 90 % 1006,5 hPa 0,0 l/m² 11,8 km/h (2 Bft) W-SW 240 ° 0 min 0 W/m² 1,2 °C -1,8 °C 16,1 km/h (3 Bft)
24.03.2024 00:28 21,3 °C 2,7 °C 52 % 89 % 1006,4 hPa 0,0 l/m² 11,0 km/h (2 Bft) S-SW 210 ° 0 min 0 W/m² 1,1 °C -1,2 °C 12,9 km/h (3 Bft)
24.03.2024 00:29 21,2 °C 2,6 °C 52 % 89 % 1006,5 hPa 0,0 l/m² 12,3 km/h (2 Bft) SW 221 ° 0 min 0 W/m² 1,0 °C -2,2 °C 16,1 km/h (3 Bft)
24.03.2024 00:32 21,3 °C 2,6 °C 52 % 89 % 1006,4 hPa 0,0 l/m² 13,4 km/h (3 Bft) SW 215 ° 0 min 0 W/m² 1,0 °C -2,9 °C 22,5 km/h (4 Bft)
24.03.2024 00:33 21,3 °C 2,6 °C 52 % 89 % 1006,4 hPa 0,0 l/m² 11,5 km/h (2 Bft) S-SW 213 ° 0 min 0 W/m² 1,0 °C -1,7 °C 14,5 km/h (3 Bft)
24.03.2024 00:34 21,3 °C 2,6 °C 52 % 89 % 1006,4 hPa 0,0 l/m² 13,2 km/h (3 Bft) S-SW 213 ° 0 min 0 W/m² 1,0 °C -2,8 °C 16,1 km/h (3 Bft)
24.03.2024 00:35 21,3 °C 2,6 °C 52 % 89 % 1006,4 hPa 0,0 l/m² 13,2 km/h (3 Bft) S-SW 202 ° 0 min 0 W/m² 1,0 °C -2,8 °C 17,7 km/h (3 Bft)
24.03.2024 00:36 21,2 °C 2,5 °C 52 % 90 % 1006,4 hPa 0,0 l/m² 12,8 km/h (3 Bft) S-SW 211 ° 0 min 0 W/m² 1,0 °C -2,6 °C 16,1 km/h (3 Bft)
24.03.2024 00:37 21,3 °C 2,5 °C 52 % 90 % 1006,4 hPa 0,0 l/m² 12,6 km/h (3 Bft) S 182 ° 0 min 0 W/m² 1,0 °C -2,5 °C 17,7 km/h (3 Bft)
24.03.2024 00:38 21,3 °C 2,4 °C 52 % 90 % 1006,4 hPa 0,0 l/m² 10,8 km/h (2 Bft) S-SW 213 ° 0 min 0 W/m² 0,9 °C -1,4 °C 14,5 km/h (3 Bft)
24.03.2024 00:39 21,3 °C 2,4 °C 52 % 90 % 1006,4 hPa 0,0 l/m² 16,9 km/h (3 Bft) S-SW 210 ° 0 min 0 W/m² 0,9 °C -5,1 °C 22,5 km/h (4 Bft)
24.03.2024 00:42 21,3 °C 2,4 °C 52 % 89 % 1006,4 hPa 0,0 l/m² 13,6 km/h (3 Bft) S-SW 197 ° 0 min 0 W/m² 0,8 °C -3,3 °C 19,3 km/h (3 Bft)
24.03.2024 00:43 21,3 °C 2,4 °C 52 % 90 % 1006,4 hPa 0,0 l/m² 13,4 km/h (3 Bft) SW 216 ° 0 min 0 W/m² 0,9 °C -3,1 °C 16,1 km/h (3 Bft)
24.03.2024 00:44 21,3 °C 2,4 °C 52 % 90 % 1006,4 hPa 0,0 l/m² 9,7 km/h (2 Bft) SW 217 ° 0 min 0 W/m² 0,9 °C -0,6 °C 19,3 km/h (3 Bft)
24.03.2024 00:47 21,3 °C 2,3 °C 52 % 90 % 1006,4 hPa 0,0 l/m² 13,0 km/h (3 Bft) SW 214 ° 0 min 0 W/m² 0,8 °C -3,0 °C 19,3 km/h (3 Bft)
24.03.2024 00:48 21,3 °C 2,3 °C 52 % 90 % 1006,4 hPa 0,0 l/m² 10,9 km/h (2 Bft) SW 216 ° 0 min 0 W/m² 0,8 °C -1,6 °C 14,5 km/h (3 Bft)
24.03.2024 00:49 21,3 °C 2,3 °C 52 % 90 % 1006,2 hPa 0,0 l/m² 12,5 km/h (2 Bft) S-SW 208 ° 0 min 0 W/m² 0,8 °C -2,7 °C 16,1 km/h (3 Bft)
24.03.2024 00:50 21,3 °C 2,3 °C 52 % 90 % 1006,2 hPa 0,0 l/m² 15,2 km/h (3 Bft) S-SW 205 ° 0 min 0 W/m² 0,8 °C -4,3 °C 19,3 km/h (3 Bft)
24.03.2024 00:53 21,3 °C 2,2 °C 52 % 90 % 1006,2 hPa 0,0 l/m² 13,6 km/h (3 Bft) S-SW 203 ° 0 min 0 W/m² 0,7 °C -3,5 °C 19,3 km/h (3 Bft)
24.03.2024 00:54 21,3 °C 2,3 °C 52 % 90 % 1006,2 hPa 0,0 l/m² 13,6 km/h (3 Bft) S-SW 205 ° 0 min 0 W/m² 0,8 °C -3,4 °C 16,1 km/h (3 Bft)
24.03.2024 00:55 21,3 °C 2,2 °C 52 % 90 % 1006,2 hPa 0,0 l/m² 13,2 km/h (3 Bft) S-SW 210 ° 0 min 0 W/m² 0,7 °C -3,2 °C 14,5 km/h (3 Bft)
24.03.2024 00:56 21,3 °C 2,2 °C 52 % 90 % 1006,2 hPa 0,0 l/m² 12,2 km/h (2 Bft) S-SW 209 ° 0 min 0 W/m² 0,7 °C -2,6 °C 16,1 km/h (3 Bft)
24.03.2024 00:57 21,3 °C 2,2 °C 52 % 90 % 1006,1 hPa 0,0 l/m² 12,7 km/h (3 Bft) SW 227 ° 0 min 0 W/m² 0,7 °C -2,9 °C 17,7 km/h (3 Bft)
24.03.2024 00:58 21,3 °C 2,2 °C 52 % 90 % 1006,1 hPa 0,0 l/m² 14,2 km/h (3 Bft) SW 215 ° 0 min 0 W/m² 0,7 °C -3,9 °C 17,7 km/h (3 Bft)
24.03.2024 00:59 21,3 °C 2,2 °C 52 % 90 % 1006,1 hPa 0,0 l/m² 14,5 km/h (3 Bft) S-SW 213 ° 0 min 0 W/m² 0,7 °C -4,0 °C 17,7 km/h (3 Bft)
24.03.2024 01:01 21,3 °C 2,2 °C 52 % 90 % 1006,1 hPa 0,0 l/m² 13,1 km/h (3 Bft) S-SW 208 ° 0 min 0 W/m² 0,7 °C -3,2 °C 19,3 km/h (3 Bft)
24.03.2024 01:02 21,3 °C 2,2 °C 52 % 90 % 1006,2 hPa 0,0 l/m² 13,0 km/h (3 Bft) SW 223 ° 0 min 0 W/m² 0,7 °C -3,1 °C 17,7 km/h (3 Bft)
24.03.2024 01:03 21,3 °C 2,2 °C 52 % 90 % 1006,2 hPa 0,0 l/m² 9,7 km/h (2 Bft) SW 231 ° 0 min 0 W/m² 0,7 °C -0,8 °C 14,5 km/h (3 Bft)
24.03.2024 01:04 21,3 °C 2,2 °C 52 % 90 % 1006,2 hPa 0,0 l/m² 13,0 km/h (3 Bft) S-SW 213 ° 0 min 0 W/m² 0,7 °C -3,1 °C 14,5 km/h (3 Bft)
24.03.2024 01:05 21,3 °C 2,2 °C 52 % 90 % 1006,2 hPa 0,0 l/m² 10,6 km/h (2 Bft) SW 215 ° 0 min 0 W/m² 0,7 °C -1,5 °C 14,5 km/h (3 Bft)
24.03.2024 01:06 21,3 °C 2,2 °C 52 % 90 % 1006,1 hPa 0,0 l/m² 10,9 km/h (2 Bft) SW 215 ° 0 min 0 W/m² 0,7 °C -1,7 °C 12,9 km/h (3 Bft)
24.03.2024 01:07 21,3 °C 2,2 °C 52 % 90 % 1006,1 hPa 0,0 l/m² 13,0 km/h (3 Bft) S-SW 199 ° 0 min 0 W/m² 0,7 °C -3,1 °C 16,1 km/h (3 Bft)
24.03.2024 01:08 21,3 °C 2,2 °C 52 % 90 % 1006,1 hPa 0,0 l/m² 12,3 km/h (2 Bft) SW 231 ° 0 min 0 W/m² 0,7 °C -2,7 °C 16,1 km/h (3 Bft)
24.03.2024 01:09 21,3 °C 2,2 °C 52 % 90 % 1006,1 hPa 0,0 l/m² 11,5 km/h (2 Bft) SW 220 ° 0 min 0 W/m² 0,7 °C -2,1 °C 16,1 km/h (3 Bft)
24.03.2024 01:10 21,3 °C 2,2 °C 52 % 90 % 1006,2 hPa 0,0 l/m² 12,8 km/h (3 Bft) SW 221 ° 0 min 0 W/m² 0,7 °C -3,0 °C 17,7 km/h (3 Bft)
24.03.2024 01:13 21,3 °C 2,2 °C 52 % 90 % 1006,1 hPa 0,0 l/m² 13,0 km/h (3 Bft) SW 229 ° 0 min 0 W/m² 0,7 °C -3,1 °C 20,9 km/h (4 Bft)
24.03.2024 01:14 21,3 °C 2,2 °C 52 % 90 % 1006,1 hPa 0,0 l/m² 13,5 km/h (3 Bft) SW 217 ° 0 min 0 W/m² 0,7 °C -3,4 °C 17,7 km/h (3 Bft)
24.03.2024 01:15 21,3 °C 2,2 °C 52 % 90 % 1006,1 hPa 0,0 l/m² 16,3 km/h (3 Bft) S-SW 209 ° 0 min 0 W/m² 0,7 °C -5,0 °C 20,9 km/h (4 Bft)
24.03.2024 01:16 21,3 °C 2,2 °C 52 % 90 % 1006,1 hPa 0,0 l/m² 15,0 km/h (3 Bft) S-SW 205 ° 0 min 0 W/m² 0,7 °C -4,3 °C 20,9 km/h (4 Bft)
24.03.2024 01:17 21,3 °C 2,2 °C 52 % 90 % 1006,1 hPa 0,0 l/m² 14,1 km/h (3 Bft) SW 219 ° 0 min 0 W/m² 0,7 °C -3,8 °C 19,3 km/h (3 Bft)
24.03.2024 01:18 21,3 °C 2,2 °C 52 % 90 % 1006,1 hPa 0,0 l/m² 13,9 km/h (3 Bft) SW 226 ° 0 min 0 W/m² 0,7 °C -3,7 °C 19,3 km/h (3 Bft)
24.03.2024 01:19 21,3 °C 2,2 °C 52 % 90 % 1006,1 hPa 0,0 l/m² 15,1 km/h (3 Bft) SW 221 ° 0 min 0 W/m² 0,7 °C -4,4 °C 17,7 km/h (3 Bft)
24.03.2024 01:22 21,3 °C 2,2 °C 52 % 90 % 1006,1 hPa 0,0 l/m² 13,8 km/h (3 Bft) S-SW 213 ° 0 min 0 W/m² 0,7 °C -3,6 °C 19,3 km/h (3 Bft)
24.03.2024 01:23 21,3 °C 2,3 °C 52 % 90 % 1006,1 hPa 0,0 l/m² 13,7 km/h (3 Bft) S-SW 206 ° 0 min 0 W/m² 0,8 °C -3,4 °C 17,7 km/h (3 Bft)
24.03.2024 01:24 21,3 °C 2,3 °C 51 % 90 % 1006,0 hPa 0,0 l/m² 14,0 km/h (3 Bft) SW 231 ° 0 min 0 W/m² 0,8 °C -3,6 °C 16,1 km/h (3 Bft)
24.03.2024 01:25 21,3 °C 2,3 °C 52 % 90 % 1006,1 hPa 0,0 l/m² 11,8 km/h (2 Bft) S-SW 210 ° 0 min 0 W/m² 0,8 °C -2,2 °C 14,5 km/h (3 Bft)
24.03.2024 01:26 21,3 °C 2,2 °C 51 % 90 % 1006,1 hPa 0,0 l/m² 11,6 km/h (2 Bft) S-SW 208 ° 0 min 0 W/m² 0,7 °C -2,2 °C 14,5 km/h (3 Bft)
24.03.2024 01:27 21,3 °C 2,2 °C 52 % 90 % 1006,0 hPa 0,0 l/m² 9,5 km/h (2 Bft) S-SW 202 ° 0 min 0 W/m² 0,7 °C -0,6 °C 14,5 km/h (3 Bft)
24.03.2024 01:28 21,3 °C 2,2 °C 52 % 90 % 1006,0 hPa 0,0 l/m² 13,6 km/h (3 Bft) S-SW 207 ° 0 min 0 W/m² 0,7 °C -3,5 °C 19,3 km/h (3 Bft)
24.03.2024 01:29 21,3 °C 2,2 °C 51 % 90 % 1006,0 hPa 0,0 l/m² 12,9 km/h (3 Bft) S-SW 209 ° 0 min 0 W/m² 0,7 °C -3,1 °C 17,7 km/h (3 Bft)
24.03.2024 01:32 21,3 °C 2,2 °C 51 % 90 % 1005,9 hPa 0,0 l/m² 12,7 km/h (3 Bft) S-SW 211 ° 0 min 0 W/m² 0,7 °C -2,9 °C 17,7 km/h (3 Bft)
24.03.2024 01:33 21,3 °C 2,2 °C 51 % 90 % 1006,0 hPa 0,0 l/m² 14,5 km/h (3 Bft) S-SW 203 ° 0 min 0 W/m² 0,7 °C -4,0 °C 17,7 km/h (3 Bft)
24.03.2024 01:34 21,3 °C 2,2 °C 51 % 90 % 1005,9 hPa 0,0 l/m² 12,7 km/h (3 Bft) S-SW 209 ° 0 min 0 W/m² 0,7 °C -2,9 °C 14,5 km/h (3 Bft)
24.03.2024 01:35 21,3 °C 2,2 °C 51 % 90 % 1005,9 hPa 0,0 l/m² 10,2 km/h (2 Bft) SW 219 ° 0 min 0 W/m² 0,7 °C -1,2 °C 14,5 km/h (3 Bft)
24.03.2024 01:36 21,3 °C 2,1 °C 51 % 90 % 1005,9 hPa 0,0 l/m² 10,5 km/h (2 Bft) SW 223 ° 0 min 0 W/m² 0,6 °C -1,5 °C 14,5 km/h (3 Bft)
24.03.2024 01:37 21,3 °C 2,1 °C 51 % 90 % 1005,9 hPa 0,0 l/m² 11,6 km/h (2 Bft) SW 217 ° 0 min 0 W/m² 0,6 °C -2,3 °C 16,1 km/h (3 Bft)
24.03.2024 01:38 21,3 °C 2,1 °C 52 % 90 % 1005,9 hPa 0,0 l/m² 10,1 km/h (2 Bft) S-SW 205 ° 0 min 0 W/m² 0,6 °C -1,2 °C 12,9 km/h (3 Bft)
24.03.2024 01:39 21,3 °C 2,1 °C 51 % 90 % 1005,8 hPa 0,0 l/m² 8,9 km/h (2 Bft) S-SW 213 ° 0 min 0 W/m² 0,6 °C -0,2 °C 12,9 km/h (3 Bft)
24.03.2024 01:42 21,3 °C 2,0 °C 51 % 90 % 1005,8 hPa 0,0 l/m² 11,1 km/h (2 Bft) S-SW 202 ° 0 min 0 W/m² 0,5 °C -2,1 °C 16,1 km/h (3 Bft)
24.03.2024 01:43 21,3 °C 1,9 °C 51 % 90 % 1005,8 hPa 0,0 l/m² 12,7 km/h (3 Bft) S-SW 204 ° 0 min 0 W/m² 0,4 °C -3,3 °C 16,1 km/h (3 Bft)
24.03.2024 01:44 21,3 °C 1,9 °C 51 % 90 % 1005,8 hPa 0,0 l/m² 8,9 km/h (2 Bft) S-SW 206 ° 0 min 0 W/m² 0,4 °C -0,5 °C 11,3 km/h (2 Bft)
24.03.2024 01:45 21,3 °C 1,9 °C 52 % 90 % 1005,8 hPa 0,0 l/m² 14,6 km/h (3 Bft) S-SW 205 ° 0 min 0 W/m² 0,4 °C -4,4 °C 20,9 km/h (4 Bft)
24.03.2024 01:46 21,3 °C 1,9 °C 51 % 90 % 1005,8 hPa 0,0 l/m² 10,6 km/h (2 Bft) SW 227 ° 0 min 0 W/m² 0,4 °C -1,8 °C 12,9 km/h (3 Bft)
24.03.2024 01:47 21,3 °C 1,9 °C 51 % 90 % 1005,7 hPa 0,0 l/m² 9,6 km/h (2 Bft) SW 215 ° 0 min 0 W/m² 0,4 °C -1,0 °C 12,9 km/h (3 Bft)
24.03.2024 01:48 21,3 °C 1,9 °C 51 % 90 % 1005,8 hPa 0,0 l/m² 10,1 km/h (2 Bft) S-SW 200 ° 0 min 0 W/m² 0,4 °C -1,4 °C 14,5 km/h (3 Bft)
24.03.2024 01:49 21,3 °C 1,9 °C 51 % 90 % 1005,7 hPa 0,0 l/m² 9,3 km/h (2 Bft) S-SW 207 ° 0 min 0 W/m² 0,4 °C -0,8 °C 11,3 km/h (2 Bft)
24.03.2024 01:52 21,3 °C 1,8 °C 51 % 90 % 1005,8 hPa 0,0 l/m² 9,9 km/h (2 Bft) S-SW 201 ° 0 min 0 W/m² 0,3 °C -1,4 °C 14,5 km/h (3 Bft)
24.03.2024 01:53 21,3 °C 1,8 °C 51 % 90 % 1005,9 hPa 0,0 l/m² 7,4 km/h (2 Bft) S-SW 205 ° 0 min 0 W/m² 0,3 °C 0,8 °C 9,7 km/h (2 Bft)
24.03.2024 01:54 21,3 °C 1,8 °C 51 % 90 % 1005,8 hPa 0,0 l/m² 8,7 km/h (2 Bft) S-SW 200 ° 0 min 0 W/m² 0,3 °C -0,4 °C 11,3 km/h (2 Bft)
24.03.2024 01:55 21,2 °C 1,7 °C 51 % 90 % 1005,7 hPa 0,0 l/m² 6,9 km/h (2 Bft) S-SW 207 ° 0 min 0 W/m² 0,2 °C 1,2 °C 9,7 km/h (2 Bft)
24.03.2024 01:56 21,3 °C 1,7 °C 51 % 90 % 1005,7 hPa 0,0 l/m² 6,7 km/h (2 Bft) S-SW 201 ° 0 min 0 W/m² 0,2 °C 1,4 °C 8,0 km/h (2 Bft)
24.03.2024 01:57 21,3 °C 1,7 °C 51 % 90 % 1005,7 hPa 0,0 l/m² 5,1 km/h (1 Bft) S-SW 200 ° 0 min 0 W/m² 0,2 °C 1,7 °C 8,0 km/h (2 Bft)
24.03.2024 01:58 21,3 °C 1,6 °C 51 % 90 % 1005,7 hPa 0,0 l/m² 7,0 km/h (2 Bft) SW 220 ° 0 min 0 W/m² 0,1 °C 1,0 °C 9,7 km/h (2 Bft)
24.03.2024 01:59 21,3 °C 1,6 °C 51 % 90 % 1005,6 hPa 0,0 l/m² 9,1 km/h (2 Bft) S-SW 194 ° 0 min 0 W/m² 0,1 °C -0,9 °C 14,5 km/h (3 Bft)
24.03.2024 02:00 21,3 °C 1,6 °C 51 % 90 % 1005,6 hPa 0,0 l/m² 5,4 km/h (2 Bft) S-SW 198 ° 0 min 0 W/m² 0,1 °C 1,6 °C 6,4 km/h (2 Bft)
24.03.2024 02:03 21,3 °C 1,4 °C 51 % 90 % 1005,7 hPa 0,0 l/m² 6,0 km/h (2 Bft) S-SW 209 ° 0 min 0 W/m² -0,1 °C 1,4 °C 9,7 km/h (2 Bft)
24.03.2024 02:04 21,3 °C 1,4 °C 51 % 90 % 1005,6 hPa 0,0 l/m² 5,1 km/h (1 Bft) S-SW 207 ° 0 min 0 W/m² -0,1 °C 1,4 °C 6,4 km/h (2 Bft)
24.03.2024 02:05 21,3 °C 1,4 °C 51 % 90 % 1005,6 hPa 0,0 l/m² 11,4 km/h (2 Bft) SW 221 ° 0 min 0 W/m² -0,1 °C -3,0 °C 16,1 km/h (3 Bft)
24.03.2024 02:06 21,3 °C 1,4 °C 51 % 90 % 1005,7 hPa 0,0 l/m² 12,9 km/h (3 Bft) S-SW 208 ° 0 min 0 W/m² -0,1 °C -4,0 °C 14,5 km/h (3 Bft)
24.03.2024 02:07 21,3 °C 1,4 °C 51 % 90 % 1005,6 hPa 0,0 l/m² 8,1 km/h (2 Bft) S-SW 211 ° 0 min 0 W/m² -0,1 °C -0,3 °C 14,5 km/h (3 Bft)
24.03.2024 02:08 21,3 °C 1,4 °C 51 % 90 % 1005,6 hPa 0,0 l/m² 11,5 km/h (2 Bft) S-SW 209 ° 0 min 0 W/m² -0,1 °C -3,0 °C 12,9 km/h (3 Bft)
24.03.2024 02:09 21,3 °C 1,4 °C 51 % 90 % 1005,5 hPa 0,0 l/m² 12,8 km/h (3 Bft) S-SW 206 ° 0 min 0 W/m² -0,1 °C -3,9 °C 17,7 km/h (3 Bft)
24.03.2024 02:12 21,3 °C 1,6 °C 51 % 90 % 1005,6 hPa 0,0 l/m² 12,8 km/h (3 Bft) SW 222 ° 0 min 0 W/m² 0,1 °C -3,7 °C 20,9 km/h (4 Bft)
24.03.2024 02:13 21,3 °C 1,6 °C 51 % 90 % 1005,6 hPa 0,0 l/m² 10,1 km/h (2 Bft) S-SW 202 ° 0 min 0 W/m² 0,1 °C -1,8 °C 12,9 km/h (3 Bft)
24.03.2024 02:14 21,3 °C 1,6 °C 51 % 90 % 1005,6 hPa 0,0 l/m² 11,2 km/h (2 Bft) SW 226 ° 0 min 0 W/m² 0,1 °C -2,6 °C 17,7 km/h (3 Bft)
24.03.2024 02:15 21,3 °C 1,6 °C 51 % 91 % 1005,5 hPa 0,0 l/m² 13,7 km/h (3 Bft) SW 227 ° 0 min 0 W/m² 0,3 °C -4,3 °C 19,3 km/h (3 Bft)
24.03.2024 02:16 21,2 °C 1,7 °C 51 % 91 % 1005,5 hPa 0,0 l/m² 15,0 km/h (3 Bft) SW 220 ° 0 min 0 W/m² 0,4 °C -4,9 °C 17,7 km/h (3 Bft)
24.03.2024 02:17 21,3 °C 1,7 °C 51 % 91 % 1005,5 hPa 0,0 l/m² 12,6 km/h (3 Bft) S-SW 211 ° 0 min 0 W/m² 0,4 °C -3,4 °C 16,1 km/h (3 Bft)
24.03.2024 02:18 21,2 °C 1,7 °C 51 % 91 % 1005,5 hPa 0,0 l/m² 15,6 km/h (3 Bft) S-SW 209 ° 0 min 0 W/m² 0,4 °C -5,3 °C 19,3 km/h (3 Bft)
24.03.2024 02:19 21,3 °C 1,7 °C 51 % 91 % 1005,5 hPa 0,0 l/m² 16,8 km/h (3 Bft) S-SW 210 ° 0 min 0 W/m² 0,4 °C -5,9 °C 24,1 km/h (4 Bft)
24.03.2024 02:20 21,2 °C 1,8 °C 51 % 91 % 1005,4 hPa 0,0 l/m² 15,2 km/h (3 Bft) S-SW 212 ° 0 min 0 W/m² 0,5 °C -4,9 °C 20,9 km/h (4 Bft)
24.03.2024 02:23 21,3 °C 1,8 °C 51 % 91 % 1005,4 hPa 0,0 l/m² 13,0 km/h (3 Bft) SW 227 ° 0 min 0 W/m² 0,5 °C -3,6 °C 19,3 km/h (3 Bft)
24.03.2024 02:24 21,2 °C 1,8 °C 51 % 91 % 1005,4 hPa 0,0 l/m² 14,7 km/h (3 Bft) S-SW 197 ° 0 min 0 W/m² 0,5 °C -4,6 °C 17,7 km/h (3 Bft)
24.03.2024 02:25 21,2 °C 1,9 °C 51 % 91 % 1005,4 hPa 0,0 l/m² 10,5 km/h (2 Bft) S-SW 205 ° 0 min 0 W/m² 0,6 °C -1,7 °C 14,5 km/h (3 Bft)
24.03.2024 02:26 21,2 °C 1,9 °C 51 % 91 % 1005,3 hPa 0,0 l/m² 11,9 km/h (2 Bft) SW 221 ° 0 min 0 W/m² 0,6 °C -2,7 °C 19,3 km/h (3 Bft)
24.03.2024 02:27 21,2 °C 1,9 °C 51 % 90 % 1005,4 hPa 0,0 l/m² 15,4 km/h (3 Bft) S-SW 199 ° 0 min 0 W/m² 0,4 °C -4,9 °C 19,3 km/h (3 Bft)
24.03.2024 02:28 21,2 °C 1,9 °C 51 % 90 % 1005,3 hPa 0,0 l/m² 13,5 km/h (3 Bft) S-SW 209 ° 0 min 0 W/m² 0,4 °C -3,8 °C 19,3 km/h (3 Bft)
24.03.2024 02:29 21,2 °C 1,9 °C 51 % 90 % 1005,4 hPa 0,0 l/m² 13,0 km/h (3 Bft) S-SW 213 ° 0 min 0 W/m² 0,4 °C -3,5 °C 16,1 km/h (3 Bft)
24.03.2024 02:30 21,2 °C 1,8 °C 51 % 90 % 1005,4 hPa 0,0 l/m² 14,6 km/h (3 Bft) SW 229 ° 0 min 0 W/m² 0,3 °C -4,6 °C 19,3 km/h (3 Bft)
24.03.2024 02:33 21,2 °C 1,8 °C 51 % 90 % 1005,3 hPa 0,0 l/m² 12,5 km/h (2 Bft) S-SW 211 ° 0 min 0 W/m² 0,3 °C -3,3 °C 19,3 km/h (3 Bft)
24.03.2024 02:34 21,2 °C 1,8 °C 51 % 90 % 1005,4 hPa 0,0 l/m² 12,5 km/h (2 Bft) SW 217 ° 0 min 0 W/m² 0,3 °C -3,3 °C 16,1 km/h (3 Bft)
24.03.2024 02:35 21,2 °C 1,8 °C 51 % 90 % 1005,3 hPa 0,0 l/m² 10,9 km/h (2 Bft) S-SW 201 ° 0 min 0 W/m² 0,3 °C -2,1 °C 14,5 km/h (3 Bft)
24.03.2024 02:36 21,2 °C 1,8 °C 51 % 90 % 1005,3 hPa 0,0 l/m² 8,5 km/h (2 Bft) S-SW 210 ° 0 min 0 W/m² 0,3 °C -0,2 °C 12,9 km/h (3 Bft)
24.03.2024 02:37 21,2 °C 1,8 °C 51 % 90 % 1005,3 hPa 0,0 l/m² 10,3 km/h (2 Bft) SW 214 ° 0 min 0 W/m² 0,3 °C -1,7 °C 12,9 km/h (3 Bft)
24.03.2024 02:38 21,2 °C 1,8 °C 51 % 90 % 1005,3 hPa 0,0 l/m² 11,7 km/h (2 Bft) S-SW 199 ° 0 min 0 W/m² 0,3 °C -2,7 °C 14,5 km/h (3 Bft)
24.03.2024 02:39 21,2 °C 1,8 °C 51 % 90 % 1005,2 hPa 0,0 l/m² 11,3 km/h (2 Bft) S-SW 213 ° 0 min 0 W/m² 0,3 °C -2,4 °C 19,3 km/h (3 Bft)
24.03.2024 02:42 21,2 °C 1,7 °C 51 % 90 % 1005,1 hPa 0,0 l/m² 12,2 km/h (2 Bft) S-SW 198 ° 0 min 0 W/m² 0,2 °C -3,2 °C 17,7 km/h (3 Bft)
24.03.2024 02:43 21,2 °C 1,7 °C 51 % 90 % 1005,1 hPa 0,0 l/m² 11,1 km/h (2 Bft) S-SW 202 ° 0 min 0 W/m² 0,2 °C -2,4 °C 16,1 km/h (3 Bft)
24.03.2024 02:44 21,2 °C 1,7 °C 51 % 90 % 1005,1 hPa 0,0 l/m² 14,6 km/h (3 Bft) S-SW 202 ° 0 min 0 W/m² 0,2 °C -4,7 °C 16,1 km/h (3 Bft)
24.03.2024 02:45 21,2 °C 1,7 °C 51 % 91 % 1005,1 hPa 0,0 l/m² 19,3 km/h (3 Bft) SW 215 ° 0 min 0 W/m² 0,4 °C -7,1 °C 20,9 km/h (4 Bft)
24.03.2024 02:46 21,2 °C 1,7 °C 51 % 91 % 1005,1 hPa 0,0 l/m² 15,2 km/h (3 Bft) S-SW 194 ° 0 min 0 W/m² 0,4 °C -5,0 °C 22,5 km/h (4 Bft)
24.03.2024 02:47 21,2 °C 1,7 °C 51 % 91 % 1005,0 hPa 0,0 l/m² 15,8 km/h (3 Bft) S-SW 197 ° 0 min 0 W/m² 0,4 °C -5,4 °C 19,3 km/h (3 Bft)
24.03.2024 02:48 21,2 °C 1,8 °C 51 % 91 % 1005,1 hPa 0,0 l/m² 15,0 km/h (3 Bft) S-SW 207 ° 0 min 0 W/m² 0,5 °C -4,8 °C 19,3 km/h (3 Bft)
24.03.2024 02:49 21,2 °C 1,8 °C 51 % 91 % 1005,1 hPa 0,0 l/m² 12,1 km/h (2 Bft) S-SW 212 ° 0 min 0 W/m² 0,5 °C -3,0 °C 19,3 km/h (3 Bft)
24.03.2024 02:52 21,2 °C 1,9 °C 51 % 91 % 1005,1 hPa 0,0 l/m² 16,6 km/h (3 Bft) SW 225 ° 0 min 0 W/m² 0,6 °C -5,6 °C 24,1 km/h (4 Bft)
24.03.2024 02:53 21,2 °C 1,9 °C 51 % 91 % 1005,1 hPa 0,0 l/m² 14,3 km/h (3 Bft) SW 222 ° 0 min 0 W/m² 0,6 °C -4,3 °C 19,3 km/h (3 Bft)
24.03.2024 02:54 21,2 °C 1,9 °C 51 % 91 % 1005,2 hPa 0,0 l/m² 17,9 km/h (3 Bft) SW 227 ° 0 min 0 W/m² 0,6 °C -6,2 °C 20,9 km/h (4 Bft)
24.03.2024 02:55 21,2 °C 2,0 °C 51 % 91 % 1005,1 hPa 0,0 l/m² 22,3 km/h (4 Bft) W-SW 242 ° 0 min 0 W/m² 0,7 °C -8,0 °C 27,4 km/h (5 Bft)
24.03.2024 02:56 21,2 °C 2,0 °C 51 % 91 % 1005,1 hPa 0,0 l/m² 19,5 km/h (3 Bft) S-SW 207 ° 0 min 0 W/m² 0,7 °C -6,8 °C 29,0 km/h (5 Bft)
24.03.2024 02:57 21,2 °C 2,1 °C 51 % 91 % 1005,1 hPa 0,0 l/m² 25,0 km/h (4 Bft) SW 216 ° 0 min 0 W/m² 0,8 °C -8,9 °C 29,0 km/h (5 Bft)
24.03.2024 02:58 21,2 °C 2,1 °C 51 % 91 % 1005,1 hPa 0,0 l/m² 18,2 km/h (3 Bft) SW 215 ° 0 min 0 W/m² 0,8 °C -6,1 °C 22,5 km/h (4 Bft)
24.03.2024 02:59 21,2 °C 2,2 °C 51 % 91 % 1005,1 hPa 0,0 l/m² 22,0 km/h (4 Bft) SW 215 ° 0 min 0 W/m² 0,9 °C -7,6 °C 27,4 km/h (5 Bft)
24.03.2024 03:00 21,2 °C 2,2 °C 51 % 91 % 1005,1 hPa 0,0 l/m² 20,9 km/h (4 Bft) SW 225 ° 0 min 0 W/m² 0,9 °C -7,2 °C 29,0 km/h (5 Bft)
24.03.2024 03:01 21,2 °C 2,2 °C 51 % 91 % 1005,1 hPa 0,0 l/m² 24,1 km/h (4 Bft) S-SW 202 ° 0 min 0 W/m² 0,9 °C -8,4 °C 30,6 km/h (5 Bft)
24.03.2024 03:06 21,2 °C 2,4 °C 51 % 91 % 1005,1 hPa 0,0 l/m² 13,7 km/h (3 Bft) S-SW 206 ° 0 min 0 W/m² 1,1 °C -3,3 °C 17,7 km/h (3 Bft)
24.03.2024 03:08 21,2 °C 2,4 °C 51 % 91 % 1005,0 hPa 0,0 l/m² 20,0 km/h (4 Bft) S-SW 207 ° 0 min 0 W/m² 1,1 °C -6,5 °C 30,6 km/h (5 Bft)
24.03.2024 03:09 21,2 °C 2,4 °C 51 % 90 % 1005,0 hPa 0,0 l/m² 16,9 km/h (3 Bft) SW 222 ° 0 min 0 W/m² 0,9 °C -5,1 °C 22,5 km/h (4 Bft)
24.03.2024 03:11 21,2 °C 2,5 °C 51 % 90 % 1005,0 hPa 0,0 l/m² 17,3 km/h (3 Bft) SW 215 ° 0 min 0 W/m² 1,0 °C -5,2 °C 24,1 km/h (4 Bft)
24.03.2024 03:12 21,2 °C 2,5 °C 51 % 90 % 1005,0 hPa 0,0 l/m² 17,8 km/h (3 Bft) SW 216 ° 0 min 0 W/m² 1,0 °C -5,4 °C 22,5 km/h (4 Bft)
24.03.2024 03:13 21,2 °C 2,6 °C 51 % 90 % 1005,0 hPa 0,0 l/m² 16,8 km/h (3 Bft) SW 221 ° 0 min 0 W/m² 1,1 °C -4,8 °C 24,1 km/h (4 Bft)
24.03.2024 03:15 21,2 °C 2,6 °C 51 % 90 % 1004,9 hPa 0,0 l/m² 16,9 km/h (3 Bft) S-SW 210 ° 0 min 0 W/m² 1,1 °C -4,8 °C 24,1 km/h (4 Bft)
24.03.2024 03:16 21,2 °C 2,6 °C 51 % 90 % 1004,9 hPa 0,0 l/m² 17,6 km/h (3 Bft) SW 214 ° 0 min 0 W/m² 1,1 °C -5,2 °C 24,1 km/h (4 Bft)
24.03.2024 03:18 21,2 °C 2,6 °C 51 % 90 % 1004,9 hPa 0,0 l/m² 20,8 km/h (4 Bft) SW 220 ° 0 min 0 W/m² 1,1 °C -6,6 °C 29,0 km/h (5 Bft)
24.03.2024 03:20 21,2 °C 2,6 °C 51 % 90 % 1005,0 hPa 0,0 l/m² 19,1 km/h (3 Bft) S-SW 205 ° 0 min 0 W/m² 1,1 °C -5,9 °C 25,7 km/h (4 Bft)
24.03.2024 03:21 21,2 °C 2,6 °C 51 % 90 % 1004,9 hPa 0,0 l/m² 19,2 km/h (3 Bft) S-SW 202 ° 0 min 0 W/m² 1,1 °C -5,9 °C 24,1 km/h (4 Bft)
24.03.2024 03:22 21,2 °C 2,6 °C 51 % 90 % 1004,9 hPa 0,0 l/m² 14,6 km/h (3 Bft) S-SW 198 ° 0 min 0 W/m² 1,1 °C -3,6 °C 19,3 km/h (3 Bft)
24.03.2024 03:23 21,2 °C 2,6 °C 51 % 90 % 1004,9 hPa 0,0 l/m² 13,6 km/h (3 Bft) S-SW 211 ° 0 min 0 W/m² 1,1 °C -3,0 °C 17,7 km/h (3 Bft)
24.03.2024 03:25 21,2 °C 2,5 °C 51 % 90 % 1004,9 hPa 0,0 l/m² 15,7 km/h (3 Bft) S-SW 205 ° 0 min 0 W/m² 1,0 °C -4,3 °C 22,5 km/h (4 Bft)
24.03.2024 03:26 21,2 °C 2,6 °C 51 % 90 % 1004,8 hPa 0,0 l/m² 14,5 km/h (3 Bft) S-SW 200 ° 0 min 0 W/m² 1,1 °C -3,5 °C 17,7 km/h (3 Bft)
24.03.2024 03:28 21,2 °C 2,5 °C 51 % 90 % 1004,8 hPa 0,0 l/m² 14,0 km/h (3 Bft) S-SW 211 ° 0 min 0 W/m² 1,0 °C -3,4 °C 20,9 km/h (4 Bft)
24.03.2024 03:30 21,2 °C 2,5 °C 51 % 90 % 1004,8 hPa 0,0 l/m² 12,9 km/h (3 Bft) S-SW 211 ° 0 min 0 W/m² 1,0 °C -2,7 °C 19,3 km/h (3 Bft)
24.03.2024 03:31 21,2 °C 2,4 °C 51 % 90 % 1004,8 hPa 0,0 l/m² 10,9 km/h (2 Bft) SW 222 ° 0 min 0 W/m² 0,9 °C -1,5 °C 14,5 km/h (3 Bft)
24.03.2024 03:33 21,2 °C 2,4 °C 51 % 90 % 1004,7 hPa 0,0 l/m² 17,4 km/h (3 Bft) S-SW 211 ° 0 min 0 W/m² 0,9 °C -5,3 °C 22,5 km/h (4 Bft)
24.03.2024 03:34 21,2 °C 2,5 °C 51 % 90 % 1004,8 hPa 0,0 l/m² 17,2 km/h (3 Bft) S-SW 205 ° 0 min 0 W/m² 1,0 °C -5,1 °C 24,1 km/h (4 Bft)
24.03.2024 03:35 21,2 °C 2,4 °C 51 % 90 % 1004,8 hPa 0,0 l/m² 18,1 km/h (3 Bft) SW 217 ° 0 min 0 W/m² 0,9 °C -5,7 °C 22,5 km/h (4 Bft)
24.03.2024 03:37 21,2 °C 2,5 °C 51 % 90 % 1004,7 hPa 0,0 l/m² 18,3 km/h (3 Bft) S-SW 207 ° 0 min 0 W/m² 1,0 °C -5,6 °C 22,5 km/h (4 Bft)
24.03.2024 03:39 21,2 °C 2,6 °C 51 % 90 % 1004,7 hPa 0,0 l/m² 14,7 km/h (3 Bft) SW 232 ° 0 min 0 W/m² 1,1 °C -3,7 °C 22,5 km/h (4 Bft)
24.03.2024 03:41 21,2 °C 2,6 °C 51 % 90 % 1004,7 hPa 0,0 l/m² 13,5 km/h (3 Bft) S-SW 211 ° 0 min 0 W/m² 1,1 °C -3,0 °C 19,3 km/h (3 Bft)
24.03.2024 03:42 21,2 °C 2,6 °C 51 % 90 % 1004,7 hPa 0,0 l/m² 16,5 km/h (3 Bft) SW 215 ° 0 min 0 W/m² 1,1 °C -4,6 °C 19,3 km/h (3 Bft)
24.03.2024 03:43 21,2 °C 2,6 °C 51 % 90 % 1004,6 hPa 0,0 l/m² 15,8 km/h (3 Bft) S-SW 209 ° 0 min 0 W/m² 1,1 °C -4,3 °C 19,3 km/h (3 Bft)
24.03.2024 03:44 21,1 °C 2,6 °C 51 % 90 % 1004,6 hPa 0,0 l/m² 15,9 km/h (3 Bft) S-SW 209 ° 0 min 0 W/m² 1,1 °C -4,3 °C 19,3 km/h (3 Bft)
24.03.2024 03:47 21,2 °C 2,6 °C 51 % 90 % 1004,6 hPa 0,0 l/m² 16,6 km/h (3 Bft) S-SW 200 ° 0 min 0 W/m² 1,1 °C -4,7 °C 22,5 km/h (4 Bft)
24.03.2024 03:49 21,2 °C 2,6 °C 51 % 90 % 1004,6 hPa 0,0 l/m² 16,9 km/h (3 Bft) S-SW 209 ° 0 min 0 W/m² 1,1 °C -4,8 °C 24,1 km/h (4 Bft)
24.03.2024 03:50 21,2 °C 2,6 °C 51 % 90 % 1004,6 hPa 0,0 l/m² 14,1 km/h (3 Bft) S-SW 205 ° 0 min 0 W/m² 1,1 °C -3,3 °C 19,3 km/h (3 Bft)
24.03.2024 03:51 21,1 °C 2,6 °C 51 % 90 % 1004,6 hPa 0,0 l/m² 16,4 km/h (3 Bft) SW 227 ° 0 min 0 W/m² 1,1 °C -4,6 °C 20,9 km/h (4 Bft)
24.03.2024 03:52 21,1 °C 2,6 °C 51 % 90 % 1004,7 hPa 0,0 l/m² 15,6 km/h (3 Bft) S-SW 205 ° 0 min 0 W/m² 1,1 °C -4,2 °C 20,9 km/h (4 Bft)
24.03.2024 03:54 21,1 °C 2,7 °C 51 % 90 % 1004,6 hPa 0,0 l/m² 14,7 km/h (3 Bft) SW 230 ° 0 min 0 W/m² 1,2 °C -3,5 °C 17,7 km/h (3 Bft)
24.03.2024 03:56 21,1 °C 2,7 °C 51 % 90 % 1004,6 hPa 0,0 l/m² 16,2 km/h (3 Bft) SW 230 ° 0 min 0 W/m² 1,2 °C -4,4 °C 20,9 km/h (4 Bft)
24.03.2024 03:58 21,1 °C 2,7 °C 51 % 90 % 1004,5 hPa 0,0 l/m² 15,4 km/h (3 Bft) S-SW 213 ° 0 min 0 W/m² 1,2 °C -3,9 °C 22,5 km/h (4 Bft)
24.03.2024 04:00 21,1 °C 2,7 °C 51 % 90 % 1004,6 hPa 0,0 l/m² 12,8 km/h (3 Bft) SW 217 ° 0 min 0 W/m² 1,2 °C -2,4 °C 19,3 km/h (3 Bft)
24.03.2024 04:01 21,1 °C 2,7 °C 51 % 90 % 1004,5 hPa 0,0 l/m² 16,4 km/h (3 Bft) SW 221 ° 0 min 0 W/m² 1,2 °C -4,5 °C 22,5 km/h (4 Bft)
24.03.2024 04:03 21,1 °C 2,8 °C 51 % 90 % 1004,5 hPa 0,0 l/m² 13,7 km/h (3 Bft) S-SW 211 ° 0 min 0 W/m² 1,3 °C -2,8 °C 22,5 km/h (4 Bft)
24.03.2024 04:04 21,1 °C 2,8 °C 51 % 90 % 1004,5 hPa 0,0 l/m² 13,8 km/h (3 Bft) SW 227 ° 0 min 0 W/m² 1,3 °C -2,9 °C 20,9 km/h (4 Bft)
24.03.2024 04:06 21,1 °C 2,8 °C 51 % 90 % 1004,4 hPa 0,0 l/m² 13,4 km/h (3 Bft) SW 219 ° 0 min 0 W/m² 1,3 °C -2,7 °C 20,9 km/h (4 Bft)
24.03.2024 04:08 21,1 °C 2,8 °C 51 % 90 % 1004,4 hPa 0,0 l/m² 15,0 km/h (3 Bft) S-SW 207 ° 0 min 0 W/m² 1,3 °C -3,6 °C 19,3 km/h (3 Bft)
24.03.2024 04:10 21,1 °C 2,8 °C 51 % 90 % 1004,5 hPa 0,0 l/m² 13,3 km/h (3 Bft) SW 225 ° 0 min 0 W/m² 1,3 °C -2,6 °C 16,1 km/h (3 Bft)
24.03.2024 04:11 21,2 °C 2,8 °C 51 % 90 % 1004,4 hPa 0,0 l/m² 14,0 km/h (3 Bft) SW 218 ° 0 min 0 W/m² 1,3 °C -3,0 °C 17,7 km/h (3 Bft)
24.03.2024 04:13 21,2 °C 2,8 °C 51 % 90 % 1004,4 hPa 0,0 l/m² 13,3 km/h (3 Bft) SW 219 ° 0 min 0 W/m² 1,3 °C -2,6 °C 17,7 km/h (3 Bft)
24.03.2024 04:14 21,2 °C 2,8 °C 51 % 90 % 1004,4 hPa 0,0 l/m² 10,8 km/h (2 Bft) S-SW 207 ° 0 min 0 W/m² 1,3 °C -0,9 °C 12,9 km/h (3 Bft)
24.03.2024 04:15 21,1 °C 2,8 °C 51 % 90 % 1004,4 hPa 0,0 l/m² 10,7 km/h (2 Bft) SW 217 ° 0 min 0 W/m² 1,3 °C -0,9 °C 14,5 km/h (3 Bft)
24.03.2024 04:17 21,1 °C 2,8 °C 51 % 90 % 1004,4 hPa 0,0 l/m² 12,8 km/h (3 Bft) SW 223 ° 0 min 0 W/m² 1,3 °C -2,3 °C 17,7 km/h (3 Bft)
24.03.2024 04:19 21,1 °C 2,8 °C 51 % 89 % 1004,4 hPa 0,0 l/m² 10,3 km/h (2 Bft) W-SW 242 ° 0 min 0 W/m² 1,2 °C -0,6 °C 16,1 km/h (3 Bft)
24.03.2024 04:20 21,1 °C 2,8 °C 51 % 89 % 1004,3 hPa 0,0 l/m² 11,5 km/h (2 Bft) S-SW 213 ° 0 min 0 W/m² 1,2 °C -1,4 °C 14,5 km/h (3 Bft)
24.03.2024 04:22 21,1 °C 2,8 °C 51 % 89 % 1004,3 hPa 0,0 l/m² 10,4 km/h (2 Bft) S-SW 204 ° 0 min 0 W/m² 1,2 °C -0,7 °C 16,1 km/h (3 Bft)
24.03.2024 04:23 21,1 °C 2,8 °C 51 % 89 % 1004,3 hPa 0,0 l/m² 13,8 km/h (3 Bft) S-SW 211 ° 0 min 0 W/m² 1,2 °C -2,9 °C 17,7 km/h (3 Bft)
24.03.2024 04:25 21,1 °C 2,8 °C 51 % 89 % 1004,2 hPa 0,0 l/m² 12,0 km/h (2 Bft) S-SW 200 ° 0 min 0 W/m² 1,2 °C -1,8 °C 17,7 km/h (3 Bft)
24.03.2024 04:27 21,1 °C 2,8 °C 51 % 89 % 1004,2 hPa 0,0 l/m² 15,0 km/h (3 Bft) S-SW 201 ° 0 min 0 W/m² 1,2 °C -3,6 °C 20,9 km/h (4 Bft)
24.03.2024 04:29 21,2 °C 2,8 °C 51 % 89 % 1004,1 hPa 0,0 l/m² 13,4 km/h (3 Bft) SW 215 ° 0 min 0 W/m² 1,2 °C -2,7 °C 17,7 km/h (3 Bft)
24.03.2024 04:31 21,2 °C 2,8 °C 51 % 89 % 1004,1 hPa 0,0 l/m² 13,7 km/h (3 Bft) S-SW 202 ° 0 min 0 W/m² 1,2 °C -2,8 °C 19,3 km/h (3 Bft)
24.03.2024 04:32 21,1 °C 2,8 °C 51 % 89 % 1004,1 hPa 0,0 l/m² 11,4 km/h (2 Bft) S-SW 204 ° 0 min 0 W/m² 1,2 °C -1,4 °C 14,5 km/h (3 Bft)
24.03.2024 04:33 21,1 °C 2,8 °C 51 % 89 % 1004,1 hPa 0,0 l/m² 14,9 km/h (3 Bft) S-SW 200 ° 0 min 0 W/m² 1,2 °C -3,5 °C 22,5 km/h (4 Bft)
24.03.2024 04:34 21,1 °C 2,8 °C 51 % 89 % 1004,1 hPa 0,0 l/m² 13,8 km/h (3 Bft) S-SW 202 ° 0 min 0 W/m² 1,2 °C -2,9 °C 17,7 km/h (3 Bft)
24.03.2024 04:36 21,2 °C 2,8 °C 51 % 89 % 1004,0 hPa 0,0 l/m² 15,0 km/h (3 Bft) S 177 ° 0 min 0 W/m² 1,2 °C -3,6 °C 20,9 km/h (4 Bft)
24.03.2024 04:38 21,2 °C 2,7 °C 51 % 89 % 1004,0 hPa 0,0 l/m² 12,6 km/h (3 Bft) S-SW 194 ° 0 min 0 W/m² 1,1 °C -2,3 °C 16,1 km/h (3 Bft)
24.03.2024 04:40 21,2 °C 2,7 °C 51 % 89 % 1004,0 hPa 0,0 l/m² 13,8 km/h (3 Bft) S-SW 209 ° 0 min 0 W/m² 1,1 °C -3,0 °C 19,3 km/h (3 Bft)
24.03.2024 04:41 21,2 °C 2,7 °C 51 % 89 % 1003,9 hPa 0,0 l/m² 14,7 km/h (3 Bft) S-SW 195 ° 0 min 0 W/m² 1,1 °C -3,5 °C 19,3 km/h (3 Bft)
24.03.2024 04:43 21,2 °C 2,7 °C 51 % 89 % 1004,0 hPa 0,0 l/m² 12,7 km/h (3 Bft) S 191 ° 0 min 0 W/m² 1,1 °C -2,3 °C 17,7 km/h (3 Bft)
24.03.2024 04:44 21,2 °C 2,7 °C 51 % 89 % 1003,9 hPa 0,0 l/m² 11,3 km/h (2 Bft) S-SW 198 ° 0 min 0 W/m² 1,1 °C -1,4 °C 14,5 km/h (3 Bft)
24.03.2024 04:46 21,1 °C 2,7 °C 51 % 89 % 1003,9 hPa 0,0 l/m² 13,2 km/h (3 Bft) S-SW 205 ° 0 min 0 W/m² 1,1 °C -2,7 °C 17,7 km/h (3 Bft)
24.03.2024 04:48 21,1 °C 2,7 °C 51 % 89 % 1003,9 hPa 0,0 l/m² 15,1 km/h (3 Bft) S-SW 194 ° 0 min 0 W/m² 1,1 °C -3,8 °C 20,9 km/h (4 Bft)
24.03.2024 04:50 21,1 °C 2,6 °C 51 % 89 % 1003,8 hPa 0,0 l/m² 11,5 km/h (2 Bft) S-SW 204 ° 0 min 0 W/m² 1,0 °C -1,7 °C 16,1 km/h (3 Bft)
24.03.2024 04:51 21,2 °C 2,6 °C 51 % 89 % 1003,9 hPa 0,0 l/m² 13,6 km/h (3 Bft) S-SW 203 ° 0 min 0 W/m² 1,0 °C -3,0 °C 19,3 km/h (3 Bft)
24.03.2024 04:53 21,1 °C 2,6 °C 51 % 89 % 1003,9 hPa 0,0 l/m² 11,2 km/h (2 Bft) SW 219 ° 0 min 0 W/m² 1,0 °C -1,5 °C 17,7 km/h (3 Bft)
24.03.2024 04:54 21,2 °C 2,6 °C 51 % 89 % 1003,9 hPa 0,0 l/m² 9,9 km/h (2 Bft) S-SW 193 ° 0 min 0 W/m² 1,0 °C -0,5 °C 12,9 km/h (3 Bft)
24.03.2024 04:56 21,2 °C 2,6 °C 51 % 89 % 1003,9 hPa 0,0 l/m² 11,7 km/h (2 Bft) S-SW 197 ° 0 min 0 W/m² 1,0 °C -1,8 °C 16,1 km/h (3 Bft)
24.03.2024 04:58 21,1 °C 2,6 °C 51 % 89 % 1003,9 hPa 0,0 l/m² 8,8 km/h (2 Bft) S 180 ° 0 min 0 W/m² 1,0 °C 0,4 °C 12,9 km/h (3 Bft)
24.03.2024 04:59 21,2 °C 2,6 °C 51 % 89 % 1003,8 hPa 0,0 l/m² 9,3 km/h (2 Bft) S-SW 203 ° 0 min 0 W/m² 1,0 °C -0,0 °C 11,3 km/h (2 Bft)
24.03.2024 05:01 21,2 °C 2,5 °C 51 % 89 % 1003,8 hPa 0,0 l/m² 10,6 km/h (2 Bft) S-SW 208 ° 0 min 0 W/m² 0,9 °C -1,1 °C 14,5 km/h (3 Bft)
24.03.2024 05:02 21,2 °C 2,5 °C 51 % 89 % 1003,9 hPa 0,0 l/m² 10,0 km/h (2 Bft) S-SW 207 ° 0 min 0 W/m² 0,9 °C -0,7 °C 12,9 km/h (3 Bft)
24.03.2024 05:03 21,2 °C 2,5 °C 51 % 89 % 1003,9 hPa 0,0 l/m² 7,3 km/h (2 Bft) S-SW 205 ° 0 min 0 W/m² 0,9 °C 1,6 °C 11,3 km/h (2 Bft)
24.03.2024 05:05 21,2 °C 2,5 °C 51 % 89 % 1003,8 hPa 0,0 l/m² 10,4 km/h (2 Bft) S-SW 205 ° 0 min 0 W/m² 0,9 °C -1,0 °C 14,5 km/h (3 Bft)
24.03.2024 05:07 21,1 °C 2,5 °C 51 % 89 % 1003,8 hPa 0,0 l/m² 9,9 km/h (2 Bft) S-SW 198 ° 0 min 0 W/m² 0,9 °C -0,6 °C 14,5 km/h (3 Bft)
24.03.2024 05:09 21,2 °C 2,4 °C 51 % 89 % 1003,9 hPa 0,0 l/m² 7,8 km/h (2 Bft) S-SW 210 ° 0 min 0 W/m² 0,8 °C 1,1 °C 11,3 km/h (2 Bft)
24.03.2024 05:10 21,2 °C 2,4 °C 51 % 89 % 1003,9 hPa 0,0 l/m² 7,0 km/h (2 Bft) SW 215 ° 0 min 0 W/m² 0,8 °C 1,8 °C 8,0 km/h (2 Bft)
24.03.2024 05:12 21,1 °C 2,4 °C 51 % 89 % 1003,9 hPa 0,0 l/m² 7,5 km/h (2 Bft) SW 219 ° 0 min 0 W/m² 0,8 °C 1,3 °C 11,3 km/h (2 Bft)
24.03.2024 05:13 21,1 °C 2,4 °C 51 % 89 % 1003,9 hPa 0,0 l/m² 8,2 km/h (2 Bft) S-SW 213 ° 0 min 0 W/m² 0,8 °C 0,7 °C 11,3 km/h (2 Bft)
24.03.2024 05:15 21,2 °C 2,3 °C 51 % 89 % 1004,0 hPa 0,0 l/m² 5,9 km/h (2 Bft) SW 222 ° 0 min 0 W/m² 0,7 °C 2,3 °C 9,7 km/h (2 Bft)
24.03.2024 05:17 21,1 °C 2,3 °C 51 % 89 % 1003,9 hPa 0,0 l/m² 8,5 km/h (2 Bft) S-SW 213 ° 0 min 0 W/m² 0,7 °C 0,3 °C 14,5 km/h (3 Bft)
24.03.2024 05:19 21,1 °C 2,2 °C 51 % 89 % 1003,9 hPa 0,0 l/m² 8,7 km/h (2 Bft) SW 217 ° 0 min 0 W/m² 0,6 °C 0,0 °C 12,9 km/h (3 Bft)
24.03.2024 05:20 21,1 °C 2,2 °C 51 % 89 % 1003,9 hPa 0,0 l/m² 8,5 km/h (2 Bft) SW 223 ° 0 min 0 W/m² 0,6 °C 0,2 °C 11,3 km/h (2 Bft)
24.03.2024 05:22 21,2 °C 2,2 °C 51 % 89 % 1003,8 hPa 0,0 l/m² 6,9 km/h (2 Bft) SW 215 ° 0 min 0 W/m² 0,6 °C 1,7 °C 9,7 km/h (2 Bft)
24.03.2024 05:23 21,2 °C 2,2 °C 51 % 89 % 1003,8 hPa 0,0 l/m² 6,5 km/h (2 Bft) SW 217 ° 0 min 0 W/m² 0,6 °C 2,1 °C 8,0 km/h (2 Bft)
24.03.2024 05:25 21,2 °C 2,1 °C 51 % 89 % 1003,8 hPa 0,0 l/m² 7,8 km/h (2 Bft) SW 214 ° 0 min 0 W/m² 0,5 °C 0,7 °C 12,9 km/h (3 Bft)
24.03.2024 05:27 21,2 °C 2,1 °C 51 % 89 % 1003,8 hPa 0,0 l/m² 10,0 km/h (2 Bft) S-SW 211 ° 0 min 0 W/m² 0,5 °C -1,1 °C 14,5 km/h (3 Bft)
24.03.2024 05:29 21,2 °C 2,1 °C 51 % 90 % 1003,8 hPa 0,0 l/m² 9,0 km/h (2 Bft) SW 214 ° 0 min 0 W/m² 0,6 °C -0,3 °C 12,9 km/h (3 Bft)
24.03.2024 05:31 21,1 °C 2,1 °C 51 % 90 % 1003,8 hPa 0,0 l/m² 9,3 km/h (2 Bft) SW 218 ° 0 min 0 W/m² 0,6 °C -0,6 °C 12,9 km/h (3 Bft)
24.03.2024 05:32 21,1 °C 2,1 °C 51 % 90 % 1003,8 hPa 0,0 l/m² 10,3 km/h (2 Bft) S-SW 206 ° 0 min 0 W/m² 0,6 °C -1,4 °C 12,9 km/h (3 Bft)
24.03.2024 05:33 21,1 °C 2,1 °C 51 % 90 % 1003,8 hPa 0,0 l/m² 7,9 km/h (2 Bft) SW 217 ° 0 min 0 W/m² 0,6 °C 0,7 °C 9,7 km/h (2 Bft)
24.03.2024 05:34 21,2 °C 2,1 °C 51 % 90 % 1003,8 hPa 0,0 l/m² 10,5 km/h (2 Bft) SW 214 ° 0 min 0 W/m² 0,6 °C -1,5 °C 12,9 km/h (3 Bft)
24.03.2024 05:36 21,2 °C 2,2 °C 51 % 90 % 1003,8 hPa 0,0 l/m² 10,3 km/h (2 Bft) S-SW 202 ° 0 min 0 W/m² 0,7 °C -1,3 °C 14,5 km/h (3 Bft)
24.03.2024 05:38 21,2 °C 2,2 °C 51 % 90 % 1003,8 hPa 0,0 l/m² 9,0 km/h (2 Bft) S-SW 210 ° 0 min 0 W/m² 0,7 °C -0,2 °C 12,9 km/h (3 Bft)
24.03.2024 05:40 21,2 °C 2,2 °C 51 % 90 % 1003,8 hPa 0,0 l/m² 10,5 km/h (2 Bft) SW 225 ° 0 min 0 W/m² 0,7 °C -1,4 °C 12,9 km/h (3 Bft)
24.03.2024 05:41 21,2 °C 2,2 °C 51 % 90 % 1003,8 hPa 0,0 l/m² 9,7 km/h (2 Bft) SW 214 ° 0 min 0 W/m² 0,7 °C -0,8 °C 12,9 km/h (3 Bft)
24.03.2024 05:43 21,2 °C 2,2 °C 51 % 90 % 1003,8 hPa 0,0 l/m² 9,7 km/h (2 Bft) SW 221 ° 0 min 0 W/m² 0,7 °C -0,8 °C 14,5 km/h (3 Bft)
24.03.2024 05:44 21,2 °C 2,2 °C 51 % 90 % 1003,8 hPa 0,0 l/m² 8,4 km/h (2 Bft) S-SW 203 ° 0 min 0 W/m² 0,7 °C 0,3 °C 9,7 km/h (2 Bft)
24.03.2024 05:46 21,2 °C 2,2 °C 51 % 90 % 1003,8 hPa 0,0 l/m² 8,4 km/h (2 Bft) S-SW 202 ° 0 min 0 W/m² 0,7 °C 0,3 °C 11,3 km/h (2 Bft)
24.03.2024 05:48 21,1 °C 2,2 °C 51 % 90 % 1003,7 hPa 0,0 l/m² 6,7 km/h (2 Bft) S-SW 203 ° 0 min 0 W/m² 0,7 °C 1,9 °C 9,7 km/h (2 Bft)
24.03.2024 05:50 21,1 °C 2,2 °C 51 % 90 % 1003,8 hPa 0,0 l/m² 7,0 km/h (2 Bft) S-SW 202 ° 0 min 0 W/m² 0,7 °C 1,6 °C 8,0 km/h (2 Bft)
24.03.2024 05:51 21,1 °C 2,2 °C 51 % 90 % 1003,6 hPa 0,0 l/m² 7,0 km/h (2 Bft) S-SW 196 ° 0 min 0 W/m² 0,7 °C 1,6 °C 9,7 km/h (2 Bft)
24.03.2024 05:53 21,1 °C 2,2 °C 51 % 90 % 1003,6 hPa 0,0 l/m² 4,9 km/h (1 Bft) S-SW 196 ° 0 min 0 W/m² 0,7 °C 2,2 °C 8,0 km/h (2 Bft)
24.03.2024 05:54 21,1 °C 2,2 °C 51 % 90 % 1003,6 hPa 0,0 l/m² 6,9 km/h (2 Bft) S-SW 198 ° 0 min 0 W/m² 0,7 °C 1,7 °C 9,7 km/h (2 Bft)
24.03.2024 05:56 21,2 °C 2,2 °C 51 % 90 % 1003,6 hPa 0,0 l/m² 6,1 km/h (2 Bft) S-SW 202 ° 0 min 0 W/m² 0,7 °C 2,2 °C 9,7 km/h (2 Bft)
24.03.2024 05:58 21,2 °C 2,2 °C 51 % 90 % 1003,6 hPa 0,0 l/m² 5,7 km/h (2 Bft) S-SW 202 ° 0 min 0 W/m² 0,7 °C 2,2 °C 8,0 km/h (2 Bft)
24.03.2024 06:00 21,1 °C 2,2 °C 51 % 90 % 1003,6 hPa 0,0 l/m² 5,1 km/h (1 Bft) S-SW 202 ° 0 min 0 W/m² 0,7 °C 2,2 °C 8,0 km/h (2 Bft)
24.03.2024 06:01 21,1 °C 2,2 °C 51 % 90 % 1003,5 hPa 0,0 l/m² 4,6 km/h (1 Bft) S-SW 201 ° 0 min 0 W/m² 0,7 °C 2,2 °C 6,4 km/h (2 Bft)
24.03.2024 06:03 21,1 °C 2,2 °C 51 % 90 % 1003,5 hPa 0,0 l/m² 4,8 km/h (1 Bft) S-SW 202 ° 0 min 0 W/m² 0,7 °C 2,2 °C 8,0 km/h (2 Bft)
24.03.2024 06:04 21,1 °C 2,3 °C 51 % 91 % 1003,5 hPa 0,0 l/m² 3,1 km/h (1 Bft) S-SW 202 ° 0 min 0 W/m² 1,0 °C 2,3 °C 6,4 km/h (2 Bft)
24.03.2024 06:06 21,1 °C 2,3 °C 51 % 91 % 1003,5 hPa 0,0 l/m² 3,9 km/h (1 Bft) S-SW 202 ° 0 min 5 W/m² 1,0 °C 2,3 °C 6,4 km/h (2 Bft)
24.03.2024 06:08 21,1 °C 2,4 °C 51 % 91 % 1003,5 hPa 0,0 l/m² 2,2 km/h (1 Bft) S-SW 200 ° 0 min 5 W/m² 1,1 °C 2,4 °C 6,4 km/h (2 Bft)
24.03.2024 06:10 21,1 °C 2,4 °C 51 % 91 % 1003,5 hPa 0,0 l/m² 4,0 km/h (1 Bft) S-SW 202 ° 0 min 7 W/m² 1,1 °C 2,4 °C 6,4 km/h (2 Bft)
24.03.2024 06:11 21,1 °C 2,4 °C 51 % 91 % 1003,5 hPa 0,0 l/m² 4,5 km/h (1 Bft) S 184 ° 0 min 9 W/m² 1,1 °C 2,4 °C 6,4 km/h (2 Bft)
24.03.2024 06:13 21,1 °C 2,3 °C 51 % 91 % 1003,4 hPa 0,0 l/m² 3,6 km/h (1 Bft) S-SW 196 ° 0 min 11 W/m² 1,0 °C 2,3 °C 8,0 km/h (2 Bft)
24.03.2024 06:14 21,1 °C 2,3 °C 51 % 91 % 1003,4 hPa 0,0 l/m² 4,4 km/h (1 Bft) S-SW 193 ° 0 min 12 W/m² 1,0 °C 2,3 °C 8,0 km/h (2 Bft)
24.03.2024 06:16 21,2 °C 2,3 °C 51 % 90 % 1003,4 hPa 0,0 l/m² 6,3 km/h (2 Bft) S-SW 211 ° 0 min 14 W/m² 0,8 °C 2,3 °C 9,7 km/h (2 Bft)
24.03.2024 06:18 21,1 °C 2,3 °C 51 % 90 % 1003,4 hPa 0,0 l/m² 6,6 km/h (2 Bft) S-SW 195 ° 0 min 18 W/m² 0,8 °C 2,1 °C 9,7 km/h (2 Bft)
24.03.2024 06:20 21,1 °C 2,3 °C 51 % 90 % 1003,4 hPa 0,0 l/m² 9,3 km/h (2 Bft) S 188 ° 0 min 19 W/m² 0,8 °C -0,4 °C 12,9 km/h (3 Bft)
24.03.2024 06:21 21,1 °C 2,4 °C 51 % 91 % 1003,3 hPa 0,0 l/m² 8,2 km/h (2 Bft) S-SW 202 ° 0 min 19 W/m² 1,1 °C 0,7 °C 11,3 km/h (2 Bft)
24.03.2024 06:23 21,1 °C 2,4 °C 51 % 91 % 1003,3 hPa 0,0 l/m² 9,4 km/h (2 Bft) S-SW 197 ° 0 min 21 W/m² 1,1 °C -0,3 °C 12,9 km/h (3 Bft)
24.03.2024 06:24 21,1 °C 2,4 °C 51 % 91 % 1003,3 hPa 0,0 l/m² 10,9 km/h (2 Bft) S-SW 205 ° 0 min 21 W/m² 1,1 °C -1,5 °C 14,5 km/h (3 Bft)
24.03.2024 06:26 21,1 °C 2,6 °C 51 % 91 % 1003,1 hPa 0,0 l/m² 13,2 km/h (3 Bft) S-SW 203 ° 0 min 23 W/m² 1,3 °C -2,8 °C 17,7 km/h (3 Bft)
24.03.2024 06:28 21,1 °C 2,7 °C 51 % 91 % 1003,0 hPa 0,0 l/m² 11,7 km/h (2 Bft) S-SW 193 ° 0 min 25 W/m² 1,4 °C -1,7 °C 14,5 km/h (3 Bft)
24.03.2024 06:30 21,1 °C 2,8 °C 51 % 91 % 1003,0 hPa 0,0 l/m² 12,9 km/h (3 Bft) S-SW 194 ° 0 min 26 W/m² 1,5 °C -2,4 °C 20,9 km/h (4 Bft)
24.03.2024 06:31 21,1 °C 2,8 °C 51 % 91 % 1003,0 hPa 0,0 l/m² 12,2 km/h (2 Bft) S-SW 197 ° 0 min 28 W/m² 1,5 °C -1,9 °C 16,1 km/h (3 Bft)
24.03.2024 06:33 21,1 °C 2,9 °C 51 % 91 % 1002,9 hPa 0,0 l/m² 12,8 km/h (3 Bft) S-SW 198 ° 0 min 30 W/m² 1,6 °C -2,2 °C 17,7 km/h (3 Bft)
24.03.2024 06:34 21,1 °C 2,9 °C 51 % 91 % 1003,0 hPa 0,0 l/m² 13,2 km/h (3 Bft) S-SW 199 ° 0 min 30 W/m² 1,6 °C -2,4 °C 16,1 km/h (3 Bft)
24.03.2024 06:36 21,1 °C 3,1 °C 51 % 91 % 1003,0 hPa 0,0 l/m² 12,7 km/h (3 Bft) S 191 ° 0 min 32 W/m² 1,8 °C -1,9 °C 19,3 km/h (3 Bft)
24.03.2024 06:38 21,1 °C 3,1 °C 51 % 91 % 1003,0 hPa 0,0 l/m² 9,6 km/h (2 Bft) SW 217 ° 0 min 33 W/m² 1,8 °C 0,3 °C 14,5 km/h (3 Bft)
24.03.2024 06:40 21,1 °C 3,2 °C 51 % 90 % 1003,0 hPa 0,0 l/m² 10,5 km/h (2 Bft) SW 216 ° 0 min 37 W/m² 1,7 °C -0,3 °C 17,7 km/h (3 Bft)
24.03.2024 06:41 21,1 °C 3,2 °C 51 % 90 % 1003,0 hPa 0,0 l/m² 12,0 km/h (2 Bft) SW 217 ° 0 min 42 W/m² 1,7 °C -1,3 °C 14,5 km/h (3 Bft)
24.03.2024 06:43 21,1 °C 3,2 °C 51 % 90 % 1002,9 hPa 0,0 l/m² 8,4 km/h (2 Bft) S-SW 206 ° 0 min 47 W/m² 1,7 °C 1,4 °C 12,9 km/h (3 Bft)
24.03.2024 06:44 21,1 °C 3,3 °C 51 % 90 % 1003,0 hPa 0,0 l/m² 11,6 km/h (2 Bft) S-SW 208 ° 0 min 49 W/m² 1,8 °C -0,9 °C 16,1 km/h (3 Bft)
24.03.2024 06:47 21,1 °C 3,4 °C 51 % 90 % 1003,0 hPa 0,0 l/m² 11,3 km/h (2 Bft) SW 214 ° 3 min 53 W/m² 1,9 °C -0,6 °C 17,7 km/h (3 Bft)
24.03.2024 06:49 21,1 °C 3,4 °C 51 % 90 % 1003,0 hPa 0,0 l/m² 11,1 km/h (2 Bft) S-SW 202 ° 2 min 58 W/m² 1,9 °C -0,5 °C 14,5 km/h (3 Bft)
24.03.2024 06:51 21,1 °C 3,4 °C 51 % 89 % 1002,9 hPa 0,0 l/m² 9,6 km/h (2 Bft) S-SW 196 ° 2 min 62 W/m² 1,8 °C 0,6 °C 12,9 km/h (3 Bft)
24.03.2024 06:52 21,1 °C 3,5 °C 51 % 90 % 1003,0 hPa 0,0 l/m² 13,4 km/h (3 Bft) S 190 ° 1 min 65 W/m² 2,0 °C -1,8 °C 17,7 km/h (3 Bft)
24.03.2024 06:53 21,1 °C 3,5 °C 51 % 90 % 1003,0 hPa 0,0 l/m² 13,2 km/h (3 Bft) S-SW 201 ° 1 min 67 W/m² 2,0 °C -1,7 °C 19,3 km/h (3 Bft)
24.03.2024 06:54 21,1 °C 3,6 °C 51 % 89 % 1003,0 hPa 0,0 l/m² 11,1 km/h (2 Bft) S-SW 193 ° 1 min 69 W/m² 2,0 °C -0,3 °C 14,5 km/h (3 Bft)
24.03.2024 06:56 21,1 °C 3,6 °C 51 % 89 % 1003,0 hPa 0,0 l/m² 10,9 km/h (2 Bft) S-SW 195 ° 2 min 70 W/m² 2,0 °C -0,1 °C 14,5 km/h (3 Bft)
24.03.2024 06:58 21,1 °C 3,7 °C 51 % 89 % 1003,0 hPa 0,0 l/m² 11,8 km/h (2 Bft) S-SW 208 ° 2 min 70 W/m² 2,1 °C -0,6 °C 17,7 km/h (3 Bft)
24.03.2024 07:00 21,1 °C 3,7 °C 51 % 89 % 1002,9 hPa 0,0 l/m² 10,0 km/h (2 Bft) S-SW 194 ° 2 min 74 W/m² 2,1 °C 0,6 °C 14,5 km/h (3 Bft)
24.03.2024 07:01 21,1 °C 3,7 °C 51 % 89 % 1002,9 hPa 0,0 l/m² 11,7 km/h (2 Bft) S-SW 199 ° 1 min 76 W/m² 2,1 °C -0,5 °C 17,7 km/h (3 Bft)
24.03.2024 07:03 21,1 °C 3,8 °C 51 % 89 % 1002,8 hPa 0,0 l/m² 12,8 km/h (3 Bft) S 186 ° 2 min 77 W/m² 2,2 °C -1,1 °C 19,3 km/h (3 Bft)
24.03.2024 07:04 21,1 °C 3,8 °C 51 % 89 % 1002,8 hPa 0,0 l/m² 11,0 km/h (2 Bft) S-SW 196 ° 1 min 81 W/m² 2,2 °C 0,0 °C 16,1 km/h (3 Bft)
24.03.2024 07:06 21,1 °C 3,8 °C 51 % 89 % 1002,8 hPa 0,0 l/m² 13,2 km/h (3 Bft) SW 214 ° 2 min 88 W/m² 2,2 °C -1,4 °C 19,3 km/h (3 Bft)
24.03.2024 07:08 21,1 °C 3,9 °C 51 % 89 % 1002,7 hPa 0,0 l/m² 16,1 km/h (3 Bft) S-SW 201 ° 2 min 93 W/m² 2,3 °C -2,8 °C 22,5 km/h (4 Bft)
24.03.2024 07:10 21,1 °C 4,0 °C 51 % 89 % 1002,7 hPa 0,0 l/m² 13,2 km/h (3 Bft) S-SW 201 ° 2 min 104 W/m² 2,4 °C -1,1 °C 20,9 km/h (4 Bft)
24.03.2024 07:11 21,1 °C 4,0 °C 51 % 88 % 1002,7 hPa 0,0 l/m² 15,4 km/h (3 Bft) S-SW 200 ° 1 min 116 W/m² 2,2 °C -2,3 °C 19,3 km/h (3 Bft)
24.03.2024 07:12 21,1 °C 4,1 °C 51 % 88 % 1002,7 hPa 0,0 l/m² 16,6 km/h (3 Bft) S 178 ° 1 min 128 W/m² 2,3 °C -2,8 °C 20,9 km/h (4 Bft)
24.03.2024 07:13 21,1 °C 4,1 °C 51 % 88 % 1002,7 hPa 0,0 l/m² 15,1 km/h (3 Bft) S-SW 196 ° 1 min 135 W/m² 2,3 °C -2,1 °C 19,3 km/h (3 Bft)
24.03.2024 07:16 21,1 °C 4,3 °C 51 % 88 % 1002,8 hPa 0,0 l/m² 16,9 km/h (3 Bft) S-SW 199 ° 3 min 130 W/m² 2,5 °C -2,7 °C 20,9 km/h (4 Bft)
24.03.2024 07:18 21,1 °C 4,4 °C 51 % 88 % 1002,7 hPa 0,0 l/m² 14,9 km/h (3 Bft) S 178 ° 2 min 127 W/m² 2,6 °C -1,6 °C 20,9 km/h (4 Bft)
24.03.2024 07:20 21,1 °C 4,4 °C 51 % 87 % 1002,7 hPa 0,0 l/m² 11,4 km/h (2 Bft) S-SW 204 ° 2 min 125 W/m² 2,4 °C 0,4 °C 16,1 km/h (3 Bft)
24.03.2024 07:21 21,1 °C 4,4 °C 51 % 87 % 1002,6 hPa 0,0 l/m² 15,6 km/h (3 Bft) S-SW 192 ° 1 min 118 W/m² 2,4 °C -2,0 °C 19,3 km/h (3 Bft)
24.03.2024 07:23 21,1 °C 4,5 °C 51 % 87 % 1002,6 hPa 0,0 l/m² 14,7 km/h (3 Bft) S 190 ° 2 min 116 W/m² 2,5 °C -1,4 °C 22,5 km/h (4 Bft)
24.03.2024 07:24 21,1 °C 4,5 °C 51 % 87 % 1002,6 hPa 0,0 l/m² 13,3 km/h (3 Bft) S-SW 203 ° 1 min 120 W/m² 2,5 °C -0,6 °C 19,3 km/h (3 Bft)
24.03.2024 07:26 21,1 °C 4,5 °C 51 % 87 % 1002,7 hPa 0,0 l/m² 16,3 km/h (3 Bft) S-SW 195 ° 2 min 127 W/m² 2,5 °C -2,2 °C 22,5 km/h (4 Bft)
24.03.2024 07:28 21,1 °C 4,6 °C 51 % 87 % 1002,6 hPa 0,0 l/m² 15,2 km/h (3 Bft) S-SW 200 ° 2 min 151 W/m² 2,6 °C -1,5 °C 27,4 km/h (5 Bft)
24.03.2024 07:30 21,1 °C 4,7 °C 51 % 86 % 1002,5 hPa 0,0 l/m² 15,8 km/h (3 Bft) S-SW 199 ° 2 min 163 W/m² 2,6 °C -1,7 °C 22,5 km/h (4 Bft)
24.03.2024 07:31 21,1 °C 4,7 °C 51 % 86 % 1002,5 hPa 0,0 l/m² 16,0 km/h (3 Bft) S 182 ° 1 min 165 W/m² 2,6 °C -1,8 °C 22,5 km/h (4 Bft)
24.03.2024 07:33 21,1 °C 4,8 °C 51 % 86 % 1002,6 hPa 0,0 l/m² 14,9 km/h (3 Bft) S-SW 211 ° 2 min 181 W/m² 2,7 °C -1,1 °C 22,5 km/h (4 Bft)
24.03.2024 07:34 21,1 °C 4,8 °C 51 % 86 % 1002,5 hPa 0,0 l/m² 14,2 km/h (3 Bft) S-SW 197 ° 1 min 199 W/m² 2,7 °C -0,7 °C 16,1 km/h (3 Bft)
24.03.2024 07:36 21,1 °C 4,9 °C 51 % 86 % 1002,6 hPa 0,0 l/m² 13,1 km/h (3 Bft) S-SW 192 ° 2 min 207 W/m² 2,8 °C -0,0 °C 19,3 km/h (3 Bft)
24.03.2024 07:38 21,0 °C 5,0 °C 51 % 86 % 1002,6 hPa 0,0 l/m² 15,7 km/h (3 Bft) S-SW 200 ° 2 min 197 W/m² 2,9 °C -1,3 °C 24,1 km/h (4 Bft)
24.03.2024 07:40 21,1 °C 5,1 °C 51 % 86 % 1002,5 hPa 0,0 l/m² 15,3 km/h (3 Bft) S-SW 209 ° 2 min 169 W/m² 3,0 °C -1,0 °C 22,5 km/h (4 Bft)
24.03.2024 07:41 21,1 °C 5,1 °C 51 % 86 % 1002,5 hPa 0,0 l/m² 17,9 km/h (3 Bft) S-SW 203 ° 1 min 165 W/m² 3,0 °C -2,2 °C 22,5 km/h (4 Bft)
24.03.2024 07:43 21,1 °C 5,1 °C 51 % 85 % 1002,7 hPa 0,0 l/m² 16,6 km/h (3 Bft) S-SW 202 ° 2 min 160 W/m² 2,8 °C -1,6 °C 22,5 km/h (4 Bft)
24.03.2024 07:44 21,1 °C 5,2 °C 51 % 85 % 1002,7 hPa 0,0 l/m² 15,4 km/h (3 Bft) S-SW 198 ° 1 min 158 W/m² 2,9 °C -0,9 °C 20,9 km/h (4 Bft)
24.03.2024 07:46 21,1 °C 5,1 °C 51 % 85 % 1002,7 hPa 0,0 l/m² 18,6 km/h (3 Bft) S-SW 213 ° 2 min 155 W/m² 2,8 °C -2,5 °C 25,7 km/h (4 Bft)
24.03.2024 07:48 21,1 °C 5,1 °C 51 % 85 % 1002,7 hPa 0,0 l/m² 15,5 km/h (3 Bft) S 187 ° 2 min 158 W/m² 2,8 °C -1,1 °C 25,7 km/h (4 Bft)
24.03.2024 07:50 21,1 °C 5,2 °C 51 % 85 % 1002,6 hPa 0,0 l/m² 21,7 km/h (4 Bft) S-SW 205 ° 2 min 155 W/m² 2,9 °C -3,6 °C 30,6 km/h (5 Bft)
24.03.2024 07:51 21,1 °C 5,2 °C 51 % 85 % 1002,6 hPa 0,0 l/m² 16,9 km/h (3 Bft) S-SW 196 ° 1 min 142 W/m² 2,9 °C -1,6 °C 24,1 km/h (4 Bft)
24.03.2024 07:53 21,1 °C 5,2 °C 51 % 84 % 1002,7 hPa 0,0 l/m² 20,5 km/h (4 Bft) S-SW 198 ° 2 min 153 W/m² 2,7 °C -3,1 °C 27,4 km/h (5 Bft)
24.03.2024 07:54 21,1 °C 5,2 °C 51 % 85 % 1002,7 hPa 0,0 l/m² 15,3 km/h (3 Bft) S-SW 202 ° 1 min 146 W/m² 2,9 °C -0,8 °C 17,7 km/h (3 Bft)
24.03.2024 07:56 21,1 °C 5,2 °C 51 % 85 % 1002,8 hPa 0,0 l/m² 15,9 km/h (3 Bft) S-SW 213 ° 2 min 142 W/m² 2,9 °C -1,1 °C 22,5 km/h (4 Bft)
24.03.2024 07:58 21,1 °C 5,2 °C 51 % 85 % 1002,7 hPa 0,0 l/m² 19,3 km/h (3 Bft) S-SW 211 ° 2 min 125 W/m² 2,9 °C -2,6 °C 25,7 km/h (4 Bft)
24.03.2024 08:00 21,1 °C 5,2 °C 51 % 85 % 1002,7 hPa 0,0 l/m² 18,0 km/h (3 Bft) S-SW 209 ° 2 min 127 W/m² 2,9 °C -2,1 °C 24,1 km/h (4 Bft)
24.03.2024 08:01 21,1 °C 5,2 °C 51 % 85 % 1002,7 hPa 0,0 l/m² 15,3 km/h (3 Bft) S-SW 205 ° 1 min 139 W/m² 2,9 °C -0,8 °C 17,7 km/h (3 Bft)
24.03.2024 08:03 21,1 °C 5,2 °C 51 % 85 % 1002,7 hPa 0,0 l/m² 12,5 km/h (2 Bft) S 183 ° 2 min 142 W/m² 2,9 °C 0,7 °C 17,7 km/h (3 Bft)
24.03.2024 08:04 21,1 °C 5,2 °C 51 % 85 % 1002,7 hPa 0,0 l/m² 14,8 km/h (3 Bft) SW 220 ° 1 min 146 W/m² 2,9 °C -0,6 °C 22,5 km/h (4 Bft)
24.03.2024 08:06 21,1 °C 5,2 °C 51 % 85 % 1002,8 hPa 0,0 l/m² 14,6 km/h (3 Bft) S-SW 203 ° 2 min 149 W/m² 2,9 °C -0,5 °C 19,3 km/h (3 Bft)
24.03.2024 08:08 21,1 °C 5,2 °C 51 % 85 % 1002,6 hPa 0,0 l/m² 13,4 km/h (3 Bft) S-SW 210 ° 2 min 158 W/m² 2,9 °C 0,2 °C 19,3 km/h (3 Bft)
24.03.2024 08:10 21,1 °C 5,2 °C 51 % 85 % 1002,6 hPa 0,0 l/m² 17,3 km/h (3 Bft) S-SW 209 ° 2 min 181 W/m² 2,9 °C -1,8 °C 22,5 km/h (4 Bft)
24.03.2024 08:11 21,1 °C 5,2 °C 51 % 85 % 1002,6 hPa 0,0 l/m² 22,1 km/h (4 Bft) S-SW 196 ° 1 min 195 W/m² 2,9 °C -3,7 °C 27,4 km/h (5 Bft)
24.03.2024 08:12 21,1 °C 5,3 °C 51 % 84 % 1002,7 hPa 0,0 l/m² 23,6 km/h (4 Bft) SW 227 ° 1 min 183 W/m² 2,8 °C -4,1 °C 27,4 km/h (5 Bft)
24.03.2024 08:13 21,1 °C 5,3 °C 51 % 84 % 1002,7 hPa 0,0 l/m² 20,0 km/h (4 Bft) SW 227 ° 1 min 207 W/m² 2,8 °C -2,8 °C 25,7 km/h (4 Bft)
24.03.2024 08:14 21,1 °C 5,3 °C 51 % 84 % 1002,6 hPa 0,0 l/m² 17,4 km/h (3 Bft) SW 215 ° 1 min 213 W/m² 2,8 °C -1,7 °C 25,7 km/h (4 Bft)
24.03.2024 08:15 21,1 °C 5,3 °C 51 % 84 % 1002,6 hPa 0,0 l/m² 18,2 km/h (3 Bft) S 180 ° 1 min 246 W/m² 2,8 °C -2,0 °C 24,1 km/h (4 Bft)
24.03.2024 08:17 21,1 °C 5,3 °C 51 % 84 % 1002,6 hPa 0,0 l/m² 16,7 km/h (3 Bft) S-SW 206 ° 2 min 232 W/m² 2,8 °C -1,4 °C 25,7 km/h (4 Bft)
24.03.2024 08:19 21,1 °C 5,5 °C 51 % 85 % 1002,6 hPa 0,0 l/m² 13,6 km/h (3 Bft) SW 219 ° 2 min 221 W/m² 3,2 °C 0,4 °C 22,5 km/h (4 Bft)
24.03.2024 08:20 21,1 °C 5,6 °C 51 % 84 % 1002,6 hPa 0,0 l/m² 14,2 km/h (3 Bft) SW 222 ° 1 min 292 W/m² 3,1 °C 0,2 °C 16,1 km/h (3 Bft)
24.03.2024 08:22 21,1 °C 5,6 °C 51 % 84 % 1002,5 hPa 0,0 l/m² 15,8 km/h (3 Bft) S-SW 195 ° 2 min 276 W/m² 3,1 °C -0,6 °C 22,5 km/h (4 Bft)
24.03.2024 08:23 21,1 °C 5,7 °C 51 % 84 % 1002,5 hPa 0,0 l/m² 12,4 km/h (2 Bft) SW 225 ° 1 min 278 W/m² 3,2 °C 1,3 °C 16,1 km/h (3 Bft)
24.03.2024 08:25 21,1 °C 5,8 °C 51 % 83 % 1002,6 hPa 0,0 l/m² 20,7 km/h (4 Bft) S-SW 198 ° 2 min 213 W/m² 3,1 °C -2,4 °C 29,0 km/h (5 Bft)
24.03.2024 08:26 21,1 °C 5,8 °C 51 % 83 % 1002,6 hPa 0,0 l/m² 19,6 km/h (3 Bft) SW 221 ° 1 min 195 W/m² 3,1 °C -2,0 °C 27,4 km/h (5 Bft)
24.03.2024 08:27 21,1 °C 5,7 °C 51 % 83 % 1002,5 hPa 0,0 l/m² 23,2 km/h (4 Bft) SW 215 ° 1 min 211 W/m² 3,0 °C -3,4 °C 30,6 km/h (5 Bft)
24.03.2024 08:29 21,1 °C 5,7 °C 51 % 83 % 1002,5 hPa 0,0 l/m² 19,2 km/h (3 Bft) S-SW 201 ° 2 min 197 W/m² 3,0 °C -2,0 °C 29,0 km/h (5 Bft)
24.03.2024 08:30 21,1 °C 5,7 °C 51 % 83 % 1002,5 hPa 0,0 l/m² 15,2 km/h (3 Bft) S-SW 196 ° 1 min 197 W/m² 3,0 °C -0,2 °C 20,9 km/h (4 Bft)
24.03.2024 08:32 21,1 °C 5,7 °C 51 % 83 % 1002,4 hPa 0,0 l/m² 21,3 km/h (4 Bft) SW 217 ° 2 min 202 W/m² 3,0 °C -2,8 °C 33,8 km/h (5 Bft)
24.03.2024 08:33 21,1 °C 5,7 °C 51 % 83 % 1002,5 hPa 0,0 l/m² 16,6 km/h (3 Bft) S-SW 195 ° 1 min 213 W/m² 3,0 °C -0,8 °C 22,5 km/h (4 Bft)
24.03.2024 08:35 21,1 °C 5,8 °C 51 % 83 % 1002,4 hPa 0,0 l/m² 20,0 km/h (4 Bft) SW 227 ° 2 min 221 W/m² 3,1 °C -2,1 °C 32,2 km/h (5 Bft)
24.03.2024 08:37 21,1 °C 5,8 °C 51 % 83 % 1002,5 hPa 0,0 l/m² 21,4 km/h (4 Bft) S-SW 208 ° 2 min 223 W/m² 3,1 °C -2,7 °C 30,6 km/h (5 Bft)
24.03.2024 08:39 21,1 °C 5,8 °C 51 % 82 % 1002,4 hPa 0,0 l/m² 19,3 km/h (3 Bft) SW 232 ° 2 min 218 W/m² 3,0 °C -1,9 °C 29,0 km/h (5 Bft)
24.03.2024 08:40 21,1 °C 5,8 °C 51 % 83 % 1002,4 hPa 0,0 l/m² 14,0 km/h (3 Bft) SW 221 ° 1 min 213 W/m² 3,1 °C 0,6 °C 22,5 km/h (4 Bft)
24.03.2024 08:42 21,1 °C 5,9 °C 51 % 83 % 1002,4 hPa 0,0 l/m² 15,9 km/h (3 Bft) S 186 ° 2 min 195 W/m² 3,2 °C -0,3 °C 25,7 km/h (4 Bft)
24.03.2024 08:43 21,1 °C 5,9 °C 51 % 82 % 1002,4 hPa 0,0 l/m² 21,3 km/h (4 Bft) S-SW 202 ° 1 min 221 W/m² 3,1 °C -2,5 °C 27,4 km/h (5 Bft)
24.03.2024 08:45 21,1 °C 5,8 °C 51 % 82 % 1002,4 hPa 0,0 l/m² 19,2 km/h (3 Bft) S-SW 196 ° 2 min 202 W/m² 3,0 °C -1,8 °C 33,8 km/h (5 Bft)
24.03.2024 08:47 21,1 °C 5,8 °C 51 % 82 % 1002,4 hPa 0,0 l/m² 19,6 km/h (3 Bft) S-SW 198 ° 2 min 213 W/m² 3,0 °C -2,0 °C 29,0 km/h (5 Bft)
24.03.2024 08:49 21,1 °C 5,9 °C 51 % 82 % 1002,3 hPa 0,0 l/m² 23,4 km/h (4 Bft) SW 215 ° 2 min 237 W/m² 3,1 °C -3,2 °C 38,6 km/h (6 Bft)
24.03.2024 08:50 21,1 °C 5,9 °C 51 % 82 % 1002,3 hPa 0,0 l/m² 26,2 km/h (4 Bft) S-SW 209 ° 1 min 283 W/m² 3,1 °C -4,1 °C 33,8 km/h (5 Bft)
24.03.2024 08:52 21,1 °C 5,9 °C 51 % 82 % 1002,3 hPa 0,0 l/m² 27,3 km/h (5 Bft) SW 220 ° 2 min 272 W/m² 3,1 °C -4,4 °C 35,4 km/h (5 Bft)
24.03.2024 08:53 21,1 °C 5,9 °C 51 % 82 % 1002,3 hPa 0,0 l/m² 21,7 km/h (4 Bft) S-SW 205 ° 1 min 262 W/m² 3,1 °C -2,6 °C 30,6 km/h (5 Bft)
24.03.2024 08:55 21,1 °C 6,0 °C 51 % 82 % 1002,3 hPa 0,0 l/m² 25,3 km/h (4 Bft) S-SW 202 ° 2 min 246 W/m² 3,2 °C -3,7 °C 33,8 km/h (5 Bft)
24.03.2024 08:57 21,1 °C 6,0 °C 51 % 81 % 1002,4 hPa 0,0 l/m² 25,1 km/h (4 Bft) S-SW 213 ° 2 min 174 W/m² 3,0 °C -3,6 °C 33,8 km/h (5 Bft)
24.03.2024 08:59 21,1 °C 5,9 °C 50 % 81 % 1002,4 hPa 0,0 l/m² 25,3 km/h (4 Bft) S-SW 194 ° 2 min 127 W/m² 2,9 °C -3,8 °C 37,0 km/h (5 Bft)
24.03.2024 09:00 21,1 °C 5,9 °C 50 % 81 % 1002,4 hPa 0,0 l/m² 28,3 km/h (5 Bft) S-SW 212 ° 1 min 127 W/m² 2,9 °C -4,7 °C 35,4 km/h (5 Bft)
24.03.2024 09:02 21,1 °C 5,9 °C 50 % 81 % 1002,4 hPa 0,0 l/m² 23,6 km/h (4 Bft) W-SW 244 ° 2 min 144 W/m² 2,9 °C -3,3 °C 38,6 km/h (6 Bft)
24.03.2024 09:03 21,1 °C 5,9 °C 50 % 81 % 1002,5 hPa 0,0 l/m² 28,8 km/h (5 Bft) S-SW 213 ° 1 min 144 W/m² 2,9 °C -4,8 °C 37,0 km/h (5 Bft)
24.03.2024 09:05 21,1 °C 5,9 °C 50 % 81 % 1002,5 hPa 0,0 l/m² 27,1 km/h (5 Bft) W-SW 238 ° 2 min 165 W/m² 2,9 °C -4,3 °C 38,6 km/h (6 Bft)
24.03.2024 09:07 21,1 °C 5,8 °C 50 % 82 % 1002,5 hPa 0,0 l/m² 31,2 km/h (5 Bft) SW 223 ° 2 min 204 W/m² 3,0 °C -5,5 °C 41,8 km/h (6 Bft)
24.03.2024 09:09 21,1 °C 5,7 °C 50 % 82 % 1002,4 hPa 0,0 l/m² 26,4 km/h (4 Bft) SW 226 ° 2 min 207 W/m² 2,9 °C -4,4 °C 35,4 km/h (5 Bft)
24.03.2024 09:10 21,1 °C 5,7 °C 50 % 83 % 1002,4 hPa 0,0 l/m² 27,7 km/h (5 Bft) W-SW 238 ° 1 min 206 W/m² 3,0 °C -4,8 °C 37,0 km/h (5 Bft)
24.03.2024 09:11 21,1 °C 5,7 °C 50 % 83 % 1002,4 hPa 0,0 l/m² 28,4 km/h (5 Bft) SW 220 ° 1 min 199 W/m² 3,0 °C -5,0 °C 40,2 km/h (6 Bft)
24.03.2024 09:12 21,1 °C 5,7 °C 50 % 83 % 1002,4 hPa 0,0 l/m² 22,1 km/h (4 Bft) W-SW 246 ° 1 min 188 W/m² 3,0 °C -3,0 °C 30,6 km/h (5 Bft)
24.03.2024 09:14 21,1 °C 5,7 °C 50 % 83 % 1002,5 hPa 0,0 l/m² 25,0 km/h (4 Bft) SW 224 ° 2 min 142 W/m² 3,0 °C -4,0 °C 32,2 km/h (5 Bft)
24.03.2024 09:16 21,1 °C 5,6 °C 50 % 83 % 1002,5 hPa 0,0 l/m² 20,4 km/h (4 Bft) SW 221 ° 2 min 128 W/m² 2,9 °C -2,6 °C 30,6 km/h (5 Bft)
24.03.2024 09:18 21,1 °C 5,6 °C 50 % 83 % 1002,4 hPa 0,0 l/m² 20,8 km/h (4 Bft) S-SW 205 ° 2 min 139 W/m² 2,9 °C -2,7 °C 30,6 km/h (5 Bft)
24.03.2024 09:20 21,1 °C 5,6 °C 50 % 84 % 1002,4 hPa 0,0 l/m² 17,8 km/h (3 Bft) S-SW 205 ° 2 min 141 W/m² 3,1 °C -1,5 °C 27,4 km/h (5 Bft)
24.03.2024 09:21 21,1 °C 5,5 °C 50 % 84 % 1002,4 hPa 0,0 l/m² 23,0 km/h (4 Bft) SW 214 ° 1 min 139 W/m² 3,0 °C -3,6 °C 30,6 km/h (5 Bft)
24.03.2024 09:22 21,1 °C 5,5 °C 50 % 84 % 1002,4 hPa 0,0 l/m² 28,0 km/h (5 Bft) SW 236 ° 1 min 139 W/m² 3,0 °C -5,1 °C 33,8 km/h (5 Bft)
24.03.2024 09:24 21,1 °C 5,5 °C 50 % 84 % 1002,4 hPa 0,0 l/m² 25,5 km/h (4 Bft) SW 233 ° 2 min 135 W/m² 3,0 °C -4,4 °C 35,4 km/h (5 Bft)
24.03.2024 09:26 21,1 °C 5,5 °C 50 % 84 % 1002,4 hPa 0,0 l/m² 22,9 km/h (4 Bft) S-SW 208 ° 2 min 118 W/m² 3,0 °C -3,6 °C 30,6 km/h (5 Bft)
24.03.2024 09:28 21,1 °C 5,4 °C 50 % 84 % 1002,4 hPa 0,0 l/m² 19,8 km/h (3 Bft) SW 227 ° 2 min 104 W/m² 2,9 °C -2,6 °C 27,4 km/h (5 Bft)
24.03.2024 09:30 21,1 °C 5,4 °C 50 % 85 % 1002,4 hPa 0,0 l/m² 17,0 km/h (3 Bft) SW 223 ° 2 min 95 W/m² 3,1 °C -1,4 °C 25,7 km/h (4 Bft)
24.03.2024 09:31 21,1 °C 5,4 °C 50 % 85 % 1002,4 hPa 0,0 l/m² 17,9 km/h (3 Bft) SW 224 ° 1 min 91 W/m² 3,1 °C -1,8 °C 30,6 km/h (5 Bft)
24.03.2024 09:32 21,1 °C 5,4 °C 50 % 85 % 1002,4 hPa 0,0 l/m² 25,0 km/h (4 Bft) S-SW 209 ° 1 min 93 W/m² 3,1 °C -4,4 °C 33,8 km/h (5 Bft)
24.03.2024 09:34 21,1 °C 5,4 °C 50 % 84 % 1002,4 hPa 0,0 l/m² 20,9 km/h (4 Bft) S-SW 207 ° 2 min 93 W/m² 2,9 °C -3,0 °C 27,4 km/h (5 Bft)
24.03.2024 09:36 21,1 °C 5,3 °C 50 % 84 % 1002,4 hPa 0,0 l/m² 18,3 km/h (3 Bft) S-SW 213 ° 2 min 81 W/m² 2,8 °C -2,1 °C 27,4 km/h (5 Bft)
24.03.2024 09:38 21,1 °C 5,3 °C 50 % 84 % 1002,3 hPa 0,0 l/m² 21,4 km/h (4 Bft) S-SW 206 ° 2 min 105 W/m² 2,8 °C -3,3 °C 27,4 km/h (5 Bft)
24.03.2024 09:40 21,1 °C 5,3 °C 50 % 84 % 1002,3 hPa 0,0 l/m² 18,8 km/h (3 Bft) S-SW 194 ° 2 min 114 W/m² 2,8 °C -2,3 °C 24,1 km/h (4 Bft)
24.03.2024 09:41 21,1 °C 5,3 °C 50 % 84 % 1002,3 hPa 0,0 l/m² 19,9 km/h (4 Bft) S-SW 207 ° 1 min 113 W/m² 2,8 °C -2,7 °C 29,0 km/h (5 Bft)
24.03.2024 09:42 21,1 °C 5,3 °C 50 % 84 % 1002,3 hPa 0,0 l/m² 17,5 km/h (3 Bft) S-SW 205 ° 1 min 109 W/m² 2,8 °C -1,7 °C 22,5 km/h (4 Bft)
24.03.2024 09:44 21,1 °C 5,3 °C 50 % 84 % 1002,3 hPa 0,0 l/m² 18,4 km/h (3 Bft) S-SW 205 ° 2 min 104 W/m² 2,8 °C -2,1 °C 29,0 km/h (5 Bft)
24.03.2024 09:47 21,1 °C 5,3 °C 50 % 85 % 1002,2 hPa 0,0 l/m² 17,1 km/h (3 Bft) S-SW 202 ° 3 min 139 W/m² 3,0 °C -1,6 °C 24,1 km/h (4 Bft)
24.03.2024 09:49 21,1 °C 5,3 °C 50 % 85 % 1002,2 hPa 0,0 l/m² 19,8 km/h (3 Bft) S-SW 203 ° 2 min 148 W/m² 3,0 °C -2,7 °C 25,7 km/h (4 Bft)
24.03.2024 09:50 21,1 °C 5,4 °C 50 % 85 % 1002,2 hPa 0,0 l/m² 18,8 km/h (3 Bft) SW 224 ° 1 min 155 W/m² 3,1 °C -2,2 °C 24,1 km/h (4 Bft)
24.03.2024 09:52 21,1 °C 5,4 °C 50 % 85 % 1002,2 hPa 0,0 l/m² 21,7 km/h (4 Bft) S-SW 205 ° 2 min 156 W/m² 3,1 °C -3,3 °C 29,0 km/h (5 Bft)
24.03.2024 09:53 21,1 °C 5,5 °C 50 % 85 % 1002,2 hPa 0,0 l/m² 17,8 km/h (3 Bft) S-SW 202 ° 1 min 153 W/m² 3,2 °C -1,6 °C 25,7 km/h (4 Bft)
24.03.2024 09:55 21,1 °C 5,5 °C 50 % 85 % 1002,2 hPa 0,0 l/m² 18,9 km/h (3 Bft) S-SW 200 ° 2 min 167 W/m² 3,2 °C -2,1 °C 25,7 km/h (4 Bft)
24.03.2024 09:57 21,1 °C 5,6 °C 50 % 85 % 1002,2 hPa 0,0 l/m² 14,4 km/h (3 Bft) SW 221 ° 2 min 155 W/m² 3,3 °C 0,1 °C 17,7 km/h (3 Bft)
24.03.2024 09:59 21,1 °C 5,6 °C 50 % 84 % 1002,1 hPa 0,0 l/m² 21,5 km/h (4 Bft) S-SW 211 ° 2 min 134 W/m² 3,1 °C -3,0 °C 32,2 km/h (5 Bft)
24.03.2024 10:00 21,1 °C 5,6 °C 50 % 84 % 1002,2 hPa 0,0 l/m² 19,0 km/h (3 Bft) S-SW 205 ° 1 min 123 W/m² 3,1 °C -2,0 °C 24,1 km/h (4 Bft)
24.03.2024 10:01 21,1 °C 5,7 °C 50 % 84 % 1002,1 hPa 0,0 l/m² 22,9 km/h (4 Bft) S-SW 202 ° 1 min 116 W/m² 3,2 °C -3,3 °C 33,8 km/h (5 Bft)
24.03.2024 10:02 21,1 °C 5,7 °C 50 % 84 % 1002,1 hPa 0,0 l/m² 21,8 km/h (4 Bft) S-SW 209 ° 1 min 114 W/m² 3,2 °C -2,9 °C 27,4 km/h (5 Bft)
24.03.2024 10:04 21,1 °C 5,7 °C 50 % 84 % 1002,1 hPa 0,0 l/m² 19,5 km/h (3 Bft) W-SW 242 ° 2 min 111 W/m² 3,2 °C -2,1 °C 24,1 km/h (4 Bft)
24.03.2024 10:06 21,1 °C 5,7 °C 50 % 84 % 1002,1 hPa 0,0 l/m² 19,8 km/h (3 Bft) SW 218 ° 2 min 135 W/m² 3,2 °C -2,2 °C 25,7 km/h (4 Bft)
24.03.2024 10:08 21,1 °C 5,8 °C 50 % 84 % 1002,1 hPa 0,0 l/m² 26,1 km/h (4 Bft) S-SW 205 ° 2 min 121 W/m² 3,3 °C -4,2 °C 33,8 km/h (5 Bft)
24.03.2024 10:10 21,1 °C 5,8 °C 50 % 83 % 1002,1 hPa 0,0 l/m² 29,9 km/h (5 Bft) SW 219 ° 2 min 113 W/m² 3,1 °C -5,2 °C 43,5 km/h (6 Bft)
24.03.2024 10:11 21,1 °C 5,8 °C 50 % 83 % 1002,2 hPa 0,0 l/m² 26,6 km/h (4 Bft) S-SW 205 ° 1 min 121 W/m² 3,1 °C -4,3 °C 33,8 km/h (5 Bft)
24.03.2024 10:12 21,1 °C 5,8 °C 50 % 83 % 1002,2 hPa 0,0 l/m² 31,0 km/h (5 Bft) S-SW 195 ° 1 min 139 W/m² 3,1 °C -5,5 °C 41,8 km/h (6 Bft)
24.03.2024 10:14 21,1 °C 5,8 °C 50 % 82 % 1002,1 hPa 0,0 l/m² 30,5 km/h (5 Bft) S-SW 209 ° 2 min 165 W/m² 3,0 °C -5,4 °C 45,1 km/h (6 Bft)
24.03.2024 10:16 21,1 °C 5,8 °C 50 % 83 % 1002,1 hPa 0,0 l/m² 21,8 km/h (4 Bft) S-SW 204 ° 2 min 183 W/m² 3,1 °C -2,8 °C 29,0 km/h (5 Bft)
24.03.2024 10:18 21,1 °C 5,9 °C 50 % 83 % 1002,1 hPa 0,0 l/m² 22,1 km/h (4 Bft) SW 220 ° 2 min 188 W/m² 3,2 °C -2,8 °C 30,6 km/h (5 Bft)
24.03.2024 10:20 21,1 °C 5,9 °C 50 % 83 % 1002,1 hPa 0,0 l/m² 22,0 km/h (4 Bft) W-SW 256 ° 2 min 188 W/m² 3,2 °C -2,7 °C 32,2 km/h (5 Bft)
24.03.2024 10:21 21,1 °C 6,0 °C 50 % 83 % 1002,1 hPa 0,0 l/m² 21,0 km/h (4 Bft) SW 215 ° 1 min 221 W/m² 3,3 °C -2,3 °C 29,0 km/h (5 Bft)
24.03.2024 10:22 21,1 °C 6,1 °C 50 % 83 % 1002,1 hPa 0,0 l/m² 21,5 km/h (4 Bft) SW 217 ° 1 min 237 W/m² 3,4 °C -2,3 °C 27,4 km/h (5 Bft)
24.03.2024 10:25 21,1 °C 6,2 °C 50 % 83 % 1002,0 hPa 0,0 l/m² 21,4 km/h (4 Bft) SW 215 ° 3 min 211 W/m² 3,5 °C -2,1 °C 32,2 km/h (5 Bft)
24.03.2024 10:27 21,1 °C 6,2 °C 50 % 83 % 1002,0 hPa 0,0 l/m² 19,9 km/h (4 Bft) SW 227 ° 2 min 262 W/m² 3,5 °C -1,6 °C 27,4 km/h (5 Bft)
24.03.2024 10:29 21,1 °C 6,3 °C 50 % 83 % 1002,0 hPa 0,0 l/m² 19,8 km/h (3 Bft) S-SW 198 ° 2 min 272 W/m² 3,6 °C -1,4 °C 29,0 km/h (5 Bft)
24.03.2024 10:30 21,1 °C 6,4 °C 50 % 83 % 1002,0 hPa 0,0 l/m² 25,8 km/h (4 Bft) S-SW 199 ° 1 min 283 W/m² 3,7 °C -3,3 °C 33,8 km/h (5 Bft)
24.03.2024 10:32 21,1 °C 6,4 °C 50 % 82 % 1002,0 hPa 0,0 l/m² 26,4 km/h (4 Bft) SW 232 ° 2 min 302 W/m² 3,6 °C -3,5 °C 35,4 km/h (5 Bft)
24.03.2024 10:33 21,1 °C 6,4 °C 50 % 82 % 1002,0 hPa 0,0 l/m² 24,4 km/h (4 Bft) S-SW 207 ° 1 min 295 W/m² 3,6 °C -2,9 °C 29,0 km/h (5 Bft)
24.03.2024 10:35 21,1 °C 6,5 °C 50 % 82 % 1002,0 hPa 0,0 l/m² 22,5 km/h (4 Bft) SW 216 ° 2 min 283 W/m² 3,7 °C -2,1 °C 33,8 km/h (5 Bft)
24.03.2024 10:37 21,1 °C 6,5 °C 50 % 82 % 1002,0 hPa 0,0 l/m² 23,8 km/h (4 Bft) SW 220 ° 2 min 257 W/m² 3,7 °C -2,5 °C 35,4 km/h (5 Bft)
24.03.2024 10:39 21,1 °C 6,5 °C 50 % 82 % 1001,9 hPa 0,0 l/m² 20,3 km/h (4 Bft) SW 230 ° 2 min 237 W/m² 3,7 °C -1,3 °C 29,0 km/h (5 Bft)
24.03.2024 10:40 21,1 °C 6,5 °C 50 % 83 % 1002,0 hPa 0,0 l/m² 24,1 km/h (4 Bft) S-SW 206 ° 1 min 202 W/m² 3,8 °C -2,6 °C 33,8 km/h (5 Bft)
24.03.2024 10:41 21,1 °C 6,4 °C 50 % 82 % 1002,0 hPa 0,0 l/m² 24,1 km/h (4 Bft) S-SW 210 ° 1 min 183 W/m² 3,6 °C -2,8 °C 32,2 km/h (5 Bft)
24.03.2024 10:42 21,1 °C 6,4 °C 50 % 82 % 1002,0 hPa 0,0 l/m² 25,5 km/h (4 Bft) SW 232 ° 1 min 165 W/m² 3,6 °C -3,2 °C 33,8 km/h (5 Bft)
24.03.2024 10:44 21,1 °C 6,4 °C 50 % 82 % 1002,0 hPa 0,0 l/m² 22,6 km/h (4 Bft) SW 216 ° 2 min 148 W/m² 3,6 °C -2,3 °C 30,6 km/h (5 Bft)
24.03.2024 10:46 21,1 °C 6,3 °C 50 % 82 % 1002,0 hPa 0,0 l/m² 25,7 km/h (4 Bft) W-SW 249 ° 2 min 155 W/m² 3,5 °C -3,4 °C 38,6 km/h (6 Bft)
24.03.2024 10:48 21,1 °C 6,2 °C 50 % 82 % 1002,0 hPa 0,0 l/m² 23,2 km/h (4 Bft) S-SW 209 ° 2 min 132 W/m² 3,4 °C -2,7 °C 32,2 km/h (5 Bft)
24.03.2024 10:50 21,1 °C 6,2 °C 50 % 83 % 1002,0 hPa 0,0 l/m² 22,4 km/h (4 Bft) SW 231 ° 2 min 134 W/m² 3,5 °C -2,5 °C 33,8 km/h (5 Bft)
24.03.2024 10:51 21,1 °C 6,2 °C 50 % 83 % 1002,1 hPa 0,0 l/m² 20,5 km/h (4 Bft) S-SW 196 ° 1 min 130 W/m² 3,5 °C -1,8 °C 30,6 km/h (5 Bft)
24.03.2024 10:52 21,1 °C 6,1 °C 50 % 83 % 1002,1 hPa 0,0 l/m² 23,5 km/h (4 Bft) SW 219 ° 1 min 123 W/m² 3,4 °C -3,0 °C 29,0 km/h (5 Bft)
24.03.2024 10:54 21,1 °C 6,1 °C 50 % 83 % 1002,1 hPa 0,0 l/m² 25,3 km/h (4 Bft) SW 217 ° 2 min 120 W/m² 3,4 °C -3,5 °C 35,4 km/h (5 Bft)
24.03.2024 10:56 21,1 °C 6,1 °C 50 % 83 % 1002,0 hPa 0,0 l/m² 21,0 km/h (4 Bft) SW 223 ° 2 min 128 W/m² 3,4 °C -2,1 °C 27,4 km/h (5 Bft)
24.03.2024 10:58 21,1 °C 6,0 °C 50 % 83 % 1002,0 hPa 0,0 l/m² 20,1 km/h (4 Bft) S-SW 211 ° 2 min 102 W/m² 3,3 °C -1,9 °C 29,0 km/h (5 Bft)
24.03.2024 11:00 21,1 °C 5,9 °C 50 % 84 % 1002,1 hPa 0,0 l/m² 18,6 km/h (3 Bft) SW 235 ° 2 min 91 W/m² 3,4 °C -1,5 °C 27,4 km/h (5 Bft)
24.03.2024 11:01 21,1 °C 5,9 °C 50 % 84 % 1002,1 hPa 0,0 l/m² 18,5 km/h (3 Bft) SW 215 ° 1 min 93 W/m² 3,4 °C -1,4 °C 24,1 km/h (4 Bft)
24.03.2024 11:02 21,1 °C 5,9 °C 50 % 83 % 1002,1 hPa 0,0 l/m² 19,0 km/h (3 Bft) SW 225 ° 1 min 93 W/m² 3,2 °C -1,6 °C 24,1 km/h (4 Bft)
24.03.2024 11:04 21,1 °C 5,9 °C 50 % 84 % 1002,1 hPa 0,0 l/m² 17,3 km/h (3 Bft) S-SW 211 ° 2 min 91 W/m² 3,4 °C -0,9 °C 22,5 km/h (4 Bft)
24.03.2024 11:06 21,1 °C 5,9 °C 50 % 84 % 1002,1 hPa 0,0 l/m² 15,3 km/h (3 Bft) S-SW 206 ° 2 min 100 W/m² 3,4 °C 0,0 °C 20,9 km/h (4 Bft)
24.03.2024 11:08 21,1 °C 5,9 °C 50 % 84 % 1002,0 hPa 0,0 l/m² 19,3 km/h (3 Bft) SW 218 ° 2 min 105 W/m² 3,4 °C -1,7 °C 24,1 km/h (4 Bft)
24.03.2024 11:10 21,1 °C 5,9 °C 50 % 84 % 1001,9 hPa 0,0 l/m² 19,8 km/h (3 Bft) SW 232 ° 2 min 114 W/m² 3,4 °C -1,9 °C 24,1 km/h (4 Bft)
24.03.2024 11:11 21,1 °C 5,9 °C 50 % 84 % 1002,0 hPa 0,0 l/m² 19,4 km/h (3 Bft) SW 217 ° 1 min 114 W/m² 3,4 °C -1,8 °C 25,7 km/h (4 Bft)
24.03.2024 11:12 21,1 °C 5,9 °C 50 % 84 % 1002,0 hPa 0,0 l/m² 12,4 km/h (2 Bft) W-SW 238 ° 1 min 137 W/m² 3,4 °C 1,6 °C 19,3 km/h (3 Bft)
24.03.2024 11:14 21,1 °C 6,1 °C 50 % 83 % 1002,0 hPa 0,0 l/m² 19,8 km/h (3 Bft) SW 232 ° 2 min 172 W/m² 3,4 °C -1,7 °C 32,2 km/h (5 Bft)
24.03.2024 11:16 21,0 °C 6,2 °C 50 % 84 % 1002,0 hPa 0,0 l/m² 15,6 km/h (3 Bft) S-SW 213 ° 2 min 213 W/m² 3,7 °C 0,2 °C 27,4 km/h (5 Bft)
24.03.2024 11:18 21,1 °C 6,3 °C 50 % 84 % 1001,8 hPa 0,0 l/m² 23,0 km/h (4 Bft) SW 224 ° 2 min 234 W/m² 3,8 °C -2,6 °C 38,6 km/h (6 Bft)
24.03.2024 11:20 21,1 °C 6,4 °C 50 % 83 % 1001,8 hPa 0,0 l/m² 21,4 km/h (4 Bft) SW 230 ° 2 min 246 W/m² 3,7 °C -1,9 °C 32,2 km/h (5 Bft)
24.03.2024 11:21 21,0 °C 6,4 °C 50 % 83 % 1001,8 hPa 0,0 l/m² 24,0 km/h (4 Bft) S-SW 200 ° 1 min 267 W/m² 3,7 °C -2,7 °C 30,6 km/h (5 Bft)
24.03.2024 11:22 21,0 °C 6,5 °C 50 % 83 % 1001,8 hPa 0,0 l/m² 21,1 km/h (4 Bft) SW 217 ° 1 min 283 W/m² 3,8 °C -1,6 °C 29,0 km/h (5 Bft)
24.03.2024 11:23 21,0 °C 6,6 °C 50 % 83 % 1001,8 hPa 0,0 l/m² 22,4 km/h (4 Bft) SW 223 ° 1 min 278 W/m² 3,9 °C -2,0 °C 33,8 km/h (5 Bft)
24.03.2024 11:24 21,1 °C 6,6 °C 50 % 83 % 1001,8 hPa 0,0 l/m² 28,2 km/h (5 Bft) SW 225 ° 1 min 272 W/m² 3,9 °C -3,7 °C 37,0 km/h (5 Bft)
24.03.2024 11:26 21,0 °C 6,7 °C 50 % 82 % 1001,7 hPa 0,0 l/m² 21,1 km/h (4 Bft) SW 227 ° 2 min 283 W/m² 3,8 °C -1,4 °C 32,2 km/h (5 Bft)
24.03.2024 11:28 21,0 °C 6,8 °C 50 % 83 % 1001,7 hPa 0,0 l/m² 21,7 km/h (4 Bft) SW 217 ° 2 min 285 W/m² 4,1 °C -1,5 °C 37,0 km/h (5 Bft)
24.03.2024 11:30 21,0 °C 6,9 °C 50 % 83 % 1001,7 hPa 0,0 l/m² 19,9 km/h (4 Bft) SW 218 ° 2 min 257 W/m² 4,2 °C -0,7 °C 30,6 km/h (5 Bft)
24.03.2024 11:31 21,0 °C 6,9 °C 50 % 82 % 1001,6 hPa 0,0 l/m² 27,5 km/h (5 Bft) SW 222 ° 1 min 229 W/m² 4,0 °C -3,1 °C 41,8 km/h (6 Bft)
24.03.2024 11:32 21,0 °C 6,9 °C 50 % 82 % 1001,6 hPa 0,0 l/m² 25,4 km/h (4 Bft) SW 215 ° 1 min 221 W/m² 4,0 °C -2,5 °C 37,0 km/h (5 Bft)
24.03.2024 11:35 21,0 °C 6,8 °C 50 % 82 % 1001,7 hPa 0,0 l/m² 26,3 km/h (4 Bft) SW 232 ° 3 min 223 W/m² 3,9 °C -2,9 °C 37,0 km/h (5 Bft)
24.03.2024 11:37 21,1 °C 6,8 °C 50 % 82 % 1001,8 hPa 0,0 l/m² 27,8 km/h (5 Bft) SW 227 ° 2 min 214 W/m² 3,9 °C -3,3 °C 37,0 km/h (5 Bft)
24.03.2024 11:39 21,0 °C 6,8 °C 50 % 81 % 1001,8 hPa 0,0 l/m² 25,6 km/h (4 Bft) SW 229 ° 2 min 234 W/m² 3,8 °C -2,7 °C 37,0 km/h (5 Bft)
24.03.2024 11:40 21,0 °C 6,8 °C 50 % 81 % 1001,8 hPa 0,0 l/m² 26,3 km/h (4 Bft) SW 223 ° 1 min 218 W/m² 3,8 °C -2,9 °C 33,8 km/h (5 Bft)
24.03.2024 11:41 21,0 °C 6,8 °C 50 % 81 % 1001,8 hPa 0,0 l/m² 24,0 km/h (4 Bft) SW 229 ° 1 min 214 W/m² 3,8 °C -2,2 °C 32,2 km/h (5 Bft)
24.03.2024 11:42 21,0 °C 6,8 °C 50 % 81 % 1001,8 hPa 0,0 l/m² 28,5 km/h (5 Bft) SW 224 ° 1 min 214 W/m² 3,8 °C -3,5 °C 38,6 km/h (6 Bft)
24.03.2024 11:44 21,0 °C 6,8 °C 50 % 80 % 1001,9 hPa 0,0 l/m² 29,6 km/h (5 Bft) SW 227 ° 2 min 195 W/m² 3,6 °C -3,7 °C 37,0 km/h (5 Bft)
24.03.2024 11:46 21,0 °C 6,8 °C 50 % 81 % 1001,7 hPa 0,0 l/m² 25,2 km/h (4 Bft) SW 217 ° 2 min 192 W/m² 3,8 °C -2,6 °C 33,8 km/h (5 Bft)
24.03.2024 11:48 21,0 °C 6,8 °C 50 % 81 % 1001,7 hPa 0,0 l/m² 17,7 km/h (3 Bft) S-SW 206 ° 2 min 209 W/m² 3,8 °C 0,1 °C 27,4 km/h (5 Bft)
24.03.2024 11:50 21,0 °C 6,8 °C 50 % 82 % 1001,8 hPa 0,0 l/m² 23,6 km/h (4 Bft) SW 215 ° 2 min 220 W/m² 3,9 °C -2,1 °C 30,6 km/h (5 Bft)
24.03.2024 11:51 21,0 °C 6,8 °C 50 % 82 % 1001,8 hPa 0,0 l/m² 19,6 km/h (3 Bft) S-SW 209 ° 1 min 221 W/m² 3,9 °C -0,7 °C 27,4 km/h (5 Bft)
24.03.2024 11:52 21,0 °C 6,8 °C 50 % 82 % 1001,8 hPa 0,0 l/m² 23,9 km/h (4 Bft) SW 236 ° 1 min 230 W/m² 3,9 °C -2,2 °C 29,0 km/h (5 Bft)
24.03.2024 11:54 20,9 °C 6,8 °C 50 % 82 % 1001,7 hPa 0,0 l/m² 19,6 km/h (3 Bft) SW 224 ° 2 min 243 W/m² 3,9 °C -0,7 °C 27,4 km/h (5 Bft)
24.03.2024 11:56 21,0 °C 6,9 °C 50 % 82 % 1001,8 hPa 0,0 l/m² 20,1 km/h (4 Bft) SW 236 ° 2 min 218 W/m² 4,0 °C -0,8 °C 32,2 km/h (5 Bft)
24.03.2024 11:58 21,0 °C 6,9 °C 50 % 82 % 1001,8 hPa 0,0 l/m² 24,8 km/h (4 Bft) W-SW 241 ° 2 min 197 W/m² 4,0 °C -2,3 °C 32,2 km/h (5 Bft)
24.03.2024 12:00 21,0 °C 6,8 °C 50 % 82 % 1001,8 hPa 0,0 l/m² 22,1 km/h (4 Bft) SW 234 ° 2 min 223 W/m² 3,9 °C -1,6 °C 32,2 km/h (5 Bft)
24.03.2024 12:01 21,0 °C 6,9 °C 50 % 83 % 1001,8 hPa 0,0 l/m² 17,6 km/h (3 Bft) SW 217 ° 1 min 213 W/m² 4,2 °C 0,2 °C 25,7 km/h (4 Bft)
24.03.2024 12:03 21,0 °C 6,8 °C 50 % 82 % 1001,8 hPa 0,0 l/m² 20,5 km/h (4 Bft) SW 218 ° 2 min 195 W/m² 3,9 °C -1,0 °C 30,6 km/h (5 Bft)
24.03.2024 12:05 21,0 °C 6,8 °C 50 % 83 % 1001,7 hPa 0,0 l/m² 22,3 km/h (4 Bft) SW 225 ° 2 min 239 W/m² 4,1 °C -1,7 °C 30,6 km/h (5 Bft)
24.03.2024 12:06 21,0 °C 6,8 °C 50 % 83 % 1001,7 hPa 0,0 l/m² 22,9 km/h (4 Bft) SW 215 ° 1 min 246 W/m² 4,1 °C -1,9 °C 32,2 km/h (5 Bft)
24.03.2024 12:07 21,0 °C 6,8 °C 50 % 83 % 1001,7 hPa 0,0 l/m² 23,0 km/h (4 Bft) SW 221 ° 1 min 253 W/m² 4,1 °C -1,9 °C 27,4 km/h (5 Bft)
24.03.2024 12:08 21,0 °C 6,8 °C 50 % 83 % 1001,7 hPa 0,0 l/m² 19,8 km/h (3 Bft) SW 230 ° 1 min 267 W/m² 4,1 °C -0,8 °C 24,1 km/h (4 Bft)
24.03.2024 12:09 21,0 °C 6,8 °C 50 % 83 % 1001,8 hPa 0,0 l/m² 28,8 km/h (5 Bft) S-SW 205 ° 1 min 260 W/m² 4,1 °C -3,5 °C 40,2 km/h (6 Bft)
24.03.2024 12:10 21,0 °C 6,8 °C 50 % 83 % 1001,7 hPa 0,0 l/m² 26,8 km/h (4 Bft) SW 215 ° 1 min 265 W/m² 4,1 °C -3,0 °C 35,4 km/h (5 Bft)
24.03.2024 12:11 21,0 °C 6,8 °C 50 % 83 % 1001,7 hPa 0,0 l/m² 19,6 km/h (3 Bft) SW 219 ° 1 min 265 W/m² 4,1 °C -0,7 °C 29,0 km/h (5 Bft)
24.03.2024 12:12 21,0 °C 6,8 °C 50 % 83 % 1001,7 hPa 0,0 l/m² 28,7 km/h (5 Bft) SW 217 ° 1 min 264 W/m² 4,1 °C -3,5 °C 38,6 km/h (6 Bft)
24.03.2024 12:13 21,0 °C 6,8 °C 50 % 83 % 1001,7 hPa 0,0 l/m² 22,9 km/h (4 Bft) SW 221 ° 1 min 267 W/m² 4,1 °C -1,9 °C 29,0 km/h (5 Bft)
24.03.2024 12:14 21,0 °C 6,8 °C 50 % 83 % 1001,7 hPa 0,0 l/m² 20,0 km/h (4 Bft) SW 219 ° 1 min 258 W/m² 4,1 °C -0,8 °C 25,7 km/h (4 Bft)
24.03.2024 12:15 21,0 °C 6,9 °C 50 % 83 % 1001,7 hPa 0,0 l/m² 28,4 km/h (5 Bft) SW 217 ° 1 min 248 W/m² 4,2 °C -3,3 °C 33,8 km/h (5 Bft)
24.03.2024 12:17 20,9 °C 6,8 °C 50 % 83 % 1001,7 hPa 0,0 l/m² 22,1 km/h (4 Bft) SW 229 ° 2 min 253 W/m² 4,1 °C -1,6 °C 38,6 km/h (6 Bft)
24.03.2024 12:18 20,9 °C 6,9 °C 50 % 84 % 1001,7 hPa 0,0 l/m² 22,5 km/h (4 Bft) W 259 ° 1 min 251 W/m² 4,4 °C -1,6 °C 27,4 km/h (5 Bft)
24.03.2024 12:19 21,0 °C 6,9 °C 50 % 83 % 1001,7 hPa 0,0 l/m² 19,9 km/h (4 Bft) SW 229 ° 1 min 276 W/m² 4,2 °C -0,7 °C 24,1 km/h (4 Bft)
24.03.2024 12:21 21,0 °C 6,9 °C 50 % 83 % 1001,7 hPa 0,0 l/m² 22,8 km/h (4 Bft) W-SW 238 ° 2 min 306 W/m² 4,2 °C -1,7 °C 35,4 km/h (5 Bft)
24.03.2024 12:22 21,0 °C 6,9 °C 50 % 83 % 1001,7 hPa 0,0 l/m² 26,3 km/h (4 Bft) SW 217 ° 1 min 304 W/m² 4,2 °C -2,7 °C 33,8 km/h (5 Bft)
24.03.2024 12:23 20,9 °C 6,9 °C 50 % 83 % 1001,8 hPa 0,0 l/m² 24,9 km/h (4 Bft) SW 227 ° 1 min 306 W/m² 4,2 °C -2,3 °C 37,0 km/h (5 Bft)
24.03.2024 12:24 21,0 °C 6,9 °C 50 % 82 % 1001,7 hPa 0,0 l/m² 26,5 km/h (4 Bft) SW 225 ° 1 min 308 W/m² 4,0 °C -2,8 °C 37,0 km/h (5 Bft)
24.03.2024 12:25 20,9 °C 6,9 °C 50 % 82 % 1001,7 hPa 0,0 l/m² 24,0 km/h (4 Bft) SW 222 ° 1 min 308 W/m² 4,0 °C -2,1 °C 30,6 km/h (5 Bft)
24.03.2024 12:26 20,9 °C 6,9 °C 50 % 82 % 1001,7 hPa 0,0 l/m² 22,0 km/h (4 Bft) SW 216 ° 1 min 313 W/m² 4,0 °C -1,4 °C 30,6 km/h (5 Bft)
24.03.2024 12:27 20,9 °C 6,9 °C 50 % 82 % 1001,7 hPa 0,0 l/m² 21,4 km/h (4 Bft) SW 235 ° 1 min 329 W/m² 4,0 °C -1,2 °C 30,6 km/h (5 Bft)
24.03.2024 12:28 21,0 °C 6,9 °C 50 % 83 % 1001,7 hPa 0,0 l/m² 17,6 km/h (3 Bft) SW 215 ° 1 min 346 W/m² 4,2 °C 0,2 °C 29,0 km/h (5 Bft)
24.03.2024 12:29 21,0 °C 6,9 °C 50 % 83 % 1001,7 hPa 0,0 l/m² 22,7 km/h (4 Bft) SW 223 ° 1 min 359 W/m² 4,2 °C -1,7 °C 29,0 km/h (5 Bft)
24.03.2024 12:31 20,9 °C 7,1 °C 50 % 83 % 1001,7 hPa 0,0 l/m² 16,6 km/h (3 Bft) W-SW 244 ° 2 min 345 W/m² 4,4 °C 0,9 °C 25,7 km/h (4 Bft)
24.03.2024 12:33 21,0 °C 7,2 °C 50 % 82 % 1001,7 hPa 0,0 l/m² 21,0 km/h (4 Bft) W-SW 242 ° 2 min 345 W/m² 4,3 °C -0,7 °C 27,4 km/h (5 Bft)
24.03.2024 12:34 20,9 °C 7,2 °C 50 % 82 % 1001,7 hPa 0,0 l/m² 19,3 km/h (3 Bft) SW 219 ° 1 min 336 W/m² 4,3 °C -0,1 °C 24,1 km/h (4 Bft)
24.03.2024 12:35 20,9 °C 7,2 °C 50 % 82 % 1001,6 hPa 0,0 l/m² 21,5 km/h (4 Bft) S-SW 207 ° 1 min 380 W/m² 4,3 °C -0,9 °C 33,8 km/h (5 Bft)
24.03.2024 12:36 20,9 °C 7,3 °C 50 % 83 % 1001,7 hPa 0,0 l/m² 23,3 km/h (4 Bft) SW 215 ° 1 min 452 W/m² 4,6 °C -1,3 °C 30,6 km/h (5 Bft)
24.03.2024 12:37 20,9 °C 7,4 °C 50 % 83 % 1001,6 hPa 0,0 l/m² 16,7 km/h (3 Bft) SW 220 ° 1 min 483 W/m² 4,7 °C 1,2 °C 20,9 km/h (4 Bft)
24.03.2024 12:38 21,0 °C 7,5 °C 50 % 83 % 1001,6 hPa 0,0 l/m² 20,0 km/h (4 Bft) SW 221 ° 1 min 397 W/m² 4,8 °C 0,1 °C 25,7 km/h (4 Bft)
24.03.2024 12:39 21,0 °C 7,6 °C 50 % 83 % 1001,6 hPa 0,0 l/m² 23,8 km/h (4 Bft) SW 217 ° 1 min 373 W/m² 4,9 °C -1,1 °C 30,6 km/h (5 Bft)
24.03.2024 12:41 21,0 °C 7,7 °C 50 % 83 % 1001,6 hPa 0,0 l/m² 21,4 km/h (4 Bft) SW 223 ° 2 min 357 W/m² 5,0 °C -0,2 °C 30,6 km/h (5 Bft)
24.03.2024 12:43 20,9 °C 7,7 °C 50 % 83 % 1001,7 hPa 0,0 l/m² 21,6 km/h (4 Bft) SW 232 ° 2 min 338 W/m² 5,0 °C -0,2 °C 30,6 km/h (5 Bft)
24.03.2024 12:45 20,9 °C 7,6 °C 50 % 81 % 1001,6 hPa 0,0 l/m² 24,0 km/h (4 Bft) SW 222 ° 2 min 329 W/m² 4,6 °C -1,1 °C 33,8 km/h (5 Bft)
24.03.2024 12:47 21,0 °C 7,4 °C 50 % 81 % 1001,7 hPa 0,0 l/m² 25,5 km/h (4 Bft) S-SW 205 ° 2 min 332 W/m² 4,4 °C -1,8 °C 30,6 km/h (5 Bft)
24.03.2024 12:48 21,0 °C 7,4 °C 50 % 82 % 1001,7 hPa 0,0 l/m² 24,5 km/h (4 Bft) S-SW 197 ° 1 min 323 W/m² 4,5 °C -1,5 °C 32,2 km/h (5 Bft)
24.03.2024 12:49 21,0 °C 7,4 °C 50 % 82 % 1001,7 hPa 0,0 l/m² 26,0 km/h (4 Bft) W-SW 243 ° 1 min 315 W/m² 4,5 °C -2,0 °C 32,2 km/h (5 Bft)
24.03.2024 12:51 21,0 °C 7,4 °C 50 % 82 % 1001,6 hPa 0,0 l/m² 23,8 km/h (4 Bft) S-SW 200 ° 2 min 287 W/m² 4,5 °C -1,3 °C 32,2 km/h (5 Bft)
24.03.2024 12:53 20,9 °C 7,3 °C 50 % 82 % 1001,7 hPa 0,0 l/m² 26,8 km/h (4 Bft) S-SW 211 ° 2 min 274 W/m² 4,4 °C -2,3 °C 38,6 km/h (6 Bft)
24.03.2024 12:54 21,0 °C 7,3 °C 50 % 82 % 1001,6 hPa 0,0 l/m² 33,1 km/h (5 Bft) SW 219 ° 1 min 287 W/m² 4,4 °C -3,8 °C 43,5 km/h (6 Bft)
24.03.2024 12:55 20,9 °C 7,3 °C 50 % 82 % 1001,6 hPa 0,0 l/m² 25,3 km/h (4 Bft) SW 233 ° 1 min 297 W/m² 4,4 °C -1,9 °C 41,8 km/h (6 Bft)
24.03.2024 12:56 21,0 °C 7,2 °C 50 % 82 % 1001,6 hPa 0,0 l/m² 25,6 km/h (4 Bft) SW 223 ° 1 min 346 W/m² 4,3 °C -2,1 °C 35,4 km/h (5 Bft)
24.03.2024 12:57 21,0 °C 7,2 °C 50 % 82 % 1001,6 hPa 0,0 l/m² 25,4 km/h (4 Bft) S-SW 210 ° 1 min 387 W/m² 4,3 °C -2,1 °C 30,6 km/h (5 Bft)
24.03.2024 12:58 20,9 °C 7,3 °C 50 % 82 % 1001,7 hPa 0,0 l/m² 16,9 km/h (3 Bft) SW 225 ° 1 min 350 W/m² 4,4 °C 1,0 °C 24,1 km/h (4 Bft)
24.03.2024 12:59 21,0 °C 7,3 °C 50 % 83 % 1001,7 hPa 0,0 l/m² 20,7 km/h (4 Bft) SW 229 ° 1 min 352 W/m² 4,6 °C -0,5 °C 27,4 km/h (5 Bft)
24.03.2024 13:01 20,9 °C 7,4 °C 50 % 83 % 1001,7 hPa 0,0 l/m² 22,7 km/h (4 Bft) SW 214 ° 2 min 388 W/m² 4,7 °C -1,0 °C 30,6 km/h (5 Bft)
24.03.2024 13:03 21,0 °C 7,5 °C 50 % 83 % 1001,6 hPa 0,0 l/m² 24,3 km/h (4 Bft) S-SW 207 ° 2 min 427 W/m² 4,8 °C -1,4 °C 32,2 km/h (5 Bft)
24.03.2024 13:04 21,0 °C 7,6 °C 50 % 83 % 1001,7 hPa 0,0 l/m² 22,0 km/h (4 Bft) SW 225 ° 1 min 508 W/m² 4,9 °C -0,5 °C 29,0 km/h (5 Bft)
24.03.2024 13:05 21,0 °C 7,7 °C 50 % 84 % 1001,7 hPa 0,0 l/m² 15,7 km/h (3 Bft) SW 222 ° 1 min 489 W/m² 5,2 °C 2,0 °C 24,1 km/h (4 Bft)
24.03.2024 13:06 21,0 °C 7,9 °C 50 % 84 % 1001,7 hPa 0,0 l/m² 15,8 km/h (3 Bft) W-SW 251 ° 1 min 512 W/m² 5,4 °C 2,2 °C 19,3 km/h (3 Bft)
24.03.2024 13:07 21,0 °C 8,0 °C 50 % 84 % 1001,6 hPa 0,0 l/m² 21,0 km/h (4 Bft) W 262 ° 1 min 483 W/m² 5,5 °C 0,4 °C 29,0 km/h (5 Bft)
24.03.2024 13:08 21,0 °C 8,1 °C 50 % 82 % 1001,6 hPa 0,0 l/m² 25,3 km/h (4 Bft) SW 236 ° 1 min 461 W/m² 5,2 °C -0,8 °C 30,6 km/h (5 Bft)
24.03.2024 13:09 21,0 °C 8,1 °C 50 % 81 % 1001,7 hPa 0,0 l/m² 26,8 km/h (4 Bft) SW 235 ° 1 min 455 W/m² 5,0 °C -1,2 °C 32,2 km/h (5 Bft)
24.03.2024 13:11 21,0 °C 8,1 °C 50 % 81 % 1001,7 hPa 0,0 l/m² 22,5 km/h (4 Bft) W-SW 244 ° 2 min 403 W/m² 5,0 °C 0,0 °C 30,6 km/h (5 Bft)
24.03.2024 13:13 21,0 °C 8,2 °C 50 % 81 % 1001,7 hPa 0,0 l/m² 21,3 km/h (4 Bft) W-SW 252 ° 2 min 346 W/m² 5,1 °C 0,5 °C 30,6 km/h (5 Bft)
24.03.2024 13:14 21,0 °C 8,1 °C 50 % 80 % 1001,7 hPa 0,0 l/m² 22,5 km/h (4 Bft) W-SW 248 ° 1 min 353 W/m² 4,9 °C 0,0 °C 29,0 km/h (5 Bft)
24.03.2024 13:15 21,0 °C 8,1 °C 50 % 80 % 1001,7 hPa 0,0 l/m² 26,3 km/h (4 Bft) W-SW 244 ° 1 min 346 W/m² 4,9 °C -1,1 °C 32,2 km/h (5 Bft)
24.03.2024 13:16 21,0 °C 8,1 °C 50 % 80 % 1001,6 hPa 0,0 l/m² 22,7 km/h (4 Bft) W-SW 249 ° 1 min 345 W/m² 4,9 °C -0,1 °C 32,2 km/h (5 Bft)
24.03.2024 13:17 21,0 °C 8,0 °C 50 % 80 % 1001,7 hPa 0,0 l/m² 24,1 km/h (4 Bft) SW 234 ° 1 min 334 W/m² 4,8 °C -0,6 °C 30,6 km/h (5 Bft)
24.03.2024 13:18 21,0 °C 8,0 °C 50 % 80 % 1001,6 hPa 0,0 l/m² 19,6 km/h (3 Bft) SW 236 ° 1 min 332 W/m² 4,8 °C 0,8 °C 27,4 km/h (5 Bft)
24.03.2024 13:19 21,0 °C 8,0 °C 50 % 80 % 1001,6 hPa 0,0 l/m² 18,9 km/h (3 Bft) SW 228 ° 1 min 338 W/m² 4,8 °C 1,1 °C 22,5 km/h (4 Bft)
24.03.2024 13:20 21,0 °C 8,0 °C 50 % 80 % 1001,6 hPa 0,0 l/m² 17,8 km/h (3 Bft) W-SW 237 ° 1 min 346 W/m² 4,8 °C 1,5 °C 30,6 km/h (5 Bft)
24.03.2024 13:22 21,0 °C 8,1 °C 50 % 80 % 1001,6 hPa 0,0 l/m² 23,8 km/h (4 Bft) W-SW 242 ° 2 min 315 W/m² 4,9 °C -0,4 °C 29,0 km/h (5 Bft)
24.03.2024 13:24 21,0 °C 8,1 °C 50 % 81 % 1001,6 hPa 0,0 l/m² 16,5 km/h (3 Bft) SW 220 ° 2 min 332 W/m² 5,0 °C 2,2 °C 24,1 km/h (4 Bft)
24.03.2024 13:25 21,0 °C 8,1 °C 50 % 81 % 1001,5 hPa 0,0 l/m² 21,7 km/h (4 Bft) SW 226 ° 1 min 357 W/m² 5,0 °C 0,3 °C 30,6 km/h (5 Bft)
24.03.2024 13:26 21,1 °C 8,1 °C 50 % 80 % 1001,6 hPa 0,0 l/m² 21,6 km/h (4 Bft) SW 219 ° 1 min 343 W/m² 4,9 °C 0,3 °C 29,0 km/h (5 Bft)
24.03.2024 13:27 21,0 °C 8,1 °C 50 % 80 % 1001,5 hPa 0,0 l/m² 17,5 km/h (3 Bft) S-SW 212 ° 1 min 320 W/m² 4,9 °C 1,8 °C 24,1 km/h (4 Bft)
24.03.2024 13:28 21,1 °C 8,2 °C 50 % 80 % 1001,6 hPa 0,0 l/m² 18,7 km/h (3 Bft) SW 224 ° 1 min 357 W/m² 5,0 °C 1,4 °C 22,5 km/h (4 Bft)
24.03.2024 13:29 21,0 °C 8,2 °C 50 % 80 % 1001,5 hPa 0,0 l/m² 20,3 km/h (4 Bft) SW 222 ° 1 min 394 W/m² 5,0 °C 0,9 °C 27,4 km/h (5 Bft)
24.03.2024 13:30 21,1 °C 8,3 °C 50 % 79 % 1001,5 hPa 0,0 l/m² 22,2 km/h (4 Bft) SW 221 ° 1 min 369 W/m² 4,9 °C 0,4 °C 29,0 km/h (5 Bft)
24.03.2024 13:32 21,0 °C 8,3 °C 50 % 78 % 1001,5 hPa 0,0 l/m² 24,3 km/h (4 Bft) W-SW 251 ° 2 min 427 W/m² 4,7 °C -0,3 °C 32,2 km/h (5 Bft)
24.03.2024 13:33 21,0 °C 8,4 °C 50 % 78 % 1001,6 hPa 0,0 l/m² 16,4 km/h (3 Bft) SW 215 ° 1 min 357 W/m² 4,8 °C 2,6 °C 24,1 km/h (4 Bft)
24.03.2024 13:34 21,1 °C 8,5 °C 50 % 79 % 1001,6 hPa 0,0 l/m² 16,8 km/h (3 Bft) SW 232 ° 1 min 309 W/m² 5,1 °C 2,5 °C 22,5 km/h (4 Bft)
24.03.2024 13:35 21,1 °C 8,6 °C 50 % 79 % 1001,6 hPa 0,0 l/m² 18,0 km/h (3 Bft) SW 228 ° 1 min 309 W/m² 5,2 °C 2,2 °C 22,5 km/h (4 Bft)
24.03.2024 13:36 21,0 °C 8,6 °C 50 % 79 % 1001,5 hPa 0,0 l/m² 19,8 km/h (3 Bft) S-SW 199 ° 1 min 362 W/m² 5,2 °C 1,5 °C 24,1 km/h (4 Bft)
24.03.2024 13:37 21,0 °C 8,6 °C 50 % 80 % 1001,5 hPa 0,0 l/m² 23,7 km/h (4 Bft) SW 214 ° 1 min 281 W/m² 5,3 °C 0,3 °C 32,2 km/h (5 Bft)
24.03.2024 13:38 21,0 °C 8,5 °C 50 % 80 % 1001,5 hPa 0,0 l/m² 17,5 km/h (3 Bft) W-SW 254 ° 1 min 262 W/m² 5,3 °C 2,3 °C 24,1 km/h (4 Bft)
24.03.2024 13:39 21,1 °C 8,4 °C 50 % 80 % 1001,6 hPa 0,0 l/m² 19,9 km/h (4 Bft) SW 223 ° 1 min 223 W/m² 5,2 °C 1,3 °C 24,1 km/h (4 Bft)
24.03.2024 13:41 21,1 °C 8,3 °C 50 % 79 % 1001,5 hPa 0,0 l/m² 20,4 km/h (4 Bft) W-SW 240 ° 2 min 148 W/m² 4,9 °C 1,0 °C 27,4 km/h (5 Bft)
24.03.2024 13:43 21,1 °C 8,1 °C 50 % 79 % 1001,5 hPa 0,0 l/m² 17,9 km/h (3 Bft) SW 214 ° 2 min 90 W/m² 4,7 °C 1,6 °C 25,7 km/h (4 Bft)
24.03.2024 13:44 21,1 °C 8,0 °C 50 % 79 % 1001,6 hPa 0,0 l/m² 17,1 km/h (3 Bft) W-SW 249 ° 1 min 79 W/m² 4,6 °C 1,8 °C 20,9 km/h (4 Bft)
24.03.2024 13:45 21,0 °C 7,9 °C 50 % 79 % 1001,5 hPa 0,0 l/m² 12,3 km/h (2 Bft) SW 223 ° 1 min 77 W/m² 4,5 °C 3,9 °C 17,7 km/h (3 Bft)
24.03.2024 13:47 21,1 °C 7,8 °C 50 % 80 % 1001,6 hPa 0,0 l/m² 18,4 km/h (3 Bft) S-SW 211 ° 2 min 77 W/m² 4,6 °C 1,0 °C 29,0 km/h (5 Bft)
24.03.2024 13:48 21,1 °C 7,7 °C 50 % 81 % 1001,6 hPa 0,0 l/m² 21,9 km/h (4 Bft) SW 221 ° 1 min 81 W/m² 4,7 °C -0,3 °C 29,0 km/h (5 Bft)
24.03.2024 13:49 21,1 °C 7,6 °C 50 % 81 % 1001,6 hPa 0,0 l/m² 19,6 km/h (3 Bft) SW 234 ° 1 min 111 W/m² 4,6 °C 0,3 °C 25,7 km/h (4 Bft)
24.03.2024 13:51 21,1 °C 7,3 °C 50 % 81 % 1001,6 hPa 0,0 l/m² 16,4 km/h (3 Bft) SW 236 ° 2 min 188 W/m² 4,3 °C 1,2 °C 22,5 km/h (4 Bft)
24.03.2024 13:53 21,1 °C 7,2 °C 50 % 83 % 1001,4 hPa 0,0 l/m² 20,3 km/h (4 Bft) W-SW 248 ° 2 min 258 W/m² 4,5 °C -0,4 °C 29,0 km/h (5 Bft)
24.03.2024 13:54 21,1 °C 7,2 °C 50 % 84 % 1001,4 hPa 0,0 l/m² 18,4 km/h (3 Bft) W-SW 243 ° 1 min 274 W/m² 4,7 °C 0,3 °C 22,5 km/h (4 Bft)
24.03.2024 13:55 21,1 °C 7,3 °C 50 % 84 % 1001,4 hPa 0,0 l/m² 17,4 km/h (3 Bft) W-SW 242 ° 1 min 274 W/m² 4,8 °C 0,8 °C 24,1 km/h (4 Bft)
24.03.2024 13:56 21,1 °C 7,5 °C 50 % 85 % 1001,4 hPa 0,0 l/m² 18,3 km/h (3 Bft) SW 230 ° 1 min 805 W/m² 5,1 °C 0,7 °C 25,7 km/h (4 Bft)
24.03.2024 13:57 21,1 °C 7,8 °C 50 % 85 % 1001,3 hPa 0,0 l/m² 19,7 km/h (3 Bft) W-SW 238 ° 1 min 798 W/m² 5,4 °C 0,6 °C 24,1 km/h (4 Bft)
24.03.2024 13:58 21,1 °C 8,1 °C 50 % 85 % 1001,4 hPa 0,0 l/m² 18,2 km/h (3 Bft) W-SW 240 ° 1 min 758 W/m² 5,7 °C 1,5 °C 22,5 km/h (4 Bft)
24.03.2024 13:59 21,1 °C 8,4 °C 50 % 85 % 1001,4 hPa 0,0 l/m² 16,8 km/h (3 Bft) SW 219 ° 1 min 754 W/m² 6,0 °C 2,4 °C 25,7 km/h (4 Bft)
24.03.2024 14:01 21,1 °C 8,8 °C 50 % 83 % 1001,4 hPa 0,0 l/m² 21,3 km/h (4 Bft) SW 226 ° 2 min 756 W/m² 6,1 °C 1,3 °C 33,8 km/h (5 Bft)
24.03.2024 14:03 21,1 °C 9,1 °C 50 % 81 % 1001,4 hPa 0,0 l/m² 20,0 km/h (4 Bft) SW 231 ° 2 min 712 W/m² 6,0 °C 2,1 °C 30,6 km/h (5 Bft)
24.03.2024 14:04 21,1 °C 9,2 °C 50 % 82 % 1001,4 hPa 0,0 l/m² 16,8 km/h (3 Bft) SW 223 ° 1 min 722 W/m² 6,3 °C 3,4 °C 24,1 km/h (4 Bft)
24.03.2024 14:05 21,1 °C 9,3 °C 50 % 80 % 1001,4 hPa 0,0 l/m² 20,0 km/h (4 Bft) SW 229 ° 1 min 694 W/m² 6,0 °C 2,4 °C 25,7 km/h (4 Bft)
24.03.2024 14:06 21,1 °C 9,4 °C 50 % 80 % 1001,4 hPa 0,0 l/m² 20,0 km/h (4 Bft) W-SW 240 ° 1 min 696 W/m² 6,1 °C 2,5 °C 24,1 km/h (4 Bft)
24.03.2024 14:07 21,1 °C 9,4 °C 50 % 79 % 1001,4 hPa 0,0 l/m² 17,9 km/h (3 Bft) SW 219 ° 1 min 729 W/m² 5,9 °C 3,2 °C 20,9 km/h (4 Bft)
24.03.2024 14:08 21,1 °C 9,4 °C 50 % 79 % 1001,4 hPa 0,0 l/m² 18,2 km/h (3 Bft) W-SW 248 ° 1 min 708 W/m² 5,9 °C 3,1 °C 24,1 km/h (4 Bft)
24.03.2024 14:09 21,1 °C 9,4 °C 50 % 79 % 1001,4 hPa 0,0 l/m² 13,7 km/h (3 Bft) SW 218 ° 1 min 715 W/m² 5,9 °C 5,0 °C 17,7 km/h (3 Bft)
24.03.2024 14:11 21,1 °C 9,3 °C 50 % 78 % 1001,3 hPa 0,0 l/m² 20,2 km/h (4 Bft) SW 232 ° 2 min 220 W/m² 5,7 °C 2,3 °C 24,1 km/h (4 Bft)
24.03.2024 14:13 21,1 °C 9,0 °C 50 % 78 % 1001,3 hPa 0,0 l/m² 15,9 km/h (3 Bft) SW 232 ° 2 min 241 W/m² 5,4 °C 3,5 °C 25,7 km/h (4 Bft)
24.03.2024 14:14 21,1 °C 8,8 °C 50 % 78 % 1001,2 hPa 0,0 l/m² 16,3 km/h (3 Bft) SW 228 ° 1 min 199 W/m² 5,2 °C 3,1 °C 19,3 km/h (3 Bft)
24.03.2024 14:15 21,1 °C 8,8 °C 50 % 78 % 1001,4 hPa 0,0 l/m² 16,8 km/h (3 Bft) SW 223 ° 1 min 192 W/m² 5,2 °C 2,9 °C 22,5 km/h (4 Bft)
24.03.2024 14:16 21,1 °C 8,7 °C 50 % 79 % 1001,3 hPa 0,0 l/m² 14,2 km/h (3 Bft) W-SW 250 ° 1 min 195 W/m² 5,3 °C 3,9 °C 17,7 km/h (3 Bft)
24.03.2024 14:17 21,1 °C 8,6 °C 50 % 79 % 1001,3 hPa 0,0 l/m² 12,7 km/h (3 Bft) W-SW 244 ° 1 min 195 W/m² 5,2 °C 4,5 °C 16,1 km/h (3 Bft)
24.03.2024 14:18 21,1 °C 8,6 °C 50 % 79 % 1001,3 hPa 0,0 l/m² 16,4 km/h (3 Bft) W-SW 244 ° 1 min 239 W/m² 5,2 °C 2,8 °C 20,9 km/h (4 Bft)
24.03.2024 14:19 21,1 °C 8,6 °C 50 % 79 % 1001,3 hPa 0,0 l/m² 16,6 km/h (3 Bft) W-SW 241 ° 1 min 239 W/m² 5,2 °C 2,8 °C 27,4 km/h (5 Bft)
24.03.2024 14:21 21,1 °C 9,0 °C 50 % 80 % 1001,3 hPa 0,0 l/m² 16,5 km/h (3 Bft) SW 220 ° 2 min 570 W/m² 5,7 °C 3,3 °C 22,5 km/h (4 Bft)
24.03.2024 14:23 21,1 °C 9,6 °C 50 % 79 % 1001,4 hPa 0,0 l/m² 16,5 km/h (3 Bft) SW 215 ° 2 min 567 W/m² 6,1 °C 4,0 °C 22,5 km/h (4 Bft)
24.03.2024 14:24 21,1 °C 9,7 °C 50 % 78 % 1001,3 hPa 0,0 l/m² 18,2 km/h (3 Bft) SW 219 ° 1 min 566 W/m² 6,1 °C 3,5 °C 25,7 km/h (4 Bft)
24.03.2024 14:25 21,1 °C 9,8 °C 50 % 78 % 1001,3 hPa 0,0 l/m² 21,9 km/h (4 Bft) W-SW 242 ° 1 min 564 W/m² 6,1 °C 2,4 °C 27,4 km/h (5 Bft)
24.03.2024 14:26 21,1 °C 9,7 °C 50 % 76 % 1001,3 hPa 0,0 l/m² 23,9 km/h (4 Bft) W-SW 244 ° 1 min 563 W/m² 5,7 °C 1,7 °C 29,0 km/h (5 Bft)
24.03.2024 14:27 21,1 °C 9,7 °C 50 % 76 % 1001,2 hPa 0,0 l/m² 23,7 km/h (4 Bft) SW 236 ° 1 min 561 W/m² 5,7 °C 1,8 °C 32,2 km/h (5 Bft)
24.03.2024 14:28 21,1 °C 9,8 °C 50 % 76 % 1001,3 hPa 0,0 l/m² 20,2 km/h (4 Bft) SW 223 ° 1 min 654 W/m² 5,8 °C 3,0 °C 29,0 km/h (5 Bft)
24.03.2024 14:29 21,1 °C 9,8 °C 50 % 76 % 1001,3 hPa 0,0 l/m² 19,1 km/h (3 Bft) SW 216 ° 1 min 654 W/m² 5,8 °C 3,3 °C 24,1 km/h (4 Bft)
24.03.2024 14:30 21,1 °C 9,7 °C 50 % 75 % 1001,3 hPa 0,0 l/m² 22,1 km/h (4 Bft) SW 233 ° 1 min 645 W/m² 5,5 °C 2,2 °C 29,0 km/h (5 Bft)
24.03.2024 14:32 21,1 °C 9,7 °C 50 % 75 % 1001,2 hPa 0,0 l/m² 20,1 km/h (4 Bft) W-SW 244 ° 2 min 654 W/m² 5,5 °C 2,9 °C 29,0 km/h (5 Bft)
24.03.2024 14:33 21,1 °C 9,8 °C 50 % 77 % 1001,2 hPa 0,0 l/m² 17,9 km/h (3 Bft) SW 217 ° 1 min 680 W/m² 6,0 °C 3,8 °C 24,1 km/h (4 Bft)
24.03.2024 14:34 21,1 °C 9,9 °C 50 % 77 % 1001,2 hPa 0,0 l/m² 18,9 km/h (3 Bft) SW 230 ° 1 min 680 W/m² 6,1 °C 3,5 °C 25,7 km/h (4 Bft)
24.03.2024 14:35 21,1 °C 9,9 °C 50 % 75 % 1001,2 hPa 0,0 l/m² 23,6 km/h (4 Bft) SW 219 ° 1 min 339 W/m² 5,7 °C 2,1 °C 29,0 km/h (5 Bft)
24.03.2024 14:36 21,1 °C 9,8 °C 50 % 75 % 1001,2 hPa 0,0 l/m² 25,3 km/h (4 Bft) W-SW 239 ° 1 min 327 W/m² 5,6 °C 1,5 °C 33,8 km/h (5 Bft)
24.03.2024 14:37 21,1 °C 9,6 °C 50 % 74 % 1001,2 hPa 0,0 l/m² 19,8 km/h (3 Bft) SW 217 ° 1 min 577 W/m² 5,2 °C 2,8 °C 25,7 km/h (4 Bft)
24.03.2024 14:38 21,1 °C 9,6 °C 50 % 75 % 1001,1 hPa 0,0 l/m² 17,4 km/h (3 Bft) SW 232 ° 1 min 577 W/m² 5,4 °C 3,7 °C 22,5 km/h (4 Bft)
24.03.2024 14:39 21,1 °C 9,6 °C 50 % 76 % 1001,2 hPa 0,0 l/m² 15,2 km/h (3 Bft) S-SW 192 ° 1 min 577 W/m² 5,6 °C 4,6 °C 24,1 km/h (4 Bft)
24.03.2024 14:40 21,1 °C 9,6 °C 50 % 75 % 1001,1 hPa 0,0 l/m² 27,8 km/h (5 Bft) SW 214 ° 1 min 587 W/m² 5,4 °C 0,6 °C 35,4 km/h (5 Bft)
24.03.2024 14:42 21,1 °C 9,6 °C 50 % 74 % 1001,1 hPa 0,0 l/m² 17,8 km/h (3 Bft) W-SW 238 ° 2 min 608 W/m² 5,2 °C 3,5 °C 24,1 km/h (4 Bft)
24.03.2024 14:43 21,1 °C 9,6 °C 50 % 75 % 1001,1 hPa 0,0 l/m² 15,8 km/h (3 Bft) S-SW 211 ° 1 min 608 W/m² 5,4 °C 4,3 °C 20,9 km/h (4 Bft)
24.03.2024 14:44 21,1 °C 9,7 °C 50 % 76 % 1001,0 hPa 0,0 l/m² 17,5 km/h (3 Bft) S-SW 202 ° 1 min 455 W/m² 5,7 °C 3,8 °C 22,5 km/h (4 Bft)
24.03.2024 14:45 21,1 °C 9,8 °C 50 % 74 % 1001,1 hPa 0,0 l/m² 20,8 km/h (4 Bft) SW 234 ° 1 min 455 W/m² 5,4 °C 2,8 °C 29,0 km/h (5 Bft)
24.03.2024 14:46 21,1 °C 9,8 °C 50 % 75 % 1000,9 hPa 0,0 l/m² 17,9 km/h (3 Bft) SW 220 ° 1 min 617 W/m² 5,6 °C 3,8 °C 24,1 km/h (4 Bft)
24.03.2024 14:47 21,1 °C 9,9 °C 50 % 76 % 1000,9 hPa 0,0 l/m² 14,1 km/h (3 Bft) S-SW 201 ° 1 min 601 W/m² 5,9 °C 5,4 °C 19,3 km/h (3 Bft)
24.03.2024 14:48 21,1 °C 10,1 °C 50 % 76 % 1000,9 hPa 0,0 l/m² 13,8 km/h (3 Bft) SW 214 ° 1 min 531 W/m² 6,1 °C 5,8 °C 25,7 km/h (4 Bft)
24.03.2024 14:49 21,1 °C 10,2 °C 50 % 77 % 1001,0 hPa 0,0 l/m² 12,2 km/h (2 Bft) SW 217 ° 1 min 531 W/m² 6,4 °C 6,6 °C 17,7 km/h (3 Bft)
24.03.2024 14:51 21,1 °C 10,0 °C 50 % 75 % 1000,9 hPa 0,0 l/m² 22,9 km/h (4 Bft) SW 217 ° 2 min 265 W/m² 5,8 °C 2,4 °C 33,8 km/h (5 Bft)
24.03.2024 14:53 21,1 °C 9,7 °C 50 % 73 % 1001,0 hPa 0,0 l/m² 21,9 km/h (4 Bft) SW 227 ° 2 min 302 W/m² 5,1 °C 2,3 °C 27,4 km/h (5 Bft)
24.03.2024 14:54 21,1 °C 9,6 °C 50 % 73 % 1001,0 hPa 0,0 l/m² 21,3 km/h (4 Bft) SW 221 ° 1 min 251 W/m² 5,0 °C 2,4 °C 25,7 km/h (4 Bft)
24.03.2024 14:55 21,1 °C 9,5 °C 50 % 74 % 1001,0 hPa 0,0 l/m² 24,1 km/h (4 Bft) SW 232 ° 1 min 258 W/m² 5,1 °C 1,4 °C 27,4 km/h (5 Bft)
24.03.2024 14:56 21,1 °C 9,3 °C 50 % 73 % 1001,0 hPa 0,0 l/m² 23,1 km/h (4 Bft) W-SW 251 ° 1 min 248 W/m² 4,7 °C 1,4 °C 29,0 km/h (5 Bft)
24.03.2024 14:57 21,1 °C 9,3 °C 50 % 73 % 1001,0 hPa 0,0 l/m² 24,5 km/h (4 Bft) W 259 ° 1 min 257 W/m² 4,7 °C 1,0 °C 30,6 km/h (5 Bft)
24.03.2024 14:58 21,1 °C 9,2 °C 50 % 73 % 1001,0 hPa 0,0 l/m² 25,3 km/h (4 Bft) W-SW 240 ° 1 min 322 W/m² 4,6 °C 0,7 °C 33,8 km/h (5 Bft)
24.03.2024 14:59 21,1 °C 9,1 °C 50 % 73 % 1001,0 hPa 0,0 l/m² 24,4 km/h (4 Bft) W-SW 240 ° 1 min 281 W/m² 4,5 °C 0,8 °C 33,8 km/h (5 Bft)
24.03.2024 15:00 21,1 °C 9,1 °C 50 % 73 % 1001,0 hPa 0,0 l/m² 26,9 km/h (4 Bft) SW 236 ° 1 min 267 W/m² 4,5 °C 0,1 °C 32,2 km/h (5 Bft)
24.03.2024 15:02 21,1 °C 9,0 °C 50 % 74 % 1001,0 hPa 0,0 l/m² 19,7 km/h (3 Bft) SW 215 ° 2 min 244 W/m² 4,6 °C 2,1 °C 25,7 km/h (4 Bft)
24.03.2024 15:03 21,1 °C 8,9 °C 50 % 75 % 1001,0 hPa 0,0 l/m² 24,6 km/h (4 Bft) SW 220 ° 1 min 241 W/m² 4,7 °C 0,5 °C 29,0 km/h (5 Bft)
24.03.2024 15:04 21,1 °C 8,8 °C 50 % 75 % 1001,0 hPa 0,0 l/m² 21,1 km/h (4 Bft) SW 223 ° 1 min 246 W/m² 4,6 °C 1,4 °C 25,7 km/h (4 Bft)
24.03.2024 15:05 21,1 °C 8,8 °C 50 % 75 % 1001,0 hPa 0,0 l/m² 18,9 km/h (3 Bft) SW 223 ° 1 min 264 W/m² 4,6 °C 2,1 °C 25,7 km/h (4 Bft)
24.03.2024 15:06 21,1 °C 8,8 °C 50 % 76 % 1001,0 hPa 0,0 l/m² 15,6 km/h (3 Bft) SW 215 ° 1 min 413 W/m² 4,8 °C 3,4 °C 19,3 km/h (3 Bft)
24.03.2024 15:07 21,1 °C 8,8 °C 50 % 77 % 1000,9 hPa 0,0 l/m² 24,1 km/h (4 Bft) SW 215 ° 1 min 454 W/m² 5,0 °C 0,5 °C 30,6 km/h (5 Bft)
24.03.2024 15:08 21,1 °C 8,8 °C 50 % 77 % 1001,0 hPa 0,0 l/m² 19,0 km/h (3 Bft) S-SW 211 ° 1 min 408 W/m² 5,0 °C 2,1 °C 25,7 km/h (4 Bft)
24.03.2024 15:09 21,1 °C 8,8 °C 50 % 78 % 1001,1 hPa 0,0 l/m² 21,1 km/h (4 Bft) SW 227 ° 1 min 406 W/m² 5,2 °C 1,4 °C 25,7 km/h (4 Bft)
24.03.2024 15:11 21,1 °C 8,9 °C 50 % 77 % 1001,0 hPa 0,0 l/m² 17,7 km/h (3 Bft) SW 229 ° 2 min 431 W/m² 5,1 °C 2,7 °C 25,7 km/h (4 Bft)
24.03.2024 15:13 21,1 °C 9,1 °C 50 % 78 % 1000,9 hPa 0,0 l/m² 14,2 km/h (3 Bft) W-SW 247 ° 2 min 353 W/m² 5,5 °C 4,4 °C 22,5 km/h (4 Bft)
24.03.2024 15:14 21,1 °C 9,1 °C 50 % 77 % 1000,9 hPa 0,0 l/m² 17,5 km/h (3 Bft) SW 233 ° 1 min 380 W/m² 5,3 °C 3,0 °C 25,7 km/h (4 Bft)
24.03.2024 15:15 21,1 °C 9,2 °C 50 % 77 % 1000,9 hPa 0,0 l/m² 19,2 km/h (3 Bft) W-SW 239 ° 1 min 380 W/m² 5,4 °C 2,5 °C 27,4 km/h (5 Bft)
24.03.2024 15:16 21,1 °C 9,1 °C 50 % 76 % 1000,9 hPa 0,0 l/m² 20,8 km/h (4 Bft) W-SW 244 ° 1 min 236 W/m² 5,1 °C 1,9 °C 25,7 km/h (4 Bft)
24.03.2024 15:17 21,1 °C 9,1 °C 50 % 76 % 1000,9 hPa 0,0 l/m² 15,0 km/h (3 Bft) SW 221 ° 1 min 197 W/m² 5,1 °C 4,0 °C 17,7 km/h (3 Bft)
24.03.2024 15:18 21,1 °C 9,1 °C 50 % 77 % 1000,9 hPa 0,0 l/m² 19,8 km/h (3 Bft) SW 227 ° 1 min 185 W/m² 5,3 °C 2,2 °C 27,4 km/h (5 Bft)
24.03.2024 15:19 21,1 °C 8,9 °C 50 % 77 % 1000,9 hPa 0,0 l/m² 13,6 km/h (3 Bft) W-SW 244 ° 1 min 181 W/m² 5,1 °C 4,4 °C 24,1 km/h (4 Bft)
24.03.2024 15:20 21,1 °C 8,9 °C 50 % 76 % 1000,9 hPa 0,0 l/m² 20,8 km/h (4 Bft) SW 222 ° 1 min 188 W/m² 4,9 °C 1,6 °C 25,7 km/h (4 Bft)
24.03.2024 15:22 21,1 °C 8,8 °C 50 % 75 % 1000,8 hPa 0,0 l/m² 20,7 km/h (4 Bft) W-SW 248 ° 2 min 192 W/m² 4,6 °C 1,5 °C 29,0 km/h (5 Bft)
24.03.2024 15:23 21,1 °C 8,8 °C 50 % 75 % 1000,9 hPa 0,0 l/m² 20,0 km/h (4 Bft) SW 232 ° 1 min 190 W/m² 4,6 °C 1,7 °C 25,7 km/h (4 Bft)
24.03.2024 15:24 21,1 °C 8,8 °C 50 % 76 % 1000,9 hPa 0,0 l/m² 20,1 km/h (4 Bft) W-SW 252 ° 1 min 192 W/m² 4,8 °C 1,7 °C 27,4 km/h (5 Bft)
24.03.2024 15:25 21,1 °C 8,8 °C 50 % 76 % 1000,9 hPa 0,0 l/m² 17,4 km/h (3 Bft) W-SW 238 ° 1 min 200 W/m² 4,8 °C 2,7 °C 24,1 km/h (4 Bft)
24.03.2024 15:26 21,1 °C 8,8 °C 50 % 76 % 1000,9 hPa 0,0 l/m² 17,8 km/h (3 Bft) SW 219 ° 1 min 211 W/m² 4,8 °C 2,5 °C 24,1 km/h (4 Bft)
24.03.2024 15:27 21,1 °C 8,8 °C 50 % 76 % 1000,9 hPa 0,0 l/m² 15,9 km/h (3 Bft) W-SW 237 ° 1 min 206 W/m² 4,8 °C 3,3 °C 19,3 km/h (3 Bft)
24.03.2024 15:28 21,1 °C 8,8 °C 50 % 77 % 1000,9 hPa 0,0 l/m² 13,4 km/h (3 Bft) S-SW 209 ° 1 min 192 W/m² 5,0 °C 4,4 °C 17,7 km/h (3 Bft)
24.03.2024 15:29 21,1 °C 8,8 °C 50 % 77 % 1000,7 hPa 0,0 l/m² 14,7 km/h (3 Bft) SW 218 ° 1 min 209 W/m² 5,0 °C 3,8 °C 17,7 km/h (3 Bft)
24.03.2024 15:30 21,1 °C 8,8 °C 50 % 77 % 1000,8 hPa 0,0 l/m² 15,1 km/h (3 Bft) SW 215 ° 1 min 218 W/m² 5,0 °C 3,6 °C 19,3 km/h (3 Bft)
24.03.2024 15:32 21,1 °C 8,8 °C 50 % 77 % 1000,8 hPa 0,0 l/m² 15,6 km/h (3 Bft) SW 227 ° 2 min 237 W/m² 5,0 °C 3,4 °C 20,9 km/h (4 Bft)
24.03.2024 15:33 21,1 °C 8,9 °C 50 % 77 % 1000,8 hPa 0,0 l/m² 15,7 km/h (3 Bft) S-SW 208 ° 1 min 243 W/m² 5,1 °C 3,5 °C 20,9 km/h (4 Bft)
24.03.2024 15:34 21,1 °C 8,9 °C 50 % 77 % 1000,8 hPa 0,0 l/m² 14,3 km/h (3 Bft) S-SW 209 ° 1 min 262 W/m² 5,1 °C 4,1 °C 22,5 km/h (4 Bft)
24.03.2024 15:35 21,1 °C 8,9 °C 50 % 77 % 1000,8 hPa 0,0 l/m² 17,5 km/h (3 Bft) W-SW 242 ° 1 min 255 W/m² 5,1 °C 2,8 °C 22,5 km/h (4 Bft)
24.03.2024 15:36 21,1 °C 9,0 °C 50 % 76 % 1000,7 hPa 0,0 l/m² 20,0 km/h (4 Bft) SW 217 ° 1 min 244 W/m² 5,0 °C 2,0 °C 25,7 km/h (4 Bft)
24.03.2024 15:37 21,1 °C 9,0 °C 50 % 76 % 1000,7 hPa 0,0 l/m² 18,1 km/h (3 Bft) S-SW 208 ° 1 min 269 W/m² 5,0 °C 2,7 °C 24,1 km/h (4 Bft)
24.03.2024 15:38 21,1 °C 9,0 °C 50 % 77 % 1000,7 hPa 0,0 l/m² 15,7 km/h (3 Bft) S-SW 205 ° 1 min 258 W/m² 5,2 °C 3,6 °C 24,1 km/h (4 Bft)
24.03.2024 15:39 21,1 °C 8,9 °C 50 % 77 % 1000,6 hPa 0,0 l/m² 19,9 km/h (4 Bft) S-SW 202 ° 1 min 232 W/m² 5,1 °C 1,9 °C 25,7 km/h (4 Bft)
24.03.2024 15:41 21,1 °C 8,9 °C 50 % 77 % 1000,6 hPa 0,0 l/m² 17,2 km/h (3 Bft) SW 221 ° 2 min 216 W/m² 5,1 °C 2,9 °C 25,7 km/h (4 Bft)
24.03.2024 15:43 21,1 °C 8,8 °C 50 % 76 % 1000,6 hPa 0,0 l/m² 19,5 km/h (3 Bft) S-SW 210 ° 2 min 200 W/m² 4,8 °C 1,9 °C 25,7 km/h (4 Bft)
24.03.2024 15:44 21,1 °C 8,8 °C 50 % 76 % 1000,7 hPa 0,0 l/m² 18,5 km/h (3 Bft) SW 216 ° 1 min 207 W/m² 4,8 °C 2,3 °C 27,4 km/h (5 Bft)
24.03.2024 15:46 21,1 °C 8,8 °C 50 % 75 % 1000,7 hPa 0,0 l/m² 17,7 km/h (3 Bft) SW 222 ° 2 min 216 W/m² 4,6 °C 2,6 °C 22,5 km/h (4 Bft)
24.03.2024 15:47 21,1 °C 8,8 °C 50 % 76 % 1000,6 hPa 0,0 l/m² 14,7 km/h (3 Bft) SW 225 ° 1 min 199 W/m² 4,8 °C 3,8 °C 17,7 km/h (3 Bft)
24.03.2024 15:48 21,1 °C 8,8 °C 50 % 76 % 1000,6 hPa 0,0 l/m² 18,4 km/h (3 Bft) SW 227 ° 1 min 185 W/m² 4,8 °C 2,3 °C 25,7 km/h (4 Bft)
24.03.2024 15:49 21,1 °C 8,8 °C 50 % 75 % 1000,6 hPa 0,0 l/m² 15,0 km/h (3 Bft) SW 223 ° 1 min 179 W/m² 4,6 °C 3,7 °C 17,7 km/h (3 Bft)
24.03.2024 15:50 21,1 °C 8,8 °C 50 % 75 % 1000,6 hPa 0,0 l/m² 20,2 km/h (4 Bft) S-SW 211 ° 1 min 171 W/m² 4,6 °C 1,7 °C 27,4 km/h (5 Bft)
24.03.2024 15:52 21,1 °C 8,8 °C 50 % 74 % 1000,6 hPa 0,0 l/m² 17,0 km/h (3 Bft) W-SW 248 ° 2 min 144 W/m² 4,4 °C 2,8 °C 25,7 km/h (4 Bft)
24.03.2024 15:53 21,1 °C 8,8 °C 50 % 74 % 1000,6 hPa 0,0 l/m² 17,2 km/h (3 Bft) W-SW 250 ° 1 min 135 W/m² 4,4 °C 2,8 °C 22,5 km/h (4 Bft)
24.03.2024 15:54 21,1 °C 8,8 °C 50 % 72 % 1000,5 hPa 0,0 l/m² 15,9 km/h (3 Bft) W-SW 241 ° 1 min 128 W/m² 4,0 °C 3,3 °C 25,7 km/h (4 Bft)
24.03.2024 15:55 21,1 °C 8,8 °C 50 % 73 % 1000,5 hPa 0,0 l/m² 14,2 km/h (3 Bft) SW 217 ° 1 min 123 W/m² 4,2 °C 4,0 °C 20,9 km/h (4 Bft)
24.03.2024 15:56 21,1 °C 8,8 °C 50 % 73 % 1000,6 hPa 0,0 l/m² 20,9 km/h (4 Bft) SW 217 ° 1 min 116 W/m² 4,2 °C 1,4 °C 25,7 km/h (4 Bft)
24.03.2024 15:57 21,1 °C 8,7 °C 50 % 73 % 1000,5 hPa 0,0 l/m² 17,8 km/h (3 Bft) W-SW 237 ° 1 min 107 W/m² 4,1 °C 2,4 °C 25,7 km/h (4 Bft)
24.03.2024 15:58 21,1 °C 8,7 °C 50 % 73 % 1000,5 hPa 0,0 l/m² 17,2 km/h (3 Bft) SW 220 ° 1 min 93 W/m² 4,1 °C 2,6 °C 22,5 km/h (4 Bft)
24.03.2024 15:59 21,1 °C 8,7 °C 50 % 74 % 1000,5 hPa 0,0 l/m² 15,6 km/h (3 Bft) SW 215 ° 1 min 84 W/m² 4,3 °C 3,3 °C 19,3 km/h (3 Bft)
24.03.2024 16:01 21,1 °C 8,6 °C 50 % 75 % 1000,5 hPa 0,0 l/m² 16,3 km/h (3 Bft) SW 229 ° 2 min 67 W/m² 4,4 °C 2,9 °C 22,5 km/h (4 Bft)
24.03.2024 16:03 21,1 °C 8,6 °C 50 % 75 % 1000,5 hPa 0,0 l/m² 21,0 km/h (4 Bft) S-SW 208 ° 2 min 58 W/m² 4,4 °C 1,1 °C 27,4 km/h (5 Bft)
24.03.2024 16:04 21,1 °C 8,5 °C 50 % 75 % 1000,5 hPa 0,0 l/m² 18,4 km/h (3 Bft) SW 236 ° 1 min 53 W/m² 4,3 °C 1,9 °C 20,9 km/h (4 Bft)
24.03.2024 16:05 21,1 °C 8,4 °C 50 % 75 % 1000,6 hPa 0,0 l/m² 20,7 km/h (4 Bft) SW 221 ° 0 min 51 W/m² 4,2 °C 1,0 °C 24,1 km/h (4 Bft)
24.03.2024 16:06 21,1 °C 8,4 °C 50 % 75 % 1000,5 hPa 0,0 l/m² 20,1 km/h (4 Bft) SW 222 ° 0 min 49 W/m² 4,2 °C 1,2 °C 24,1 km/h (4 Bft)
24.03.2024 16:07 21,1 °C 8,4 °C 50 % 75 % 1000,5 hPa 0,0 l/m² 15,9 km/h (3 Bft) S-SW 211 ° 0 min 47 W/m² 4,2 °C 2,8 °C 19,3 km/h (3 Bft)
24.03.2024 16:08 21,1 °C 8,3 °C 50 % 75 % 1000,5 hPa 0,0 l/m² 20,1 km/h (4 Bft) S-SW 212 ° 0 min 46 W/m² 4,1 °C 1,1 °C 24,1 km/h (4 Bft)
24.03.2024 16:09 21,1 °C 8,3 °C 50 % 75 % 1000,5 hPa 0,0 l/m² 17,3 km/h (3 Bft) SW 228 ° 0 min 46 W/m² 4,1 °C 2,1 °C 24,1 km/h (4 Bft)
24.03.2024 16:11 21,1 °C 8,3 °C 50 % 76 % 1000,5 hPa 0,0 l/m² 16,9 km/h (3 Bft) SW 221 ° 0 min 40 W/m² 4,3 °C 2,3 °C 24,1 km/h (4 Bft)
24.03.2024 16:13 21,1 °C 8,2 °C 50 % 76 % 1000,5 hPa 0,0 l/m² 18,2 km/h (3 Bft) S-SW 213 ° 0 min 39 W/m² 4,2 °C 1,6 °C 29,0 km/h (5 Bft)
24.03.2024 16:14 21,1 °C 8,2 °C 50 % 76 % 1000,6 hPa 0,0 l/m² 14,6 km/h (3 Bft) SW 217 ° 0 min 39 W/m² 4,2 °C 3,1 °C 19,3 km/h (3 Bft)
24.03.2024 16:15 21,1 °C 8,2 °C 50 % 76 % 1000,5 hPa 0,0 l/m² 20,0 km/h (4 Bft) S-SW 192 ° 0 min 42 W/m² 4,2 °C 1,0 °C 27,4 km/h (5 Bft)
24.03.2024 16:17 21,1 °C 8,1 °C 50 % 76 % 1000,5 hPa 0,0 l/m² 16,3 km/h (3 Bft) SW 229 ° 0 min 49 W/m² 4,1 °C 2,3 °C 22,5 km/h (4 Bft)
24.03.2024 16:18 21,1 °C 8,1 °C 50 % 76 % 1000,5 hPa 0,0 l/m² 21,0 km/h (4 Bft) SW 218 ° 0 min 51 W/m² 4,1 °C 0,5 °C 25,7 km/h (4 Bft)
24.03.2024 16:19 21,1 °C 8,1 °C 50 % 75 % 1000,5 hPa 0,0 l/m² 18,8 km/h (3 Bft) SW 221 ° 0 min 49 W/m² 3,9 °C 1,3 °C 27,4 km/h (5 Bft)
24.03.2024 16:21 21,1 °C 8,1 °C 50 % 76 % 1000,5 hPa 0,0 l/m² 16,5 km/h (3 Bft) SW 223 ° 0 min 42 W/m² 4,1 °C 2,2 °C 25,7 km/h (4 Bft)
24.03.2024 16:23 21,1 °C 8,1 °C 50 % 75 % 1000,5 hPa 0,0 l/m² 19,7 km/h (3 Bft) S-SW 197 ° 0 min 39 W/m² 3,9 °C 0,9 °C 25,7 km/h (4 Bft)
24.03.2024 16:24 21,1 °C 8,1 °C 50 % 75 % 1000,6 hPa 0,0 l/m² 20,1 km/h (4 Bft) S 191 ° 0 min 39 W/m² 3,9 °C 0,8 °C 25,7 km/h (4 Bft)
24.03.2024 16:25 21,0 °C 8,1 °C 50 % 76 % 1000,6 hPa 0,0 l/m² 19,1 km/h (3 Bft) SW 222 ° 0 min 39 W/m² 4,1 °C 1,2 °C 24,1 km/h (4 Bft)
24.03.2024 16:27 21,1 °C 8,1 °C 50 % 77 % 1000,6 hPa 0,0 l/m² 16,1 km/h (3 Bft) SW 215 ° 0 min 30 W/m² 4,3 °C 2,3 °C 24,1 km/h (4 Bft)
24.03.2024 16:28 21,1 °C 8,1 °C 50 % 76 % 1000,6 hPa 0,0 l/m² 19,9 km/h (4 Bft) W-SW 256 ° 0 min 23 W/m² 4,1 °C 0,9 °C 24,1 km/h (4 Bft)
24.03.2024 16:29 21,1 °C 8,1 °C 50 % 76 % 1000,6 hPa 0,0 l/m² 22,8 km/h (4 Bft) SW 225 ° 0 min 19 W/m² 4,1 °C -0,1 °C 33,8 km/h (5 Bft)
24.03.2024 16:31 21,1 °C 8,1 °C 50 % 76 % 1001,0 hPa 0,0 l/m² 39,4 km/h (6 Bft) SW 223 ° 0 min 16 W/m² 4,1 °C -3,8 °C 54,7 km/h (7 Bft)
24.03.2024 16:33 21,1 °C 7,8 °C 50 % 78 % 1001,2 hPa 0,2 l/m² 34,1 km/h (5 Bft) SW 219 ° 0 min 16 W/m² 4,2 °C -3,3 °C 46,7 km/h (6 Bft)
24.03.2024 16:34 21,0 °C 7,6 °C 50 % 79 % 1001,2 hPa 0,0 l/m² 29,7 km/h (5 Bft) SW 229 ° 0 min 18 W/m² 4,2 °C -2,6 °C 37,0 km/h (5 Bft)
24.03.2024 16:35 21,0 °C 7,4 °C 50 % 79 % 1001,2 hPa 0,2 l/m² 25,5 km/h (4 Bft) W-SW 238 ° 0 min 19 W/m² 4,0 °C -1,8 °C 37,0 km/h (5 Bft)
24.03.2024 16:36 21,1 °C 7,3 °C 50 % 80 % 1001,2 hPa 0,0 l/m² 26,3 km/h (4 Bft) W 273 ° 0 min 21 W/m² 4,1 °C -2,2 °C 32,2 km/h (5 Bft)
24.03.2024 16:37 21,0 °C 7,1 °C 50 % 81 % 1001,2 hPa 0,0 l/m² 33,9 km/h (5 Bft) W-SW 249 ° 0 min 25 W/m² 4,1 °C -4,3 °C 48,3 km/h (6 Bft)
24.03.2024 16:38 21,1 °C 6,9 °C 50 % 81 % 1001,1 hPa 0,0 l/m² 25,2 km/h (4 Bft) W-SW 242 ° 0 min 33 W/m² 3,9 °C -2,4 °C 32,2 km/h (5 Bft)
24.03.2024 16:39 21,1 °C 6,7 °C 50 % 82 % 1001,1 hPa 0,0 l/m² 22,9 km/h (4 Bft) W-SW 240 ° 0 min 51 W/m² 3,8 °C -2,0 °C 32,2 km/h (5 Bft)
24.03.2024 16:41 21,1 °C 6,4 °C 50 % 83 % 1001,0 hPa 0,2 l/m² 21,7 km/h (4 Bft) SW 217 ° 2 min 63 W/m² 3,7 °C -2,0 °C 33,8 km/h (5 Bft)
24.03.2024 16:43 21,0 °C 6,2 °C 50 % 84 % 1001,0 hPa 0,0 l/m² 18,1 km/h (3 Bft) SW 234 ° 2 min 62 W/m² 3,7 °C -0,9 °C 25,7 km/h (4 Bft)
24.03.2024 16:44 21,0 °C 6,1 °C 50 % 84 % 1000,9 hPa 0,0 l/m² 16,7 km/h (3 Bft) W-SW 238 ° 1 min 60 W/m² 3,6 °C -0,4 °C 27,4 km/h (5 Bft)
24.03.2024 16:45 21,0 °C 6,0 °C 50 % 85 % 1000,9 hPa 0,0 l/m² 16,7 km/h (3 Bft) SW 228 ° 1 min 58 W/m² 3,7 °C -0,5 °C 25,7 km/h (4 Bft)
24.03.2024 16:46 21,0 °C 5,9 °C 50 % 85 % 1000,9 hPa 0,0 l/m² 16,2 km/h (3 Bft) SW 221 ° 1 min 56 W/m² 3,6 °C -0,4 °C 24,1 km/h (4 Bft)
24.03.2024 16:47 21,0 °C 5,9 °C 50 % 85 % 1000,9 hPa 0,0 l/m² 16,6 km/h (3 Bft) SW 221 ° 1 min 56 W/m² 3,6 °C -0,6 °C 22,5 km/h (4 Bft)
24.03.2024 16:48 21,1 °C 5,8 °C 50 % 86 % 1000,8 hPa 0,0 l/m² 18,8 km/h (3 Bft) W-SW 254 ° 1 min 56 W/m² 3,6 °C -1,7 °C 22,5 km/h (4 Bft)
24.03.2024 16:49 21,1 °C 5,8 °C 50 % 86 % 1000,8 hPa 0,0 l/m² 13,6 km/h (3 Bft) SW 226 ° 1 min 56 W/m² 3,6 °C 0,8 °C 20,9 km/h (4 Bft)
24.03.2024 16:51 21,0 °C 5,8 °C 50 % 87 % 1000,9 hPa 0,0 l/m² 16,0 km/h (3 Bft) W-SW 242 ° 2 min 63 W/m² 3,8 °C -0,4 °C 29,0 km/h (5 Bft)
24.03.2024 16:53 21,0 °C 5,8 °C 50 % 87 % 1000,8 hPa 0,0 l/m² 19,8 km/h (3 Bft) W-SW 237 ° 2 min 65 W/m² 3,8 °C -2,1 °C 32,2 km/h (5 Bft)
24.03.2024 16:54 21,0 °C 5,8 °C 50 % 87 % 1000,9 hPa 0,0 l/m² 20,7 km/h (4 Bft) SW 227 ° 1 min 67 W/m² 3,8 °C -2,4 °C 29,0 km/h (5 Bft)
24.03.2024 16:55 21,0 °C 5,8 °C 50 % 87 % 1000,8 hPa 0,0 l/m² 22,4 km/h (4 Bft) SW 224 ° 1 min 67 W/m² 3,8 °C -3,0 °C 29,0 km/h (5 Bft)
24.03.2024 16:56 21,1 °C 5,8 °C 50 % 87 % 1000,7 hPa 0,0 l/m² 19,2 km/h (3 Bft) SW 225 ° 1 min 70 W/m² 3,8 °C -1,8 °C 25,7 km/h (4 Bft)
24.03.2024 16:57 21,0 °C 5,9 °C 50 % 87 % 1000,7 hPa 0,0 l/m² 20,2 km/h (4 Bft) SW 227 ° 1 min 74 W/m² 3,9 °C -2,1 °C 27,4 km/h (5 Bft)
24.03.2024 16:58 21,0 °C 5,9 °C 50 % 87 % 1000,7 hPa 0,0 l/m² 21,2 km/h (4 Bft) SW 222 ° 1 min 77 W/m² 3,9 °C -2,5 °C 29,0 km/h (5 Bft)
24.03.2024 16:59 21,0 °C 5,9 °C 50 % 87 % 1000,7 hPa 0,0 l/m² 20,5 km/h (4 Bft) SW 225 ° 1 min 76 W/m² 3,9 °C -2,2 °C 27,4 km/h (5 Bft)
24.03.2024 17:00 21,0 °C 5,9 °C 50 % 87 % 1000,7 hPa 0,0 l/m² 22,3 km/h (4 Bft) SW 229 ° 1 min 76 W/m² 3,9 °C -2,8 °C 25,7 km/h (4 Bft)
24.03.2024 17:02 21,0 °C 5,9 °C 50 % 87 % 1000,7 hPa 0,0 l/m² 17,1 km/h (3 Bft) SW 234 ° 2 min 81 W/m² 3,9 °C -0,8 °C 27,4 km/h (5 Bft)
24.03.2024 17:03 21,0 °C 6,0 °C 50 % 87 % 1000,7 hPa 0,0 l/m² 15,9 km/h (3 Bft) S-SW 213 ° 1 min 81 W/m² 4,0 °C -0,1 °C 20,9 km/h (4 Bft)
24.03.2024 17:04 21,0 °C 5,9 °C 50 % 87 % 1000,7 hPa 0,0 l/m² 18,5 km/h (3 Bft) S-SW 213 ° 1 min 81 W/m² 3,9 °C -1,4 °C 22,5 km/h (4 Bft)
24.03.2024 17:05 21,0 °C 5,9 °C 50 % 87 % 1000,7 hPa 0,0 l/m² 17,2 km/h (3 Bft) SW 214 ° 1 min 81 W/m² 3,9 °C -0,9 °C 24,1 km/h (4 Bft)
24.03.2024 17:06 21,0 °C 5,9 °C 50 % 87 % 1000,6 hPa 0,0 l/m² 15,5 km/h (3 Bft) SW 218 ° 1 min 79 W/m² 3,9 °C -0,1 °C 19,3 km/h (3 Bft)
24.03.2024 17:07 21,0 °C 5,9 °C 50 % 87 % 1000,7 hPa 0,0 l/m² 18,2 km/h (3 Bft) SW 218 ° 1 min 77 W/m² 3,9 °C -1,3 °C 20,9 km/h (4 Bft)
24.03.2024 17:08 21,0 °C 6,0 °C 50 % 87 % 1000,6 hPa 0,0 l/m² 13,5 km/h (3 Bft) S-SW 207 ° 1 min 74 W/m² 4,0 °C 1,1 °C 17,7 km/h (3 Bft)
24.03.2024 17:09 21,0 °C 5,9 °C 50 % 87 % 1000,6 hPa 0,0 l/m² 12,8 km/h (3 Bft) SW 221 ° 1 min 70 W/m² 3,9 °C 1,3 °C 17,7 km/h (3 Bft)
24.03.2024 17:11 21,0 °C 5,9 °C 50 % 87 % 1000,6 hPa 0,0 l/m² 17,1 km/h (3 Bft) SW 217 ° 2 min 67 W/m² 3,9 °C -0,8 °C 24,1 km/h (4 Bft)
24.03.2024 17:13 21,0 °C 5,9 °C 50 % 87 % 1000,7 hPa 0,0 l/m² 16,4 km/h (3 Bft) SW 236 ° 2 min 60 W/m² 3,9 °C -0,5 °C 22,5 km/h (4 Bft)
24.03.2024 17:14 21,0 °C 5,9 °C 50 % 87 % 1000,7 hPa 0,0 l/m² 16,8 km/h (3 Bft) SW 218 ° 1 min 54 W/m² 3,9 °C -0,7 °C 20,9 km/h (4 Bft)
24.03.2024 17:15 21,0 °C 5,9 °C 50 % 87 % 1000,8 hPa 0,0 l/m² 14,3 km/h (3 Bft) SW 232 ° 1 min 54 W/m² 3,9 °C 0,5 °C 17,7 km/h (3 Bft)
24.03.2024 17:16 20,9 °C 5,9 °C 50 % 87 % 1000,8 hPa 0,0 l/m² 17,6 km/h (3 Bft) SW 227 ° 1 min 54 W/m² 3,9 °C -1,0 °C 20,9 km/h (4 Bft)
24.03.2024 17:17 21,0 °C 5,9 °C 50 % 87 % 1000,7 hPa 0,0 l/m² 14,0 km/h (3 Bft) SW 229 ° 1 min 54 W/m² 3,9 °C 0,7 °C 19,3 km/h (3 Bft)
24.03.2024 17:18 20,9 °C 5,9 °C 50 % 87 % 1000,7 hPa 0,0 l/m² 16,1 km/h (3 Bft) SW 218 ° 1 min 53 W/m² 3,9 °C -0,4 °C 19,3 km/h (3 Bft)
24.03.2024 17:19 20,9 °C 6,0 °C 50 % 87 % 1000,8 hPa 0,0 l/m² 16,9 km/h (3 Bft) W-SW 255 ° 0 min 51 W/m² 4,0 °C -0,6 °C 20,9 km/h (4 Bft)
24.03.2024 17:21 21,0 °C 6,0 °C 50 % 87 % 1000,7 hPa 0,0 l/m² 18,3 km/h (3 Bft) SW 219 ° 0 min 44 W/m² 4,0 °C -1,2 °C 25,7 km/h (4 Bft)
24.03.2024 17:23 20,9 °C 6,0 °C 50 % 87 % 1000,7 hPa 0,0 l/m² 19,3 km/h (3 Bft) SW 220 ° 0 min 39 W/m² 4,0 °C -1,6 °C 29,0 km/h (5 Bft)
24.03.2024 17:24 21,0 °C 6,0 °C 50 % 87 % 1000,8 hPa 0,0 l/m² 12,7 km/h (3 Bft) W-SW 237 ° 0 min 37 W/m² 4,0 °C 1,5 °C 19,3 km/h (3 Bft)
24.03.2024 17:25 20,9 °C 6,0 °C 50 % 87 % 1000,7 hPa 0,0 l/m² 13,7 km/h (3 Bft) SW 217 ° 0 min 35 W/m² 4,0 °C 1,0 °C 17,7 km/h (3 Bft)
24.03.2024 17:26 21,0 °C 6,0 °C 50 % 88 % 1000,8 hPa 0,0 l/m² 9,1 km/h (2 Bft) SW 225 ° 0 min 35 W/m² 4,2 °C 3,8 °C 14,5 km/h (3 Bft)
24.03.2024 17:27 20,9 °C 6,0 °C 50 % 87 % 1000,8 hPa 0,0 l/m² 10,2 km/h (2 Bft) SW 228 ° 0 min 33 W/m² 4,0 °C 3,0 °C 14,5 km/h (3 Bft)
24.03.2024 17:28 21,0 °C 6,0 °C 50 % 87 % 1000,8 hPa 0,0 l/m² 12,1 km/h (2 Bft) SW 221 ° 0 min 33 W/m² 4,0 °C 1,8 °C 19,3 km/h (3 Bft)
24.03.2024 17:29 20,9 °C 6,0 °C 50 % 88 % 1000,7 hPa 0,0 l/m² 14,5 km/h (3 Bft) S-SW 205 ° 0 min 33 W/m² 4,2 °C 0,5 °C 19,3 km/h (3 Bft)
24.03.2024 17:31 20,9 °C 6,1 °C 50 % 87 % 1000,7 hPa 0,0 l/m² 14,9 km/h (3 Bft) SW 219 ° 0 min 33 W/m² 4,1 °C 0,5 °C 22,5 km/h (4 Bft)
24.03.2024 17:33 21,0 °C 6,0 °C 50 % 88 % 1000,7 hPa 0,0 l/m² 11,6 km/h (2 Bft) S-SW 211 ° 0 min 39 W/m² 4,2 °C 2,1 °C 16,1 km/h (3 Bft)
24.03.2024 17:34 20,9 °C 6,1 °C 50 % 88 % 1000,8 hPa 0,0 l/m² 17,9 km/h (3 Bft) SW 217 ° 0 min 44 W/m² 4,3 °C -0,9 °C 22,5 km/h (4 Bft)
24.03.2024 17:35 20,9 °C 6,1 °C 50 % 87 % 1000,7 hPa 0,0 l/m² 15,9 km/h (3 Bft) S-SW 195 ° 0 min 42 W/m² 4,1 °C -0,0 °C 20,9 km/h (4 Bft)
24.03.2024 17:36 20,9 °C 6,1 °C 50 % 87 % 1000,7 hPa 0,0 l/m² 13,6 km/h (3 Bft) S-SW 207 ° 0 min 44 W/m² 4,1 °C 1,1 °C 22,5 km/h (4 Bft)
24.03.2024 17:37 20,9 °C 6,1 °C 50 % 87 % 1000,6 hPa 0,0 l/m² 13,0 km/h (3 Bft) SW 217 ° 0 min 49 W/m² 4,1 °C 1,5 °C 16,1 km/h (3 Bft)
24.03.2024 17:38 20,9 °C 6,1 °C 50 % 87 % 1000,7 hPa 0,0 l/m² 13,3 km/h (3 Bft) SW 215 ° 1 min 56 W/m² 4,1 °C 1,3 °C 16,1 km/h (3 Bft)
24.03.2024 17:39 20,9 °C 6,1 °C 50 % 87 % 1000,6 hPa 0,0 l/m² 17,5 km/h (3 Bft) SW 215 ° 0 min 51 W/m² 4,1 °C -0,7 °C 19,3 km/h (3 Bft)
24.03.2024 17:41 20,9 °C 6,1 °C 50 % 87 % 1000,5 hPa 0,0 l/m² 15,4 km/h (3 Bft) S-SW 194 ° 2 min 56 W/m² 4,1 °C 0,2 °C 22,5 km/h (4 Bft)
24.03.2024 17:43 20,9 °C 6,1 °C 50 % 87 % 1000,5 hPa 0,0 l/m² 15,4 km/h (3 Bft) SW 221 ° 2 min 53 W/m² 4,1 °C 0,2 °C 22,5 km/h (4 Bft)
24.03.2024 17:44 20,9 °C 6,1 °C 50 % 87 % 1000,6 hPa 0,0 l/m² 16,7 km/h (3 Bft) SW 217 ° 0 min 51 W/m² 4,1 °C -0,4 °C 22,5 km/h (4 Bft)
24.03.2024 17:45 20,9 °C 6,2 °C 50 % 87 % 1000,6 hPa 0,0 l/m² 12,8 km/h (3 Bft) S-SW 213 ° 0 min 49 W/m² 4,2 °C 1,7 °C 16,1 km/h (3 Bft)
24.03.2024 17:46 20,9 °C 6,2 °C 50 % 87 % 1000,6 hPa 0,0 l/m² 12,6 km/h (3 Bft) S-SW 209 ° 0 min 47 W/m² 4,2 °C 1,8 °C 16,1 km/h (3 Bft)
24.03.2024 17:47 20,9 °C 6,2 °C 50 % 87 % 1000,5 hPa 0,0 l/m² 13,3 km/h (3 Bft) S-SW 196 ° 0 min 46 W/m² 4,2 °C 1,4 °C 17,7 km/h (3 Bft)
24.03.2024 17:48 20,9 °C 6,2 °C 50 % 87 % 1000,6 hPa 0,0 l/m² 11,3 km/h (2 Bft) S-SW 202 ° 0 min 44 W/m² 4,2 °C 2,6 °C 14,5 km/h (3 Bft)
24.03.2024 17:49 20,9 °C 6,1 °C 50 % 87 % 1000,6 hPa 0,0 l/m² 11,3 km/h (2 Bft) SW 214 ° 0 min 42 W/m² 4,1 °C 2,4 °C 14,5 km/h (3 Bft)
24.03.2024 17:51 20,9 °C 6,1 °C 50 % 87 % 1000,6 hPa 0,0 l/m² 14,2 km/h (3 Bft) SW 223 ° 0 min 40 W/m² 4,1 °C 0,8 °C 19,3 km/h (3 Bft)
24.03.2024 17:53 20,9 °C 6,1 °C 50 % 87 % 1000,6 hPa 0,0 l/m² 13,8 km/h (3 Bft) S-SW 196 ° 0 min 35 W/m² 4,1 °C 1,0 °C 19,3 km/h (3 Bft)
24.03.2024 17:54 20,9 °C 6,1 °C 50 % 87 % 1000,6 hPa 0,0 l/m² 13,7 km/h (3 Bft) SW 223 ° 0 min 33 W/m² 4,1 °C 1,1 °C 16,1 km/h (3 Bft)
24.03.2024 17:55 20,9 °C 6,1 °C 50 % 87 % 1000,6 hPa 0,0 l/m² 9,4 km/h (2 Bft) SW 215 ° 0 min 32 W/m² 4,1 °C 3,7 °C 11,3 km/h (2 Bft)
24.03.2024 17:56 20,9 °C 6,1 °C 50 % 87 % 1000,6 hPa 0,0 l/m² 13,6 km/h (3 Bft) S-SW 212 ° 0 min 28 W/m² 4,1 °C 1,1 °C 16,1 km/h (3 Bft)
24.03.2024 17:57 20,9 °C 6,1 °C 50 % 87 % 1000,6 hPa 0,0 l/m² 13,9 km/h (3 Bft) S-SW 209 ° 0 min 26 W/m² 4,1 °C 1,0 °C 16,1 km/h (3 Bft)
24.03.2024 17:58 20,9 °C 6,0 °C 50 % 87 % 1000,6 hPa 0,0 l/m² 15,4 km/h (3 Bft) S-SW 204 ° 0 min 26 W/m² 4,0 °C 0,1 °C 19,3 km/h (3 Bft)
24.03.2024 17:59 20,9 °C 6,0 °C 50 % 87 % 1000,7 hPa 0,0 l/m² 13,0 km/h (3 Bft) SW 217 ° 0 min 26 W/m² 4,0 °C 1,3 °C 14,5 km/h (3 Bft)
24.03.2024 18:01 20,9 °C 6,0 °C 50 % 87 % 1000,6 hPa 0,0 l/m² 13,0 km/h (3 Bft) SW 221 ° 0 min 23 W/m² 4,0 °C 1,3 °C 22,5 km/h (4 Bft)
24.03.2024 18:03 20,9 °C 6,0 °C 50 % 87 % 1000,5 hPa 0,0 l/m² 14,4 km/h (3 Bft) S-SW 207 ° 0 min 21 W/m² 4,0 °C 0,6 °C 17,7 km/h (3 Bft)
24.03.2024 18:04 20,9 °C 5,9 °C 50 % 87 % 1000,5 hPa 0,0 l/m² 16,2 km/h (3 Bft) SW 226 ° 0 min 19 W/m² 3,9 °C -0,4 °C 20,9 km/h (4 Bft)
24.03.2024 18:05 20,9 °C 5,9 °C 50 % 87 % 1000,5 hPa 0,0 l/m² 14,6 km/h (3 Bft) S-SW 212 ° 0 min 18 W/m² 3,9 °C 0,4 °C 16,1 km/h (3 Bft)
24.03.2024 18:06 20,9 °C 5,9 °C 50 % 87 % 1000,5 hPa 0,0 l/m² 13,3 km/h (3 Bft) S-SW 197 ° 0 min 18 W/m² 3,9 °C 1,1 °C 16,1 km/h (3 Bft)
24.03.2024 18:07 20,9 °C 5,9 °C 50 % 87 % 1000,5 hPa 0,0 l/m² 14,3 km/h (3 Bft) S-SW 213 ° 0 min 14 W/m² 3,9 °C 0,5 °C 17,7 km/h (3 Bft)
24.03.2024 18:08 20,9 °C 5,9 °C 50 % 87 % 1000,5 hPa 0,0 l/m² 17,0 km/h (3 Bft) S-SW 209 ° 0 min 14 W/m² 3,9 °C -0,8 °C 20,9 km/h (4 Bft)
24.03.2024 18:09 20,9 °C 5,9 °C 50 % 87 % 1000,5 hPa 0,0 l/m² 16,3 km/h (3 Bft) S-SW 205 ° 0 min 12 W/m² 3,9 °C -0,5 °C 19,3 km/h (3 Bft)
24.03.2024 18:11 20,9 °C 5,9 °C 50 % 87 % 1000,5 hPa 0,0 l/m² 15,1 km/h (3 Bft) S-SW 205 ° 0 min 12 W/m² 3,9 °C 0,1 °C 20,9 km/h (4 Bft)
24.03.2024 18:13 20,9 °C 5,9 °C 50 % 87 % 1000,4 hPa 0,0 l/m² 13,1 km/h (3 Bft) S-SW 197 ° 0 min 9 W/m² 3,9 °C 1,2 °C 17,7 km/h (3 Bft)
24.03.2024 18:14 20,9 °C 5,9 °C 50 % 87 % 1000,5 hPa 0,0 l/m² 15,4 km/h (3 Bft) S-SW 210 ° 0 min 9 W/m² 3,9 °C -0,0 °C 17,7 km/h (3 Bft)
24.03.2024 18:15 20,9 °C 6,0 °C 50 % 87 % 1000,4 hPa 0,0 l/m² 14,5 km/h (3 Bft) S-SW 198 ° 0 min 7 W/m² 4,0 °C 0,5 °C 16,1 km/h (3 Bft)
24.03.2024 18:16 20,9 °C 6,0 °C 50 % 87 % 1000,5 hPa 0,0 l/m² 14,1 km/h (3 Bft) S-SW 209 ° 0 min 7 W/m² 4,0 °C 0,7 °C 16,1 km/h (3 Bft)
24.03.2024 18:17 20,9 °C 6,0 °C 50 % 87 % 1000,5 hPa 0,0 l/m² 13,0 km/h (3 Bft) S-SW 201 ° 0 min 7 W/m² 4,0 °C 1,3 °C 17,7 km/h (3 Bft)
24.03.2024 18:18 20,9 °C 6,0 °C 50 % 87 % 1000,4 hPa 0,0 l/m² 14,0 km/h (3 Bft) S-SW 213 ° 0 min 5 W/m² 4,0 °C 0,8 °C 17,7 km/h (3 Bft)
24.03.2024 18:19 20,9 °C 6,0 °C 50 % 87 % 1000,4 hPa 0,0 l/m² 13,0 km/h (3 Bft) S-SW 198 ° 0 min 5 W/m² 4,0 °C 1,3 °C 14,5 km/h (3 Bft)
24.03.2024 18:21 20,8 °C 6,0 °C 50 % 87 % 1000,4 hPa 0,0 l/m² 13,3 km/h (3 Bft) S-SW 213 ° 0 min 5 W/m² 4,0 °C 1,2 °C 17,7 km/h (3 Bft)
24.03.2024 18:23 20,9 °C 6,1 °C 50 % 87 % 1000,4 hPa 0,0 l/m² 11,5 km/h (2 Bft) S-SW 209 ° 0 min 0 W/m² 4,1 °C 2,3 °C 16,1 km/h (3 Bft)
24.03.2024 18:24 20,9 °C 6,0 °C 50 % 87 % 1000,4 hPa 0,0 l/m² 11,3 km/h (2 Bft) SW 215 ° 0 min 0 W/m² 4,0 °C 2,3 °C 12,9 km/h (3 Bft)
24.03.2024 18:25 20,8 °C 6,1 °C 50 % 87 % 1000,3 hPa 0,0 l/m² 13,5 km/h (3 Bft) S-SW 207 ° 0 min 0 W/m² 4,1 °C 1,2 °C 19,3 km/h (3 Bft)
24.03.2024 18:26 20,9 °C 6,1 °C 50 % 87 % 1000,4 hPa 0,0 l/m² 12,2 km/h (2 Bft) S-SW 199 ° 0 min 0 W/m² 4,1 °C 1,9 °C 19,3 km/h (3 Bft)
24.03.2024 18:27 20,9 °C 6,1 °C 50 % 87 % 1000,4 hPa 0,0 l/m² 11,6 km/h (2 Bft) SW 234 ° 0 min 0 W/m² 4,1 °C 2,3 °C 16,1 km/h (3 Bft)
24.03.2024 18:28 20,9 °C 6,0 °C 50 % 87 % 1000,3 hPa 0,0 l/m² 11,2 km/h (2 Bft) SW 217 ° 0 min 0 W/m² 4,0 °C 2,4 °C 14,5 km/h (3 Bft)
24.03.2024 18:29 20,8 °C 6,0 °C 50 % 87 % 1000,3 hPa 0,0 l/m² 14,6 km/h (3 Bft) SW 219 ° 0 min 0 W/m² 4,0 °C 0,5 °C 16,1 km/h (3 Bft)
24.03.2024 18:31 20,8 °C 6,1 °C 50 % 87 % 1000,3 hPa 0,0 l/m² 12,3 km/h (2 Bft) S 187 ° 0 min 0 W/m² 4,1 °C 1,8 °C 20,9 km/h (4 Bft)
24.03.2024 18:33 20,8 °C 6,0 °C 50 % 87 % 1000,3 hPa 0,0 l/m² 15,5 km/h (3 Bft) S-SW 196 ° 0 min 0 W/m² 4,0 °C 0,0 °C 25,7 km/h (4 Bft)
24.03.2024 18:34 20,9 °C 6,1 °C 50 % 87 % 1000,2 hPa 0,0 l/m² 14,7 km/h (3 Bft) S-SW 210 ° 0 min 0 W/m² 4,1 °C 0,6 °C 19,3 km/h (3 Bft)
24.03.2024 18:35 20,9 °C 6,1 °C 50 % 87 % 1000,3 hPa 0,0 l/m² 11,8 km/h (2 Bft) S-SW 199 ° 0 min 0 W/m² 4,1 °C 2,1 °C 16,1 km/h (3 Bft)
24.03.2024 18:36 20,8 °C 6,1 °C 50 % 87 % 1000,2 hPa 0,0 l/m² 16,6 km/h (3 Bft) SW 217 ° 0 min 0 W/m² 4,1 °C -0,3 °C 20,9 km/h (4 Bft)
24.03.2024 18:38 20,9 °C 6,1 °C 50 % 87 % 1000,4 hPa 0,0 l/m² 14,8 km/h (3 Bft) S-SW 209 ° 0 min 0 W/m² 4,1 °C 0,5 °C 20,9 km/h (4 Bft)
24.03.2024 18:39 20,9 °C 6,1 °C 50 % 87 % 1000,4 hPa 0,0 l/m² 11,1 km/h (2 Bft) S-SW 207 ° 0 min 0 W/m² 4,1 °C 2,6 °C 14,5 km/h (3 Bft)
24.03.2024 18:41 20,8 °C 6,1 °C 50 % 87 % 1000,3 hPa 0,0 l/m² 12,2 km/h (2 Bft) S-SW 202 ° 0 min 0 W/m² 4,1 °C 1,9 °C 16,1 km/h (3 Bft)
24.03.2024 18:43 20,8 °C 6,1 °C 50 % 87 % 1000,3 hPa 0,0 l/m² 17,0 km/h (3 Bft) S-SW 212 ° 0 min 0 W/m² 4,1 °C -0,5 °C 20,9 km/h (4 Bft)
24.03.2024 18:44 20,8 °C 6,1 °C 50 % 87 % 1000,3 hPa 0,0 l/m² 16,8 km/h (3 Bft) S-SW 208 ° 0 min 0 W/m² 4,1 °C -0,4 °C 20,9 km/h (4 Bft)
24.03.2024 18:46 20,8 °C 6,1 °C 50 % 87 % 1000,3 hPa 0,0 l/m² 14,9 km/h (3 Bft) SW 225 ° 0 min 0 W/m² 4,1 °C 0,5 °C 20,9 km/h (4 Bft)
24.03.2024 18:47 20,8 °C 6,1 °C 50 % 87 % 1000,4 hPa 0,0 l/m² 16,3 km/h (3 Bft) S-SW 202 ° 0 min 0 W/m² 4,1 °C -0,2 °C 27,4 km/h (5 Bft)
24.03.2024 18:48 20,8 °C 6,1 °C 50 % 87 % 1000,4 hPa 0,0 l/m² 17,7 km/h (3 Bft) SW 216 ° 0 min 0 W/m² 4,1 °C -0,8 °C 20,9 km/h (4 Bft)
24.03.2024 18:49 20,8 °C 6,1 °C 50 % 87 % 1000,3 hPa 0,0 l/m² 12,5 km/h (2 Bft) S-SW 198 ° 0 min 0 W/m² 4,1 °C 1,7 °C 17,7 km/h (3 Bft)
24.03.2024 18:50 20,8 °C 6,1 °C 50 % 87 % 1000,3 hPa 0,0 l/m² 13,1 km/h (3 Bft) S-SW 205 ° 0 min 0 W/m² 4,1 °C 1,4 °C 16,1 km/h (3 Bft)
24.03.2024 18:52 20,8 °C 6,1 °C 50 % 87 % 1000,3 hPa 0,0 l/m² 12,8 km/h (3 Bft) SW 219 ° 0 min 0 W/m² 4,1 °C 1,6 °C 19,3 km/h (3 Bft)
24.03.2024 18:54 20,8 °C 6,1 °C 50 % 87 % 1000,3 hPa 0,0 l/m² 11,5 km/h (2 Bft) SW 214 ° 0 min 0 W/m² 4,1 °C 2,3 °C 16,1 km/h (3 Bft)
24.03.2024 18:55 20,8 °C 6,0 °C 50 % 87 % 1000,3 hPa 0,0 l/m² 12,8 km/h (3 Bft) S-SW 198 ° 0 min 0 W/m² 4,0 °C 1,4 °C 19,3 km/h (3 Bft)
24.03.2024 18:56 20,8 °C 5,9 °C 50 % 87 % 1000,3 hPa 0,0 l/m² 14,5 km/h (3 Bft) S-SW 200 ° 0 min 0 W/m² 3,9 °C 0,4 °C 17,7 km/h (3 Bft)
24.03.2024 18:57 20,8 °C 5,9 °C 50 % 87 % 1000,2 hPa 0,0 l/m² 16,4 km/h (3 Bft) S 180 ° 0 min 0 W/m² 3,9 °C -0,5 °C 22,5 km/h (4 Bft)
24.03.2024 18:58 20,8 °C 5,9 °C 50 % 87 % 1000,1 hPa 0,0 l/m² 16,0 km/h (3 Bft) S-SW 211 ° 0 min 0 W/m² 3,9 °C -0,3 °C 19,3 km/h (3 Bft)
24.03.2024 18:59 20,8 °C 5,9 °C 50 % 87 % 1000,2 hPa 0,0 l/m² 17,5 km/h (3 Bft) S-SW 192 ° 0 min 0 W/m² 3,9 °C -1,0 °C 22,5 km/h (4 Bft)
24.03.2024 19:01 20,8 °C 5,9 °C 50 % 87 % 1000,1 hPa 0,0 l/m² 18,5 km/h (3 Bft) S-SW 203 ° 0 min 0 W/m² 3,9 °C -1,4 °C 22,5 km/h (4 Bft)
24.03.2024 19:03 20,8 °C 5,9 °C 50 % 87 % 1000,2 hPa 0,0 l/m² 22,6 km/h (4 Bft) S-SW 204 ° 0 min 0 W/m² 3,9 °C -2,9 °C 32,2 km/h (5 Bft)
24.03.2024 19:04 20,8 °C 6,0 °C 50 % 87 % 1000,2 hPa 0,0 l/m² 16,3 km/h (3 Bft) S-SW 205 ° 0 min 0 W/m² 4,0 °C -0,3 °C 25,7 km/h (4 Bft)
24.03.2024 19:05 20,8 °C 6,0 °C 50 % 86 % 1000,2 hPa 0,0 l/m² 21,3 km/h (4 Bft) S 185 ° 0 min 0 W/m² 3,8 °C -2,4 °C 24,1 km/h (4 Bft)
24.03.2024 19:06 20,8 °C 6,1 °C 50 % 86 % 1000,2 hPa 0,0 l/m² 19,5 km/h (3 Bft) S-SW 205 ° 0 min 0 W/m² 3,9 °C -1,6 °C 22,5 km/h (4 Bft)
24.03.2024 19:07 20,8 °C 6,1 °C 50 % 86 % 1000,1 hPa 0,0 l/m² 18,0 km/h (3 Bft) SW 215 ° 0 min 0 W/m² 3,9 °C -1,0 °C 24,1 km/h (4 Bft)
24.03.2024 19:08 20,8 °C 6,1 °C 50 % 86 % 1000,2 hPa 0,0 l/m² 17,1 km/h (3 Bft) SW 217 ° 0 min 0 W/m² 3,9 °C -0,6 °C 20,9 km/h (4 Bft)
24.03.2024 19:09 20,8 °C 6,2 °C 50 % 86 % 1000,1 hPa 0,0 l/m² 15,9 km/h (3 Bft) S-SW 205 ° 0 min 0 W/m² 4,0 °C 0,1 °C 19,3 km/h (3 Bft)
24.03.2024 19:10 20,8 °C 6,1 °C 50 % 86 % 1000,1 hPa 0,0 l/m² 14,2 km/h (3 Bft) S-SW 209 ° 0 min 0 W/m² 3,9 °C 0,8 °C 16,1 km/h (3 Bft)
24.03.2024 19:12 20,8 °C 6,2 °C 50 % 86 % 1000,2 hPa 0,0 l/m² 19,4 km/h (3 Bft) S-SW 209 ° 0 min 0 W/m² 4,0 °C -1,4 °C 27,4 km/h (5 Bft)
24.03.2024 19:13 20,8 °C 6,2 °C 50 % 86 % 1000,1 hPa 0,0 l/m² 22,4 km/h (4 Bft) S-SW 208 ° 0 min 0 W/m² 4,0 °C -2,5 °C 25,7 km/h (4 Bft)
24.03.2024 19:14 20,8 °C 6,2 °C 50 % 86 % 1000,2 hPa 0,0 l/m² 20,2 km/h (4 Bft) S 189 ° 0 min 0 W/m² 4,0 °C -1,7 °C 25,7 km/h (4 Bft)
24.03.2024 19:15 20,8 °C 6,2 °C 50 % 86 % 1000,1 hPa 0,0 l/m² 15,3 km/h (3 Bft) SW 219 ° 0 min 0 W/m² 4,0 °C 0,4 °C 19,3 km/h (3 Bft)
24.03.2024 19:16 20,8 °C 6,3 °C 50 % 86 % 1000,2 hPa 0,0 l/m² 19,4 km/h (3 Bft) S-SW 202 ° 0 min 0 W/m² 4,1 °C -1,3 °C 25,7 km/h (4 Bft)
24.03.2024 19:17 20,8 °C 6,3 °C 50 % 86 % 1000,2 hPa 0,0 l/m² 15,7 km/h (3 Bft) S-SW 209 ° 0 min 0 W/m² 4,1 °C 0,3 °C 19,3 km/h (3 Bft)
24.03.2024 19:18 20,8 °C 6,3 °C 50 % 86 % 1000,2 hPa 0,0 l/m² 18,8 km/h (3 Bft) SW 219 ° 0 min 0 W/m² 4,1 °C -1,0 °C 24,1 km/h (4 Bft)
24.03.2024 19:20 20,8 °C 6,3 °C 50 % 85 % 1000,2 hPa 0,0 l/m² 15,7 km/h (3 Bft) S-SW 212 ° 0 min 0 W/m² 4,0 °C 0,3 °C 22,5 km/h (4 Bft)
24.03.2024 19:21 20,8 °C 6,3 °C 50 % 85 % 1000,2 hPa 0,0 l/m² 18,3 km/h (3 Bft) SW 214 ° 0 min 0 W/m² 4,0 °C -0,8 °C 25,7 km/h (4 Bft)
24.03.2024 19:22 20,8 °C 6,3 °C 50 % 85 % 1000,2 hPa 0,0 l/m² 16,6 km/h (3 Bft) SW 234 ° 0 min 0 W/m² 4,0 °C -0,1 °C 20,9 km/h (4 Bft)
24.03.2024 19:23 20,8 °C 6,3 °C 50 % 85 % 1000,2 hPa 0,0 l/m² 15,5 km/h (3 Bft) S-SW 213 ° 0 min 0 W/m² 4,0 °C 0,4 °C 22,5 km/h (4 Bft)
24.03.2024 19:24 20,8 °C 6,3 °C 50 % 85 % 1000,2 hPa 0,0 l/m² 15,4 km/h (3 Bft) S-SW 213 ° 0 min 0 W/m² 4,0 °C 0,5 °C 20,9 km/h (4 Bft)
24.03.2024 19:25 20,8 °C 6,3 °C 50 % 85 % 1000,2 hPa 0,0 l/m² 17,0 km/h (3 Bft) S-SW 202 ° 0 min 0 W/m² 4,0 °C -0,3 °C 20,9 km/h (4 Bft)
24.03.2024 19:26 20,8 °C 6,4 °C 50 % 85 % 1000,3 hPa 0,0 l/m² 11,9 km/h (2 Bft) S-SW 201 ° 0 min 0 W/m² 4,1 °C 2,4 °C 19,3 km/h (3 Bft)
24.03.2024 19:27 20,8 °C 6,3 °C 50 % 85 % 1000,2 hPa 0,0 l/m² 13,0 km/h (3 Bft) SW 223 ° 0 min 0 W/m² 4,0 °C 1,7 °C 16,1 km/h (3 Bft)
24.03.2024 19:28 20,8 °C 6,4 °C 50 % 85 % 1000,2 hPa 0,0 l/m² 14,9 km/h (3 Bft) SW 225 ° 0 min 0 W/m² 4,1 °C 0,8 °C 17,7 km/h (3 Bft)
24.03.2024 19:29 20,8 °C 6,3 °C 50 % 85 % 1000,2 hPa 0,0 l/m² 14,7 km/h (3 Bft) S-SW 213 ° 0 min 0 W/m² 4,0 °C 0,8 °C 20,9 km/h (4 Bft)
24.03.2024 19:31 20,8 °C 6,3 °C 50 % 85 % 1000,3 hPa 0,0 l/m² 16,9 km/h (3 Bft) S-SW 197 ° 0 min 0 W/m² 4,0 °C -0,2 °C 24,1 km/h (4 Bft)
24.03.2024 19:33 20,8 °C 6,3 °C 50 % 86 % 1000,3 hPa 0,0 l/m² 12,3 km/h (2 Bft) SW 222 ° 0 min 0 W/m² 4,1 °C 2,1 °C 17,7 km/h (3 Bft)
24.03.2024 19:34 20,8 °C 6,4 °C 50 % 86 % 1000,2 hPa 0,0 l/m² 17,0 km/h (3 Bft) SW 219 ° 0 min 0 W/m² 4,2 °C -0,1 °C 24,1 km/h (4 Bft)
24.03.2024 19:35 20,8 °C 6,4 °C 50 % 86 % 1000,3 hPa 0,0 l/m² 12,4 km/h (2 Bft) S-SW 213 ° 0 min 0 W/m² 4,2 °C 2,1 °C 20,9 km/h (4 Bft)
24.03.2024 19:36 20,8 °C 6,4 °C 50 % 86 % 1000,3 hPa 0,0 l/m² 17,0 km/h (3 Bft) SW 223 ° 0 min 0 W/m² 4,2 °C -0,1 °C 29,0 km/h (5 Bft)
24.03.2024 19:37 20,8 °C 6,3 °C 50 % 86 % 1000,3 hPa 0,0 l/m² 14,3 km/h (3 Bft) SW 215 ° 0 min 0 W/m² 4,1 °C 1,0 °C 17,7 km/h (3 Bft)
24.03.2024 19:38 20,8 °C 6,4 °C 50 % 86 % 1000,2 hPa 0,0 l/m² 13,7 km/h (3 Bft) SW 218 ° 0 min 0 W/m² 4,2 °C 1,4 °C 27,4 km/h (5 Bft)
24.03.2024 19:39 20,8 °C 6,3 °C 50 % 86 % 1000,3 hPa 0,0 l/m² 18,1 km/h (3 Bft) S-SW 205 ° 0 min 0 W/m² 4,1 °C -0,7 °C 22,5 km/h (4 Bft)
24.03.2024 19:41 20,8 °C 6,3 °C 50 % 86 % 1000,2 hPa 0,0 l/m² 17,2 km/h (3 Bft) S-SW 196 ° 0 min 0 W/m² 4,1 °C -0,4 °C 24,1 km/h (4 Bft)
24.03.2024 19:43 20,8 °C 6,3 °C 50 % 86 % 1000,3 hPa 0,0 l/m² 14,0 km/h (3 Bft) SW 222 ° 0 min 0 W/m² 4,1 °C 1,2 °C 20,9 km/h (4 Bft)
24.03.2024 19:44 20,8 °C 6,3 °C 50 % 86 % 1000,2 hPa 0,0 l/m² 12,7 km/h (3 Bft) SW 231 ° 0 min 0 W/m² 4,1 °C 1,9 °C 17,7 km/h (3 Bft)
24.03.2024 19:45 20,8 °C 6,3 °C 50 % 86 % 1000,3 hPa 0,0 l/m² 13,5 km/h (3 Bft) S-SW 206 ° 0 min 0 W/m² 4,1 °C 1,4 °C 17,7 km/h (3 Bft)
24.03.2024 19:46 20,8 °C 6,3 °C 50 % 86 % 1000,2 hPa 0,0 l/m² 19,3 km/h (3 Bft) SW 215 ° 0 min 0 W/m² 4,1 °C -1,2 °C 25,7 km/h (4 Bft)
24.03.2024 19:47 20,8 °C 6,3 °C 50 % 86 % 1000,3 hPa 0,0 l/m² 18,9 km/h (3 Bft) W-SW 252 ° 0 min 0 W/m² 4,1 °C -1,1 °C 25,7 km/h (4 Bft)
24.03.2024 19:48 20,8 °C 6,3 °C 50 % 86 % 1000,2 hPa 0,0 l/m² 22,5 km/h (4 Bft) S-SW 212 ° 0 min 0 W/m² 4,1 °C -2,4 °C 30,6 km/h (5 Bft)
24.03.2024 19:49 20,8 °C 6,3 °C 50 % 86 % 1000,3 hPa 0,0 l/m² 20,8 km/h (4 Bft) SW 221 ° 0 min 0 W/m² 4,1 °C -1,8 °C 25,7 km/h (4 Bft)
24.03.2024 19:50 20,8 °C 6,3 °C 50 % 86 % 1000,2 hPa 0,0 l/m² 18,2 km/h (3 Bft) SW 220 ° 0 min 0 W/m² 4,1 °C -0,8 °C 22,5 km/h (4 Bft)
24.03.2024 19:52 20,8 °C 6,3 °C 50 % 86 % 1000,2 hPa 0,0 l/m² 16,2 km/h (3 Bft) SW 221 ° 0 min 0 W/m² 4,1 °C 0,1 °C 20,9 km/h (4 Bft)
24.03.2024 19:53 20,8 °C 6,3 °C 50 % 86 % 1000,2 hPa 0,0 l/m² 17,2 km/h (3 Bft) S-SW 205 ° 0 min 0 W/m² 4,1 °C -0,4 °C 24,1 km/h (4 Bft)
24.03.2024 19:54 20,8 °C 6,3 °C 50 % 87 % 1000,2 hPa 0,0 l/m² 18,9 km/h (3 Bft) W-SW 252 ° 0 min 0 W/m² 4,3 °C -1,1 °C 24,1 km/h (4 Bft)
24.03.2024 19:55 20,8 °C 6,2 °C 50 % 86 % 1000,3 hPa 0,0 l/m² 20,8 km/h (4 Bft) SW 227 ° 0 min 0 W/m² 4,0 °C -1,9 °C 25,7 km/h (4 Bft)
24.03.2024 19:56 20,8 °C 6,3 °C 50 % 87 % 1000,2 hPa 0,0 l/m² 20,4 km/h (4 Bft) SW 217 ° 0 min 0 W/m² 4,3 °C -1,6 °C 27,4 km/h (5 Bft)
24.03.2024 19:57 20,8 °C 6,2 °C 50 % 87 % 1000,2 hPa 0,0 l/m² 22,8 km/h (4 Bft) SW 217 ° 0 min 0 W/m² 4,2 °C -2,6 °C 27,4 km/h (5 Bft)
24.03.2024 19:58 20,8 °C 6,2 °C 50 % 87 % 1000,1 hPa 0,0 l/m² 19,8 km/h (3 Bft) SW 219 ° 0 min 0 W/m² 4,2 °C -1,5 °C 24,1 km/h (4 Bft)
24.03.2024 19:59 20,8 °C 6,2 °C 50 % 87 % 1000,2 hPa 0,0 l/m² 20,9 km/h (4 Bft) SW 223 ° 0 min 0 W/m² 4,2 °C -2,0 °C 25,7 km/h (4 Bft)
24.03.2024 20:01 20,8 °C 6,2 °C 50 % 87 % 1000,2 hPa 0,0 l/m² 16,6 km/h (3 Bft) SW 221 ° 0 min 0 W/m² 4,2 °C -0,2 °C 19,3 km/h (3 Bft)
24.03.2024 20:03 20,8 °C 6,2 °C 50 % 87 % 1000,2 hPa 0,0 l/m² 17,0 km/h (3 Bft) SW 214 ° 0 min 0 W/m² 4,2 °C -0,4 °C 24,1 km/h (4 Bft)
24.03.2024 20:04 20,8 °C 6,2 °C 50 % 87 % 1000,2 hPa 0,0 l/m² 15,0 km/h (3 Bft) SW 225 ° 0 min 0 W/m² 4,2 °C 0,5 °C 17,7 km/h (3 Bft)
24.03.2024 20:05 20,8 °C 6,2 °C 50 % 87 % 1000,2 hPa 0,0 l/m² 15,8 km/h (3 Bft) SW 221 ° 0 min 0 W/m² 4,2 °C 0,1 °C 22,5 km/h (4 Bft)
24.03.2024 20:06 20,8 °C 6,2 °C 50 % 87 % 1000,2 hPa 0,0 l/m² 17,6 km/h (3 Bft) S-SW 205 ° 0 min 0 W/m² 4,2 °C -0,7 °C 20,9 km/h (4 Bft)
24.03.2024 20:07 20,8 °C 6,1 °C 50 % 87 % 1000,1 hPa 0,0 l/m² 22,6 km/h (4 Bft) SW 222 ° 0 min 0 W/m² 4,1 °C -2,7 °C 29,0 km/h (5 Bft)
24.03.2024 20:08 20,8 °C 6,2 °C 50 % 87 % 1000,2 hPa 0,0 l/m² 20,1 km/h (4 Bft) SW 223 ° 0 min 0 W/m² 4,2 °C -1,7 °C 24,1 km/h (4 Bft)
24.03.2024 20:09 20,8 °C 6,2 °C 50 % 87 % 1000,2 hPa 0,0 l/m² 18,5 km/h (3 Bft) SW 218 ° 0 min 0 W/m² 4,2 °C -1,0 °C 24,1 km/h (4 Bft)
24.03.2024 20:10 20,8 °C 6,1 °C 50 % 87 % 1000,3 hPa 0,0 l/m² 17,2 km/h (3 Bft) SW 224 ° 0 min 0 W/m² 4,1 °C -0,6 °C 29,0 km/h (5 Bft)
24.03.2024 20:12 20,8 °C 6,1 °C 50 % 87 % 1000,2 hPa 0,0 l/m² 21,5 km/h (4 Bft) S-SW 209 ° 0 min 0 W/m² 4,1 °C -2,3 °C 30,6 km/h (5 Bft)
24.03.2024 20:13 20,8 °C 6,1 °C 50 % 87 % 1000,2 hPa 0,0 l/m² 18,6 km/h (3 Bft) S-SW 207 ° 0 min 0 W/m² 4,1 °C -1,2 °C 27,4 km/h (5 Bft)
24.03.2024 20:14 20,8 °C 6,1 °C 50 % 88 % 1000,2 hPa 0,0 l/m² 15,4 km/h (3 Bft) SW 225 ° 0 min 0 W/m² 4,3 °C 0,2 °C 19,3 km/h (3 Bft)
24.03.2024 20:15 20,8 °C 6,1 °C 50 % 88 % 1000,2 hPa 0,0 l/m² 16,8 km/h (3 Bft) SW 227 ° 0 min 0 W/m² 4,3 °C -0,4 °C 20,9 km/h (4 Bft)
24.03.2024 20:16 20,8 °C 6,1 °C 50 % 88 % 1000,2 hPa 0,0 l/m² 19,1 km/h (3 Bft) SW 232 ° 0 min 0 W/m² 4,3 °C -1,4 °C 27,4 km/h (5 Bft)
24.03.2024 20:17 20,8 °C 6,1 °C 50 % 88 % 1000,2 hPa 0,0 l/m² 18,6 km/h (3 Bft) SW 236 ° 0 min 0 W/m² 4,3 °C -1,2 °C 22,5 km/h (4 Bft)
24.03.2024 20:18 20,8 °C 6,1 °C 50 % 88 % 1000,2 hPa 0,0 l/m² 19,6 km/h (3 Bft) SW 232 ° 0 min 0 W/m² 4,3 °C -1,6 °C 24,1 km/h (4 Bft)
24.03.2024 20:19 20,8 °C 6,1 °C 50 % 88 % 1000,2 hPa 0,0 l/m² 17,2 km/h (3 Bft) SW 235 ° 0 min 0 W/m² 4,3 °C -0,6 °C 20,9 km/h (4 Bft)
24.03.2024 20:21 20,8 °C 6,1 °C 50 % 88 % 1000,3 hPa 0,0 l/m² 21,4 km/h (4 Bft) SW 233 ° 0 min 0 W/m² 4,3 °C -2,3 °C 35,4 km/h (5 Bft)
24.03.2024 20:23 20,8 °C 6,1 °C 50 % 88 % 1000,2 hPa 0,0 l/m² 24,3 km/h (4 Bft) SW 219 ° 0 min 0 W/m² 4,3 °C -3,2 °C 37,0 km/h (5 Bft)
24.03.2024 20:24 20,8 °C 6,1 °C 50 % 88 % 1000,2 hPa 0,0 l/m² 18,7 km/h (3 Bft) SW 236 ° 0 min 0 W/m² 4,3 °C -1,2 °C 25,7 km/h (4 Bft)
24.03.2024 20:25 20,8 °C 6,1 °C 50 % 88 % 1000,3 hPa 0,0 l/m² 17,5 km/h (3 Bft) SW 220 ° 0 min 0 W/m² 4,3 °C -0,7 °C 22,5 km/h (4 Bft)
24.03.2024 20:26 20,8 °C 6,1 °C 50 % 88 % 1000,2 hPa 0,0 l/m² 23,3 km/h (4 Bft) SW 223 ° 0 min 0 W/m² 4,3 °C -2,9 °C 25,7 km/h (4 Bft)
24.03.2024 20:27 20,8 °C 6,1 °C 50 % 88 % 1000,2 hPa 0,0 l/m² 17,3 km/h (3 Bft) SW 218 ° 0 min 0 W/m² 4,3 °C -0,7 °C 24,1 km/h (4 Bft)
24.03.2024 20:28 20,8 °C 6,1 °C 50 % 88 % 1000,1 hPa 0,0 l/m² 24,6 km/h (4 Bft) SW 224 ° 0 min 0 W/m² 4,3 °C -3,3 °C 30,6 km/h (5 Bft)
24.03.2024 20:29 20,8 °C 6,1 °C 50 % 88 % 1000,1 hPa 0,0 l/m² 17,7 km/h (3 Bft) W-SW 240 ° 0 min 0 W/m² 4,3 °C -0,8 °C 22,5 km/h (4 Bft)
24.03.2024 20:31 20,8 °C 6,1 °C 50 % 88 % 1000,2 hPa 0,2 l/m² 16,5 km/h (3 Bft) SW 216 ° 0 min 0 W/m² 4,3 °C -0,3 °C 24,1 km/h (4 Bft)
24.03.2024 20:33 20,8 °C 6,1 °C 50 % 88 % 1000,2 hPa 0,0 l/m² 16,0 km/h (3 Bft) W-SW 238 ° 0 min 0 W/m² 4,3 °C -0,1 °C 24,1 km/h (4 Bft)
24.03.2024 20:34 20,9 °C 6,1 °C 50 % 88 % 1000,2 hPa 0,0 l/m² 16,2 km/h (3 Bft) SW 223 ° 0 min 0 W/m² 4,3 °C -0,2 °C 19,3 km/h (3 Bft)
24.03.2024 20:35 20,9 °C 6,1 °C 50 % 88 % 1000,2 hPa 0,0 l/m² 17,0 km/h (3 Bft) S-SW 212 ° 0 min 0 W/m² 4,3 °C -0,5 °C 22,5 km/h (4 Bft)
24.03.2024 20:36 20,9 °C 6,1 °C 50 % 88 % 1000,2 hPa 0,0 l/m² 16,3 km/h (3 Bft) SW 222 ° 0 min 0 W/m² 4,3 °C -0,2 °C 20,9 km/h (4 Bft)
24.03.2024 20:37 20,8 °C 6,1 °C 50 % 88 % 1000,1 hPa 0,0 l/m² 17,5 km/h (3 Bft) SW 219 ° 0 min 0 W/m² 4,3 °C -0,7 °C 24,1 km/h (4 Bft)
24.03.2024 20:38 20,8 °C 6,1 °C 50 % 88 % 1000,1 hPa 0,0 l/m² 13,7 km/h (3 Bft) SW 223 ° 0 min 0 W/m² 4,3 °C 1,1 °C 24,1 km/h (4 Bft)
24.03.2024 20:39 20,9 °C 6,0 °C 50 % 88 % 1000,2 hPa 0,0 l/m² 14,7 km/h (3 Bft) SW 221 ° 0 min 0 W/m² 4,2 °C 0,4 °C 20,9 km/h (4 Bft)
24.03.2024 20:41 20,8 °C 6,0 °C 50 % 88 % 1000,1 hPa 0,0 l/m² 18,6 km/h (3 Bft) S-SW 205 ° 0 min 0 W/m² 4,2 °C -1,3 °C 25,7 km/h (4 Bft)
24.03.2024 20:43 20,9 °C 6,0 °C 50 % 88 % 1000,1 hPa 0,0 l/m² 17,2 km/h (3 Bft) SW 217 ° 0 min 0 W/m² 4,2 °C -0,7 °C 24,1 km/h (4 Bft)
24.03.2024 20:44 20,9 °C 5,9 °C 50 % 88 % 1000,2 hPa 0,0 l/m² 17,5 km/h (3 Bft) SW 225 ° 0 min 0 W/m² 4,1 °C -1,0 °C 22,5 km/h (4 Bft)
24.03.2024 20:45 20,9 °C 5,9 °C 50 % 88 % 1000,1 hPa 0,0 l/m² 17,4 km/h (3 Bft) SW 223 ° 0 min 0 W/m² 4,1 °C -0,9 °C 20,9 km/h (4 Bft)
24.03.2024 20:46 20,9 °C 5,9 °C 50 % 88 % 1000,1 hPa 0,0 l/m² 20,9 km/h (4 Bft) SW 225 ° 0 min 0 W/m² 4,1 °C -2,3 °C 29,0 km/h (5 Bft)
24.03.2024 20:47 20,9 °C 5,9 °C 50 % 88 % 1000,2 hPa 0,0 l/m² 19,7 km/h (3 Bft) W-SW 241 ° 0 min 0 W/m² 4,1 °C -1,9 °C 29,0 km/h (5 Bft)
24.03.2024 20:48 20,9 °C 5,9 °C 50 % 88 % 1000,2 hPa 0,0 l/m² 21,6 km/h (4 Bft) SW 234 ° 0 min 0 W/m² 4,1 °C -2,6 °C 29,0 km/h (5 Bft)
24.03.2024 20:49 20,9 °C 5,9 °C 50 % 88 % 1000,2 hPa 0,0 l/m² 22,3 km/h (4 Bft) SW 236 ° 0 min 0 W/m² 4,1 °C -2,8 °C 33,8 km/h (5 Bft)
24.03.2024 20:50 20,9 °C 5,9 °C 50 % 88 % 1000,2 hPa 0,0 l/m² 21,4 km/h (4 Bft) S-SW 212 ° 0 min 0 W/m² 4,1 °C -2,5 °C 30,6 km/h (5 Bft)
24.03.2024 20:52 20,9 °C 5,9 °C 50 % 88 % 1000,2 hPa 0,0 l/m² 22,0 km/h (4 Bft) SW 233 ° 0 min 0 W/m² 4,1 °C -2,7 °C 29,0 km/h (5 Bft)
24.03.2024 20:53 20,9 °C 5,9 °C 50 % 88 % 1000,2 hPa 0,0 l/m² 23,9 km/h (4 Bft) SW 231 ° 0 min 0 W/m² 4,1 °C -3,4 °C 37,0 km/h (5 Bft)
24.03.2024 20:54 20,9 °C 5,9 °C 50 % 88 % 1000,3 hPa 0,0 l/m² 19,9 km/h (4 Bft) SW 231 ° 0 min 0 W/m² 4,1 °C -2,0 °C 29,0 km/h (5 Bft)
24.03.2024 20:55 20,9 °C 5,9 °C 50 % 88 % 1000,2 hPa 0,0 l/m² 20,5 km/h (4 Bft) W-SW 246 ° 0 min 0 W/m² 4,1 °C -2,2 °C 29,0 km/h (5 Bft)
24.03.2024 20:56 20,9 °C 5,9 °C 50 % 88 % 1000,2 hPa 0,0 l/m² 20,7 km/h (4 Bft) SW 233 ° 0 min 0 W/m² 4,1 °C -2,3 °C 25,7 km/h (4 Bft)
24.03.2024 20:57 20,9 °C 5,9 °C 50 % 88 % 1000,2 hPa 0,0 l/m² 19,8 km/h (3 Bft) W-SW 257 ° 0 min 0 W/m² 4,1 °C -1,9 °C 27,4 km/h (5 Bft)
24.03.2024 20:58 20,9 °C 5,9 °C 50 % 88 % 1000,2 hPa 0,0 l/m² 17,1 km/h (3 Bft) SW 214 ° 0 min 0 W/m² 4,1 °C -0,8 °C 22,5 km/h (4 Bft)
24.03.2024 20:59 20,9 °C 5,9 °C 50 % 88 % 1000,2 hPa 0,0 l/m² 23,7 km/h (4 Bft) SW 222 ° 0 min 0 W/m² 4,1 °C -3,3 °C 35,4 km/h (5 Bft)
24.03.2024 21:01 20,9 °C 5,9 °C 50 % 88 % 1000,3 hPa 0,0 l/m² 25,4 km/h (4 Bft) SW 222 ° 0 min 0 W/m² 4,1 °C -3,8 °C 33,8 km/h (5 Bft)
24.03.2024 21:03 20,9 °C 5,8 °C 50 % 88 % 1000,2 hPa 0,0 l/m² 21,0 km/h (4 Bft) W-SW 243 ° 0 min 0 W/m² 4,0 °C -2,5 °C 30,6 km/h (5 Bft)
24.03.2024 21:04 20,9 °C 5,9 °C 50 % 88 % 1000,2 hPa 0,0 l/m² 20,9 km/h (4 Bft) SW 216 ° 0 min 0 W/m² 4,1 °C -2,3 °C 25,7 km/h (4 Bft)
24.03.2024 21:05 20,9 °C 5,9 °C 50 % 88 % 1000,2 hPa 0,0 l/m² 19,1 km/h (3 Bft) W-SW 253 ° 0 min 0 W/m² 4,1 °C -1,7 °C 27,4 km/h (5 Bft)
24.03.2024 21:06 20,9 °C 5,9 °C 50 % 88 % 1000,1 hPa 0,0 l/m² 22,9 km/h (4 Bft) SW 234 ° 0 min 0 W/m² 4,1 °C -3,0 °C 32,2 km/h (5 Bft)
24.03.2024 21:07 20,9 °C 5,9 °C 50 % 88 % 1000,2 hPa 0,0 l/m² 25,8 km/h (4 Bft) SW 224 ° 0 min 0 W/m² 4,1 °C -4,0 °C 32,2 km/h (5 Bft)
24.03.2024 21:08 20,9 °C 5,9 °C 50 % 88 % 1000,2 hPa 0,0 l/m² 22,3 km/h (4 Bft) SW 219 ° 0 min 0 W/m² 4,1 °C -2,8 °C 29,0 km/h (5 Bft)
24.03.2024 21:09 20,9 °C 5,9 °C 50 % 87 % 1000,2 hPa 0,0 l/m² 22,0 km/h (4 Bft) SW 223 ° 0 min 0 W/m² 3,9 °C -2,7 °C 33,8 km/h (5 Bft)
24.03.2024 21:11 20,9 °C 5,8 °C 50 % 87 % 1000,2 hPa 0,0 l/m² 22,2 km/h (4 Bft) SW 233 ° 0 min 0 W/m² 3,8 °C -2,9 °C 32,2 km/h (5 Bft)
24.03.2024 21:13 20,9 °C 5,8 °C 50 % 87 % 1000,2 hPa 0,0 l/m² 19,7 km/h (3 Bft) SW 226 ° 0 min 0 W/m² 3,8 °C -2,0 °C 29,0 km/h (5 Bft)
24.03.2024 21:14 20,9 °C 5,8 °C 50 % 87 % 1000,2 hPa 0,0 l/m² 27,1 km/h (5 Bft) W-SW 252 ° 0 min 0 W/m² 3,8 °C -4,5 °C 40,2 km/h (6 Bft)
24.03.2024 21:15 20,9 °C 5,8 °C 50 % 87 % 1000,2 hPa 0,0 l/m² 25,2 km/h (4 Bft) SW 229 ° 0 min 0 W/m² 3,8 °C -3,9 °C 32,2 km/h (5 Bft)
24.03.2024 21:16 20,9 °C 5,8 °C 50 % 87 % 1000,2 hPa 0,0 l/m² 22,5 km/h (4 Bft) SW 233 ° 0 min 0 W/m² 3,8 °C -3,0 °C 32,2 km/h (5 Bft)
24.03.2024 21:17 20,9 °C 5,8 °C 50 % 87 % 1000,2 hPa 0,0 l/m² 25,9 km/h (4 Bft) W-SW 244 ° 0 min 0 W/m² 3,8 °C -4,1 °C 37,0 km/h (5 Bft)
24.03.2024 21:18 20,9 °C 5,8 °C 50 % 87 % 1000,3 hPa 0,0 l/m² 17,0 km/h (3 Bft) SW 236 ° 0 min 0 W/m² 3,8 °C -0,9 °C 22,5 km/h (4 Bft)
24.03.2024 21:19 20,9 °C 5,8 °C 50 % 87 % 1000,2 hPa 0,0 l/m² 20,8 km/h (4 Bft) W-SW 242 ° 0 min 0 W/m² 3,8 °C -2,4 °C 30,6 km/h (5 Bft)
24.03.2024 21:20 20,9 °C 5,8 °C 50 % 87 % 1000,2 hPa 0,0 l/m² 23,7 km/h (4 Bft) SW 217 ° 0 min 0 W/m² 3,8 °C -3,4 °C 37,0 km/h (5 Bft)
24.03.2024 21:22 20,9 °C 5,8 °C 50 % 87 % 1000,2 hPa 0,0 l/m² 20,6 km/h (4 Bft) SW 221 ° 0 min 0 W/m² 3,8 °C -2,4 °C 29,0 km/h (5 Bft)
24.03.2024 21:23 20,9 °C 5,8 °C 50 % 87 % 1000,2 hPa 0,0 l/m² 19,0 km/h (3 Bft) S-SW 212 ° 0 min 0 W/m² 3,8 °C -1,7 °C 33,8 km/h (5 Bft)
24.03.2024 21:24 20,9 °C 5,8 °C 50 % 87 % 1000,3 hPa 0,0 l/m² 26,1 km/h (4 Bft) SW 235 ° 0 min 0 W/m² 3,8 °C -4,2 °C 33,8 km/h (5 Bft)
24.03.2024 21:25 20,9 °C 5,8 °C 50 % 87 % 1000,2 hPa 0,0 l/m² 27,8 km/h (5 Bft) SW 232 ° 0 min 0 W/m² 3,8 °C -4,7 °C 33,8 km/h (5 Bft)
24.03.2024 21:26 20,9 °C 5,8 °C 50 % 87 % 1000,3 hPa 0,0 l/m² 26,8 km/h (4 Bft) S-SW 211 ° 0 min 0 W/m² 3,8 °C -4,4 °C 33,8 km/h (5 Bft)
24.03.2024 21:27 20,9 °C 5,8 °C 50 % 87 % 1000,2 hPa 0,0 l/m² 18,9 km/h (3 Bft) SW 220 ° 0 min 0 W/m² 3,8 °C -1,7 °C 24,1 km/h (4 Bft)
24.03.2024 21:28 20,9 °C 5,8 °C 50 % 87 % 1000,2 hPa 0,0 l/m² 21,4 km/h (4 Bft) SW 223 ° 0 min 0 W/m² 3,8 °C -2,7 °C 30,6 km/h (5 Bft)
24.03.2024 21:29 20,9 °C 5,8 °C 50 % 87 % 1000,2 hPa 0,0 l/m² 27,4 km/h (5 Bft) SW 226 ° 0 min 0 W/m² 3,8 °C -4,6 °C 33,8 km/h (5 Bft)
24.03.2024 21:31 20,9 °C 5,8 °C 50 % 87 % 1000,2 hPa 0,0 l/m² 22,1 km/h (4 Bft) SW 227 ° 0 min 0 W/m² 3,8 °C -2,9 °C 33,8 km/h (5 Bft)
24.03.2024 21:33 20,9 °C 5,8 °C 50 % 87 % 1000,2 hPa 0,0 l/m² 19,8 km/h (3 Bft) SW 227 ° 0 min 0 W/m² 3,8 °C -2,1 °C 29,0 km/h (5 Bft)
24.03.2024 21:34 20,9 °C 5,8 °C 50 % 87 % 1000,2 hPa 0,0 l/m² 18,3 km/h (3 Bft) SW 220 ° 0 min 0 W/m² 3,8 °C -1,5 °C 27,4 km/h (5 Bft)
24.03.2024 21:35 20,9 °C 5,8 °C 50 % 87 % 1000,3 hPa 0,0 l/m² 17,3 km/h (3 Bft) W-SW 240 ° 0 min 0 W/m² 3,8 °C -1,0 °C 22,5 km/h (4 Bft)
24.03.2024 21:36 20,9 °C 5,8 °C 50 % 87 % 1000,3 hPa 0,0 l/m² 21,7 km/h (4 Bft) W-SW 255 ° 0 min 0 W/m² 3,8 °C -2,8 °C 29,0 km/h (5 Bft)
24.03.2024 21:37 20,9 °C 5,8 °C 50 % 87 % 1000,3 hPa 0,0 l/m² 20,7 km/h (4 Bft) SW 228 ° 0 min 0 W/m² 3,8 °C -2,4 °C 29,0 km/h (5 Bft)
24.03.2024 21:38 20,9 °C 5,7 °C 50 % 87 % 1000,3 hPa 0,0 l/m² 23,9 km/h (4 Bft) S-SW 202 ° 0 min 0 W/m² 3,7 °C -3,6 °C 32,2 km/h (5 Bft)
24.03.2024 21:39 20,9 °C 5,7 °C 50 % 87 % 1000,3 hPa 0,0 l/m² 19,4 km/h (3 Bft) SW 233 ° 0 min 0 W/m² 3,7 °C -2,0 °C 30,6 km/h (5 Bft)
24.03.2024 21:41 20,9 °C 5,7 °C 50 % 87 % 1000,4 hPa 0,0 l/m² 25,0 km/h (4 Bft) SW 236 ° 0 min 0 W/m² 3,7 °C -4,0 °C 32,2 km/h (5 Bft)
24.03.2024 21:43 20,9 °C 5,7 °C 50 % 87 % 1000,4 hPa 0,0 l/m² 22,2 km/h (4 Bft) W-SW 238 ° 0 min 0 W/m² 3,7 °C -3,1 °C 33,8 km/h (5 Bft)
24.03.2024 21:44 20,9 °C 5,7 °C 50 % 87 % 1000,3 hPa 0,0 l/m² 20,0 km/h (4 Bft) SW 231 ° 0 min 0 W/m² 3,7 °C -2,3 °C 33,8 km/h (5 Bft)
24.03.2024 21:46 20,9 °C 5,7 °C 50 % 87 % 1000,3 hPa 0,0 l/m² 23,4 km/h (4 Bft) SW 232 ° 0 min 0 W/m² 3,7 °C -3,5 °C 33,8 km/h (5 Bft)
24.03.2024 21:47 20,9 °C 5,7 °C 50 % 87 % 1000,3 hPa 0,0 l/m² 24,5 km/h (4 Bft) SW 229 ° 0 min 0 W/m² 3,7 °C -3,8 °C 30,6 km/h (5 Bft)
24.03.2024 21:48 20,9 °C 5,7 °C 50 % 87 % 1000,4 hPa 0,0 l/m² 24,6 km/h (4 Bft) SW 222 ° 0 min 0 W/m² 3,7 °C -3,9 °C 29,0 km/h (5 Bft)
24.03.2024 21:49 20,9 °C 5,7 °C 50 % 87 % 1000,4 hPa 0,0 l/m² 20,4 km/h (4 Bft) W-SW 240 ° 0 min 0 W/m² 3,7 °C -2,4 °C 25,7 km/h (4 Bft)
24.03.2024 21:50 20,9 °C 5,7 °C 50 % 87 % 1000,4 hPa 0,0 l/m² 21,8 km/h (4 Bft) W-SW 242 ° 0 min 0 W/m² 3,7 °C -2,9 °C 30,6 km/h (5 Bft)
24.03.2024 21:52 20,9 °C 5,7 °C 50 % 87 % 1000,4 hPa 0,0 l/m² 20,4 km/h (4 Bft) SW 229 ° 0 min 0 W/m² 3,7 °C -2,4 °C 29,0 km/h (5 Bft)
24.03.2024 21:53 20,9 °C 5,6 °C 50 % 87 % 1000,4 hPa 0,0 l/m² 21,3 km/h (4 Bft) SW 225 ° 0 min 0 W/m² 3,6 °C -2,9 °C 25,7 km/h (4 Bft)
24.03.2024 21:54 20,9 °C 5,6 °C 50 % 87 % 1000,4 hPa 0,0 l/m² 22,4 km/h (4 Bft) SW 234 ° 0 min 0 W/m² 3,6 °C -3,3 °C 25,7 km/h (4 Bft)
24.03.2024 21:55 20,9 °C 5,6 °C 50 % 86 % 1000,4 hPa 0,0 l/m² 21,6 km/h (4 Bft) W-SW 242 ° 0 min 0 W/m² 3,4 °C -3,0 °C 29,0 km/h (5 Bft)
24.03.2024 21:56 20,9 °C 5,6 °C 50 % 86 % 1000,4 hPa 0,0 l/m² 24,9 km/h (4 Bft) SW 232 ° 0 min 0 W/m² 3,4 °C -4,1 °C 35,4 km/h (5 Bft)
24.03.2024 21:57 20,9 °C 5,6 °C 50 % 86 % 1000,4 hPa 0,0 l/m² 21,3 km/h (4 Bft) W-SW 252 ° 0 min 0 W/m² 3,4 °C -2,9 °C 33,8 km/h (5 Bft)
24.03.2024 21:58 20,9 °C 5,6 °C 50 % 86 % 1000,5 hPa 0,0 l/m² 18,7 km/h (3 Bft) W-SW 248 ° 0 min 0 W/m² 3,4 °C -1,9 °C 29,0 km/h (5 Bft)
24.03.2024 21:59 20,9 °C 5,6 °C 50 % 86 % 1000,4 hPa 0,0 l/m² 20,3 km/h (4 Bft) W-SW 240 ° 0 min 0 W/m² 3,4 °C -2,5 °C 29,0 km/h (5 Bft)
24.03.2024 22:01 20,9 °C 5,6 °C 50 % 86 % 1000,4 hPa 0,0 l/m² 19,4 km/h (3 Bft) W-SW 256 ° 0 min 0 W/m² 3,4 °C -2,2 °C 29,0 km/h (5 Bft)
24.03.2024 22:03 20,9 °C 5,5 °C 50 % 86 % 1000,4 hPa 0,0 l/m² 18,1 km/h (3 Bft) SW 236 ° 0 min 0 W/m² 3,3 °C -1,8 °C 30,6 km/h (5 Bft)
24.03.2024 22:04 20,9 °C 5,5 °C 50 % 86 % 1000,4 hPa 0,0 l/m² 23,5 km/h (4 Bft) SW 221 ° 0 min 0 W/m² 3,3 °C -3,8 °C 30,6 km/h (5 Bft)
24.03.2024 22:05 20,9 °C 5,5 °C 50 % 86 % 1000,4 hPa 0,0 l/m² 20,8 km/h (4 Bft) SW 229 ° 0 min 0 W/m² 3,3 °C -2,8 °C 27,4 km/h (5 Bft)
24.03.2024 22:06 20,9 °C 5,5 °C 50 % 86 % 1000,5 hPa 0,0 l/m² 19,4 km/h (3 Bft) SW 217 ° 0 min 0 W/m² 3,3 °C -2,3 °C 25,7 km/h (4 Bft)
24.03.2024 22:07 20,9 °C 5,4 °C 50 % 86 % 1000,6 hPa 0,0 l/m² 17,8 km/h (3 Bft) SW 235 ° 0 min 0 W/m² 3,3 °C -1,7 °C 24,1 km/h (4 Bft)
24.03.2024 22:08 20,9 °C 5,4 °C 50 % 86 % 1000,6 hPa 0,0 l/m² 19,5 km/h (3 Bft) W-SW 249 ° 0 min 0 W/m² 3,3 °C -2,5 °C 25,7 km/h (4 Bft)
24.03.2024 22:09 20,9 °C 5,5 °C 50 % 86 % 1000,5 hPa 0,0 l/m² 22,4 km/h (4 Bft) SW 223 ° 0 min 0 W/m² 3,3 °C -3,4 °C 30,6 km/h (5 Bft)
24.03.2024 22:11 20,9 °C 5,4 °C 50 % 86 % 1000,5 hPa 0,0 l/m² 20,2 km/h (4 Bft) SW 220 ° 0 min 0 W/m² 3,3 °C -2,7 °C 30,6 km/h (5 Bft)
24.03.2024 22:13 20,9 °C 5,5 °C 50 % 86 % 1000,5 hPa 0,0 l/m² 21,8 km/h (4 Bft) W-SW 240 ° 0 min 0 W/m² 3,3 °C -3,2 °C 32,2 km/h (5 Bft)
24.03.2024 22:14 20,9 °C 5,4 °C 50 % 86 % 1000,5 hPa 0,0 l/m² 19,9 km/h (4 Bft) SW 231 ° 0 min 0 W/m² 3,3 °C -2,6 °C 25,7 km/h (4 Bft)
24.03.2024 22:15 20,9 °C 5,5 °C 50 % 86 % 1000,6 hPa 0,0 l/m² 19,3 km/h (3 Bft) SW 231 ° 0 min 0 W/m² 3,3 °C -2,2 °C 29,0 km/h (5 Bft)
24.03.2024 22:16 20,9 °C 5,5 °C 50 % 86 % 1000,6 hPa 0,0 l/m² 19,5 km/h (3 Bft) SW 230 ° 0 min 0 W/m² 3,3 °C -2,3 °C 25,7 km/h (4 Bft)
24.03.2024 22:17 20,9 °C 5,5 °C 50 % 86 % 1000,6 hPa 0,0 l/m² 19,5 km/h (3 Bft) W-SW 238 ° 0 min 0 W/m² 3,3 °C -2,3 °C 29,0 km/h (5 Bft)
24.03.2024 22:18 20,9 °C 5,5 °C 50 % 86 % 1000,6 hPa 0,0 l/m² 16,7 km/h (3 Bft) SW 215 ° 0 min 0 W/m² 3,3 °C -1,1 °C 20,9 km/h (4 Bft)
24.03.2024 22:19 20,9 °C 5,4 °C 50 % 86 % 1000,5 hPa 0,0 l/m² 16,9 km/h (3 Bft) W-SW 238 ° 0 min 0 W/m² 3,3 °C -1,3 °C 24,1 km/h (4 Bft)
24.03.2024 22:21 20,9 °C 5,4 °C 50 % 86 % 1000,6 hPa 0,0 l/m² 19,0 km/h (3 Bft) W-SW 238 ° 0 min 0 W/m² 3,3 °C -2,3 °C 27,4 km/h (5 Bft)
24.03.2024 22:23 20,9 °C 5,4 °C 50 % 86 % 1000,6 hPa 0,0 l/m² 19,5 km/h (3 Bft) SW 232 ° 0 min 0 W/m² 3,3 °C -2,5 °C 24,1 km/h (4 Bft)
24.03.2024 22:24 20,9 °C 5,4 °C 50 % 86 % 1000,5 hPa 0,0 l/m² 15,0 km/h (3 Bft) SW 233 ° 0 min 0 W/m² 3,3 °C -0,4 °C 22,5 km/h (4 Bft)
24.03.2024 22:25 20,8 °C 5,4 °C 50 % 86 % 1000,5 hPa 0,0 l/m² 13,6 km/h (3 Bft) W-SW 238 ° 0 min 0 W/m² 3,3 °C 0,3 °C 17,7 km/h (3 Bft)
24.03.2024 22:27 20,9 °C 5,4 °C 50 % 87 % 1000,6 hPa 0,0 l/m² 18,5 km/h (3 Bft) W-SW 252 ° 0 min 0 W/m² 3,4 °C -2,0 °C 27,4 km/h (5 Bft)
24.03.2024 22:28 20,9 °C 5,4 °C 50 % 87 % 1000,6 hPa 0,0 l/m² 16,8 km/h (3 Bft) SW 219 ° 0 min 0 W/m² 3,4 °C -1,3 °C 24,1 km/h (4 Bft)
24.03.2024 22:29 20,9 °C 5,3 °C 50 % 87 % 1000,6 hPa 0,0 l/m² 16,7 km/h (3 Bft) W-SW 241 ° 0 min 0 W/m² 3,3 °C -1,4 °C 22,5 km/h (4 Bft)
24.03.2024 22:31 20,9 °C 5,3 °C 50 % 87 % 1000,6 hPa 0,0 l/m² 18,2 km/h (3 Bft) W-SW 242 ° 0 min 0 W/m² 3,3 °C -2,0 °C 25,7 km/h (4 Bft)
24.03.2024 22:33 20,9 °C 5,3 °C 50 % 87 % 1000,6 hPa 0,0 l/m² 21,7 km/h (4 Bft) SW 231 ° 0 min 0 W/m² 3,3 °C -3,4 °C 29,0 km/h (5 Bft)
24.03.2024 22:34 20,8 °C 5,3 °C 50 % 87 % 1000,6 hPa 0,0 l/m² 17,2 km/h (3 Bft) W-SW 240 ° 0 min 0 W/m² 3,3 °C -1,6 °C 25,7 km/h (4 Bft)
24.03.2024 22:35 20,9 °C 5,3 °C 50 % 87 % 1000,6 hPa 0,0 l/m² 19,1 km/h (3 Bft) SW 219 ° 0 min 0 W/m² 3,3 °C -2,4 °C 30,6 km/h (5 Bft)
24.03.2024 22:36 20,9 °C 5,3 °C 50 % 87 % 1000,5 hPa 0,0 l/m² 19,4 km/h (3 Bft) W-SW 242 ° 0 min 0 W/m² 3,3 °C -2,5 °C 29,0 km/h (5 Bft)
24.03.2024 22:37 20,9 °C 5,3 °C 50 % 87 % 1000,6 hPa 0,0 l/m² 19,7 km/h (3 Bft) W-SW 242 ° 0 min 0 W/m² 3,3 °C -2,7 °C 25,7 km/h (4 Bft)
24.03.2024 22:38 20,9 °C 5,3 °C 50 % 87 % 1000,6 hPa 0,0 l/m² 20,6 km/h (4 Bft) W-SW 247 ° 0 min 0 W/m² 3,3 °C -3,0 °C 30,6 km/h (5 Bft)
24.03.2024 22:39 20,8 °C 5,3 °C 50 % 87 % 1000,6 hPa 0,0 l/m² 17,8 km/h (3 Bft) SW 220 ° 0 min 0 W/m² 3,3 °C -1,9 °C 25,7 km/h (4 Bft)
24.03.2024 22:41 20,9 °C 5,3 °C 50 % 87 % 1000,6 hPa 0,0 l/m² 21,0 km/h (4 Bft) W-SW 239 ° 0 min 0 W/m² 3,3 °C -3,2 °C 29,0 km/h (5 Bft)
24.03.2024 22:43 20,9 °C 5,3 °C 50 % 88 % 1000,6 hPa 0,0 l/m² 21,6 km/h (4 Bft) SW 222 ° 0 min 0 W/m² 3,5 °C -3,4 °C 29,0 km/h (5 Bft)
24.03.2024 22:44 20,9 °C 5,3 °C 50 % 88 % 1000,6 hPa 0,0 l/m² 18,8 km/h (3 Bft) SW 230 ° 0 min 0 W/m² 3,5 °C -2,3 °C 27,4 km/h (5 Bft)
24.03.2024 22:45 20,9 °C 5,3 °C 50 % 88 % 1000,6 hPa 0,0 l/m² 22,0 km/h (4 Bft) W-SW 247 ° 0 min 0 W/m² 3,5 °C -3,5 °C 27,4 km/h (5 Bft)
24.03.2024 22:47 20,9 °C 5,3 °C 50 % 88 % 1000,5 hPa 0,0 l/m² 20,3 km/h (4 Bft) W-SW 248 ° 0 min 0 W/m² 3,5 °C -2,9 °C 30,6 km/h (5 Bft)
24.03.2024 22:48 20,9 °C 5,3 °C 50 % 88 % 1000,5 hPa 0,0 l/m² 17,3 km/h (3 Bft) W-SW 252 ° 0 min 0 W/m² 3,5 °C -1,7 °C 20,9 km/h (4 Bft)
24.03.2024 22:49 20,9 °C 5,3 °C 50 % 88 % 1000,5 hPa 0,0 l/m² 21,5 km/h (4 Bft) W-SW 237 ° 0 min 0 W/m² 3,5 °C -3,4 °C 24,1 km/h (4 Bft)
24.03.2024 22:51 20,9 °C 5,3 °C 50 % 88 % 1000,5 hPa 0,0 l/m² 18,8 km/h (3 Bft) SW 236 ° 0 min 0 W/m² 3,5 °C -2,3 °C 25,7 km/h (4 Bft)
24.03.2024 22:53 20,8 °C 5,3 °C 50 % 88 % 1000,6 hPa 0,0 l/m² 17,5 km/h (3 Bft) SW 221 ° 0 min 0 W/m² 3,5 °C -1,7 °C 24,1 km/h (4 Bft)
24.03.2024 22:54 20,9 °C 5,3 °C 50 % 88 % 1000,5 hPa 0,0 l/m² 15,5 km/h (3 Bft) SW 221 ° 0 min 0 W/m² 3,5 °C -0,8 °C 17,7 km/h (3 Bft)
24.03.2024 22:55 20,9 °C 5,3 °C 50 % 88 % 1000,5 hPa 0,0 l/m² 16,0 km/h (3 Bft) W-SW 251 ° 0 min 0 W/m² 3,5 °C -1,1 °C 22,5 km/h (4 Bft)
24.03.2024 22:56 20,8 °C 5,3 °C 50 % 88 % 1000,5 hPa 0,0 l/m² 21,7 km/h (4 Bft) SW 235 ° 0 min 0 W/m² 3,5 °C -3,4 °C 25,7 km/h (4 Bft)
24.03.2024 22:57 20,9 °C 5,4 °C 50 % 88 % 1000,6 hPa 0,0 l/m² 19,7 km/h (3 Bft) W-SW 237 ° 0 min 0 W/m² 3,6 °C -2,5 °C 27,4 km/h (5 Bft)
24.03.2024 22:58 20,9 °C 5,3 °C 50 % 88 % 1000,7 hPa 0,0 l/m² 21,2 km/h (4 Bft) W-SW 242 ° 0 min 0 W/m² 3,5 °C -3,2 °C 30,6 km/h (5 Bft)
24.03.2024 22:59 20,9 °C 5,4 °C 50 % 88 % 1000,6 hPa 0,0 l/m² 16,7 km/h (3 Bft) W-SW 250 ° 0 min 0 W/m² 3,6 °C -1,3 °C 20,9 km/h (4 Bft)
24.03.2024 23:01 20,8 °C 5,4 °C 50 % 88 % 1000,5 hPa 0,0 l/m² 21,7 km/h (4 Bft) SW 232 ° 0 min 0 W/m² 3,6 °C -3,3 °C 29,0 km/h (5 Bft)
24.03.2024 23:03 20,8 °C 5,3 °C 50 % 88 % 1000,6 hPa 0,0 l/m² 20,4 km/h (4 Bft) SW 236 ° 0 min 0 W/m² 3,5 °C -2,9 °C 30,6 km/h (5 Bft)
24.03.2024 23:04 20,8 °C 5,4 °C 50 % 88 % 1000,6 hPa 0,0 l/m² 20,0 km/h (4 Bft) W-SW 254 ° 0 min 0 W/m² 3,6 °C -2,7 °C 27,4 km/h (5 Bft)
24.03.2024 23:05 20,8 °C 5,4 °C 50 % 88 % 1000,6 hPa 0,0 l/m² 20,8 km/h (4 Bft) W-SW 244 ° 0 min 0 W/m² 3,6 °C -3,0 °C 29,0 km/h (5 Bft)
24.03.2024 23:06 20,8 °C 5,4 °C 50 % 88 % 1000,6 hPa 0,0 l/m² 18,1 km/h (3 Bft) SW 219 ° 0 min 0 W/m² 3,6 °C -1,9 °C 24,1 km/h (4 Bft)
24.03.2024 23:07 20,8 °C 5,4 °C 50 % 88 % 1000,6 hPa 0,0 l/m² 18,4 km/h (3 Bft) W-SW 254 ° 0 min 0 W/m² 3,6 °C -2,0 °C 24,1 km/h (4 Bft)
24.03.2024 23:08 20,8 °C 5,5 °C 50 % 88 % 1000,7 hPa 0,0 l/m² 22,6 km/h (4 Bft) W 259 ° 0 min 0 W/m² 3,7 °C -3,5 °C 33,8 km/h (5 Bft)
24.03.2024 23:09 20,9 °C 5,4 °C 50 % 88 % 1000,7 hPa 0,0 l/m² 24,3 km/h (4 Bft) SW 229 ° 0 min 0 W/m² 3,6 °C -4,2 °C 29,0 km/h (5 Bft)
24.03.2024 23:11 20,8 °C 5,5 °C 50 % 88 % 1000,7 hPa 0,0 l/m² 21,5 km/h (4 Bft) W-SW 244 ° 0 min 0 W/m² 3,7 °C -3,1 °C 30,6 km/h (5 Bft)
24.03.2024 23:13 20,9 °C 5,5 °C 50 % 88 % 1000,7 hPa 0,0 l/m² 18,3 km/h (3 Bft) W-SW 244 ° 0 min 0 W/m² 3,7 °C -1,8 °C 24,1 km/h (4 Bft)
24.03.2024 23:14 20,8 °C 5,5 °C 50 % 88 % 1000,7 hPa 0,0 l/m² 19,5 km/h (3 Bft) SW 236 ° 0 min 0 W/m² 3,7 °C -2,3 °C 24,1 km/h (4 Bft)
24.03.2024 23:15 20,9 °C 5,5 °C 50 % 88 % 1000,7 hPa 0,0 l/m² 23,8 km/h (4 Bft) W-SW 239 ° 0 min 0 W/m² 3,7 °C -3,9 °C 27,4 km/h (5 Bft)
24.03.2024 23:16 20,8 °C 5,5 °C 50 % 88 % 1000,7 hPa 0,0 l/m² 20,9 km/h (4 Bft) W-SW 247 ° 0 min 0 W/m² 3,7 °C -2,9 °C 24,1 km/h (4 Bft)
24.03.2024 23:17 20,8 °C 5,5 °C 50 % 88 % 1000,7 hPa 0,0 l/m² 19,3 km/h (3 Bft) W-SW 247 ° 0 min 0 W/m² 3,7 °C -2,2 °C 24,1 km/h (4 Bft)
24.03.2024 23:22 20,8 °C 5,5 °C 50 % 89 % 1000,7 hPa 0,0 l/m² 15,9 km/h (3 Bft) W-SW 243 ° 0 min 0 W/m² 3,8 °C -0,8 °C 19,3 km/h (3 Bft)
24.03.2024 23:24 20,8 °C 5,5 °C 50 % 89 % 1000,8 hPa 0,0 l/m² 18,2 km/h (3 Bft) W-SW 252 ° 0 min 0 W/m² 3,8 °C -1,8 °C 25,7 km/h (4 Bft)
24.03.2024 23:25 20,8 °C 5,4 °C 50 % 89 % 1000,8 hPa 0,0 l/m² 16,8 km/h (3 Bft) W-SW 246 ° 0 min 0 W/m² 3,7 °C -1,3 °C 20,9 km/h (4 Bft)
24.03.2024 23:27 20,8 °C 5,4 °C 50 % 89 % 1000,8 hPa 0,0 l/m² 17,6 km/h (3 Bft) W-SW 242 ° 0 min 0 W/m² 3,7 °C -1,7 °C 25,7 km/h (4 Bft)
24.03.2024 23:29 20,8 °C 5,4 °C 50 % 89 % 1000,8 hPa 0,0 l/m² 17,3 km/h (3 Bft) SW 232 ° 0 min 0 W/m² 3,7 °C -1,5 °C 24,1 km/h (4 Bft)
24.03.2024 23:30 20,8 °C 5,4 °C 50 % 89 % 1000,7 hPa 0,0 l/m² 16,0 km/h (3 Bft) W-SW 246 ° 0 min 0 W/m² 3,7 °C -0,9 °C 24,1 km/h (4 Bft)
24.03.2024 23:31 20,8 °C 5,4 °C 50 % 89 % 1000,8 hPa 0,0 l/m² 21,9 km/h (4 Bft) W-SW 246 ° 0 min 0 W/m² 3,7 °C -3,4 °C 27,4 km/h (5 Bft)
24.03.2024 23:32 20,8 °C 5,4 °C 50 % 89 % 1000,8 hPa 0,0 l/m² 21,4 km/h (4 Bft) SW 227 ° 0 min 0 W/m² 3,7 °C -3,2 °C 25,7 km/h (4 Bft)
24.03.2024 23:34 20,8 °C 5,4 °C 50 % 89 % 1000,8 hPa 0,0 l/m² 19,7 km/h (3 Bft) W-SW 253 ° 0 min 0 W/m² 3,7 °C -2,5 °C 29,0 km/h (5 Bft)
24.03.2024 23:36 20,8 °C 5,4 °C 50 % 89 % 1000,8 hPa 0,2 l/m² 21,2 km/h (4 Bft) W-SW 241 ° 0 min 0 W/m² 3,7 °C -3,1 °C 30,6 km/h (5 Bft)
24.03.2024 23:38 20,8 °C 5,4 °C 50 % 89 % 1000,7 hPa 0,0 l/m² 19,7 km/h (3 Bft) W-SW 248 ° 0 min 0 W/m² 3,7 °C -2,5 °C 27,4 km/h (5 Bft)
24.03.2024 23:40 20,8 °C 5,3 °C 50 % 89 % 1000,8 hPa 0,0 l/m² 23,3 km/h (4 Bft) W-SW 242 ° 0 min 0 W/m² 3,6 °C -4,0 °C 30,6 km/h (5 Bft)
24.03.2024 23:41 20,8 °C 5,4 °C 50 % 89 % 1000,7 hPa 0,0 l/m² 19,7 km/h (3 Bft) W 273 ° 0 min 0 W/m² 3,7 °C -2,5 °C 27,4 km/h (5 Bft)
24.03.2024 23:42 20,8 °C 5,3 °C 50 % 89 % 1000,7 hPa 0,0 l/m² 22,3 km/h (4 Bft) W-SW 237 ° 0 min 0 W/m² 3,6 °C -3,6 °C 25,7 km/h (4 Bft)
24.03.2024 23:43 20,8 °C 5,3 °C 50 % 89 % 1000,8 hPa 0,0 l/m² 20,1 km/h (4 Bft) W-SW 250 ° 0 min 0 W/m² 3,6 °C -2,8 °C 27,4 km/h (5 Bft)
24.03.2024 23:45 20,9 °C 5,3 °C 50 % 89 % 1000,8 hPa 0,0 l/m² 18,7 km/h (3 Bft) W-SW 246 ° 0 min 0 W/m² 3,6 °C -2,3 °C 29,0 km/h (5 Bft)
24.03.2024 23:47 20,8 °C 5,3 °C 50 % 89 % 1000,8 hPa 0,0 l/m² 17,3 km/h (3 Bft) W-SW 240 ° 0 min 0 W/m² 3,6 °C -1,7 °C 22,5 km/h (4 Bft)
24.03.2024 23:49 20,8 °C 5,4 °C 50 % 89 % 1000,8 hPa 0,0 l/m² 17,9 km/h (3 Bft) W-NW 286 ° 0 min 0 W/m² 3,7 °C -1,8 °C 25,7 km/h (4 Bft)
24.03.2024 23:50 20,8 °C 5,4 °C 50 % 89 % 1000,9 hPa 0,0 l/m² 16,2 km/h (3 Bft) SW 226 ° 0 min 0 W/m² 3,7 °C -1,0 °C 20,9 km/h (4 Bft)
24.03.2024 23:51 20,8 °C 5,4 °C 50 % 89 % 1000,9 hPa 0,0 l/m² 17,7 km/h (3 Bft) W 264 ° 0 min 0 W/m² 3,7 °C -1,7 °C 22,5 km/h (4 Bft)
24.03.2024 23:52 20,8 °C 5,3 °C 50 % 89 % 1000,9 hPa 0,0 l/m² 12,7 km/h (3 Bft) W-SW 248 ° 0 min 0 W/m² 3,6 °C 0,7 °C 16,1 km/h (3 Bft)
24.03.2024 23:54 20,9 °C 5,3 °C 50 % 89 % 1000,9 hPa 0,0 l/m² 17,9 km/h (3 Bft) W-SW 244 ° 0 min 0 W/m² 3,6 °C -1,9 °C 29,0 km/h (5 Bft)
24.03.2024 23:56 20,8 °C 5,4 °C 50 % 89 % 1001,0 hPa 0,0 l/m² 21,1 km/h (4 Bft) W-SW 246 ° 0 min 0 W/m² 3,7 °C -3,1 °C 29,0 km/h (5 Bft)
24.03.2024 23:58 20,9 °C 5,4 °C 50 % 89 % 1001,0 hPa 0,0 l/m² 15,7 km/h (3 Bft) W-SW 254 ° 0 min 0 W/m² 3,7 °C -0,8 °C 20,9 km/h (4 Bft)
_ Min-Zeit 23:56 02:09 23:58 15:54 21:06 - 06:08 - - - - 02:09 02:57 06:11
Minimum _ 20,8 °C 1,4 °C 50 % 72 % 1000,1 hPa - 2,2 km/h (1 Bft) - - - - -0,1 °C -8,9 °C 6,4 km/h (2 Bft)
_ Max-Zeit 02:23 14:49 01:45 06:38 00:04 23:36 16:31 - - 11:35 13:56 14:49 14:49 16:31
Maximum _ 21,3 °C 10,2 °C 52 % 91 % 1006,7 hPa 0,2 l/m² 39,4 km/h
SW (6 Bft)
- - 3 min 805 W/m² 6,4 °C 6,6 °C 54,7 km/h
W-SW (7 Bft)
Durchschnitt _ 21,0 °C 5,3 °C 50 % 86 % 1002,3 hPa #1,0 l/m² 17,2 km/h (3 Bft) SW - #10:04 h 98 W/m² 3,0 °C -1,2 °C 23,7 km/h (4 Bft)
© 2009 Mathias Hoßbach